<?xml version="1.0" encoding="utf-8"?>
<gpx xmlns:xsi="http://www.w3.org/2001/XMLSchema-instance" xmlns:xsd="http://www.w3.org/2001/XMLSchema" version="1.1" creator="Shapelink.com" xmlns="http://www.topografix.com/GPX/1/1" xmlns:gpxtpx="http://www.garmin.com/xmlschemas/TrackPointExtension/v1">
  <metadata>
    <name>Cycling 62.63 km, 2020-08-02</name>
    <desc></desc>
    <author><name>Marian Moron</name></author> 
    <time>2020-08-02T11:04:44Z</time>
  </metadata>
  <trk>
    <name>Cycling 62.63 km, 2020-08-02</name>
    <trkseg>
      <trkpt lat="51.231424888222" lon="4.459748229091">
        <ele>6.4</ele>
        <time>2020-08-02T11:04:44Z</time>
      </trkpt>
      <trkpt lat="51.231617671922" lon="4.459751749489">
        <ele>4.6</ele>
        <time>2020-08-02T11:04:48Z</time>
      </trkpt>
      <trkpt lat="51.231725295518" lon="4.459437931153">
        <ele>0</ele>
        <time>2020-08-02T11:04:55Z</time>
      </trkpt>
      <trkpt lat="51.2315809592" lon="4.458591107796">
        <ele>0</ele>
        <time>2020-08-02T11:05:06Z</time>
      </trkpt>
      <trkpt lat="51.231148201703" lon="4.458567470838">
        <ele>0</ele>
        <time>2020-08-02T11:05:21Z</time>
      </trkpt>
      <trkpt lat="51.230579573607" lon="4.458758242882">
        <ele>0</ele>
        <time>2020-08-02T11:05:32Z</time>
      </trkpt>
      <trkpt lat="51.230006251647" lon="4.458909200901">
        <ele>0</ele>
        <time>2020-08-02T11:05:43Z</time>
      </trkpt>
      <trkpt lat="51.229448436202" lon="4.459079688747">
        <ele>0</ele>
        <time>2020-08-02T11:05:54Z</time>
      </trkpt>
      <trkpt lat="51.228886765083" lon="4.459225701445">
        <ele>0</ele>
        <time>2020-08-02T11:06:05Z</time>
      </trkpt>
      <trkpt lat="51.228677804316" lon="4.459260905425">
        <ele>0</ele>
        <time>2020-08-02T11:06:09Z</time>
      </trkpt>
      <trkpt lat="51.228608486003" lon="4.459162837195">
        <ele>0</ele>
        <time>2020-08-02T11:06:11Z</time>
      </trkpt>
      <trkpt lat="51.228594572049" lon="4.458994696281">
        <ele>0.6</ele>
        <time>2020-08-02T11:06:13Z</time>
      </trkpt>
      <trkpt lat="51.228545705572" lon="4.458426654918">
        <ele>1.8</ele>
        <time>2020-08-02T11:06:20Z</time>
      </trkpt>
      <trkpt lat="51.2285048019" lon="4.458347865058">
        <ele>3.4</ele>
        <time>2020-08-02T11:06:22Z</time>
      </trkpt>
      <trkpt lat="51.22842601204" lon="4.458354067664">
        <ele>3.6</ele>
        <time>2020-08-02T11:06:24Z</time>
      </trkpt>
      <trkpt lat="51.227882110549" lon="4.458681129402">
        <ele>2</ele>
        <time>2020-08-02T11:06:36Z</time>
      </trkpt>
      <trkpt lat="51.227353631754" lon="4.458977681024">
        <ele>0.2</ele>
        <time>2020-08-02T11:06:46Z</time>
      </trkpt>
      <trkpt lat="51.22685105303" lon="4.459293008102">
        <ele>0</ele>
        <time>2020-08-02T11:06:56Z</time>
      </trkpt>
      <trkpt lat="51.226315281982" lon="4.459611436483">
        <ele>0</ele>
        <time>2020-08-02T11:07:07Z</time>
      </trkpt>
      <trkpt lat="51.226164659239" lon="4.459645466997">
        <ele>0</ele>
        <time>2020-08-02T11:07:14Z</time>
      </trkpt>
      <trkpt lat="51.225683705817" lon="4.460035979718">
        <ele>0</ele>
        <time>2020-08-02T11:07:27Z</time>
      </trkpt>
      <trkpt lat="51.225137541213" lon="4.460489524327">
        <ele>0</ele>
        <time>2020-08-02T11:07:37Z</time>
      </trkpt>
      <trkpt lat="51.224634124299" lon="4.460891101156">
        <ele>0</ele>
        <time>2020-08-02T11:07:48Z</time>
      </trkpt>
      <trkpt lat="51.224093072654" lon="4.461240458748">
        <ele>0</ele>
        <time>2020-08-02T11:08:00Z</time>
      </trkpt>
      <trkpt lat="51.223597031812" lon="4.461609513805">
        <ele>0</ele>
        <time>2020-08-02T11:08:10Z</time>
      </trkpt>
      <trkpt lat="51.22306830156" lon="4.462012180281">
        <ele>0</ele>
        <time>2020-08-02T11:08:21Z</time>
      </trkpt>
      <trkpt lat="51.222569243234" lon="4.462357011647">
        <ele>0</ele>
        <time>2020-08-02T11:08:31Z</time>
      </trkpt>
      <trkpt lat="51.222119386661" lon="4.462674601838">
        <ele>0</ele>
        <time>2020-08-02T11:08:41Z</time>
      </trkpt>
      <trkpt lat="51.222030287064" lon="4.462667058128">
        <ele>0</ele>
        <time>2020-08-02T11:08:43Z</time>
      </trkpt>
      <trkpt lat="51.221674978323" lon="4.462333123232">
        <ele>5.8</ele>
        <time>2020-08-02T11:08:50Z</time>
      </trkpt>
      <trkpt lat="51.221587387468" lon="4.462257518494">
        <ele>8</ele>
        <time>2020-08-02T11:08:53Z</time>
      </trkpt>
      <trkpt lat="51.221129400452" lon="4.461749491535">
        <ele>21</ele>
        <time>2020-08-02T11:09:03Z</time>
      </trkpt>
      <trkpt lat="51.220659427319" lon="4.461271555597">
        <ele>24</ele>
        <time>2020-08-02T11:09:12Z</time>
      </trkpt>
      <trkpt lat="51.220335634522" lon="4.460908535508">
        <ele>29.4</ele>
        <time>2020-08-02T11:09:20Z</time>
      </trkpt>
      <trkpt lat="51.22032239112" lon="4.460758415679">
        <ele>28.6</ele>
        <time>2020-08-02T11:09:22Z</time>
      </trkpt>
      <trkpt lat="51.220408137957" lon="4.459902288413">
        <ele>24</ele>
        <time>2020-08-02T11:09:32Z</time>
      </trkpt>
      <trkpt lat="51.220442084652" lon="4.459005760389">
        <ele>20.8</ele>
        <time>2020-08-02T11:09:42Z</time>
      </trkpt>
      <trkpt lat="51.220431942553" lon="4.458829321394">
        <ele>20.6</ele>
        <time>2020-08-02T11:09:44Z</time>
      </trkpt>
      <trkpt lat="51.220408389414" lon="4.458643494671">
        <ele>19.4</ele>
        <time>2020-08-02T11:09:46Z</time>
      </trkpt>
      <trkpt lat="51.220434540942" lon="4.457772866718">
        <ele>18.2</ele>
        <time>2020-08-02T11:09:55Z</time>
      </trkpt>
      <trkpt lat="51.220457842624" lon="4.456831663167">
        <ele>18.6</ele>
        <time>2020-08-02T11:10:05Z</time>
      </trkpt>
      <trkpt lat="51.220448538715" lon="4.456745581054">
        <ele>18.8</ele>
        <time>2020-08-02T11:10:06Z</time>
      </trkpt>
      <trkpt lat="51.220242092518" lon="4.455847544288">
        <ele>28.2</ele>
        <time>2020-08-02T11:10:16Z</time>
      </trkpt>
      <trkpt lat="51.219926849259" lon="4.4551223423">
        <ele>39</ele>
        <time>2020-08-02T11:10:25Z</time>
      </trkpt>
      <trkpt lat="51.219693078068" lon="4.454615572626">
        <ele>30.4</ele>
        <time>2020-08-02T11:10:31Z</time>
      </trkpt>
      <trkpt lat="51.219479004342" lon="4.453808563294">
        <ele>22.8</ele>
        <time>2020-08-02T11:10:40Z</time>
      </trkpt>
      <trkpt lat="51.219440699059" lon="4.453732539461">
        <ele>20.8</ele>
        <time>2020-08-02T11:10:43Z</time>
      </trkpt>
      <trkpt lat="51.219431898064" lon="4.45367143541">
        <ele>19.8</ele>
        <time>2020-08-02T11:10:57Z</time>
      </trkpt>
      <trkpt lat="51.219302732985" lon="4.453281928517">
        <ele>19.4</ele>
        <time>2020-08-02T11:11:06Z</time>
      </trkpt>
      <trkpt lat="51.219011042865" lon="4.45254323167">
        <ele>14.2</ele>
        <time>2020-08-02T11:11:17Z</time>
      </trkpt>
      <trkpt lat="51.218900234147" lon="4.452240309804">
        <ele>12.2</ele>
        <time>2020-08-02T11:11:21Z</time>
      </trkpt>
      <trkpt lat="51.218652213726" lon="4.451468336814">
        <ele>12.2</ele>
        <time>2020-08-02T11:11:38Z</time>
      </trkpt>
      <trkpt lat="51.218474852722" lon="4.450632326108">
        <ele>14</ele>
        <time>2020-08-02T11:11:52Z</time>
      </trkpt>
      <trkpt lat="51.218334120621" lon="4.449699504457">
        <ele>11</ele>
        <time>2020-08-02T11:12:02Z</time>
      </trkpt>
      <trkpt lat="51.218234208373" lon="4.448819488776">
        <ele>8.6</ele>
        <time>2020-08-02T11:12:11Z</time>
      </trkpt>
      <trkpt lat="51.218184503706" lon="4.448442051819">
        <ele>8</ele>
        <time>2020-08-02T11:12:15Z</time>
      </trkpt>
      <trkpt lat="51.218178217281" lon="4.448110380036">
        <ele>8.6</ele>
        <time>2020-08-02T11:12:18Z</time>
      </trkpt>
      <trkpt lat="51.218147120432" lon="4.44804550413">
        <ele>8.6</ele>
        <time>2020-08-02T11:12:20Z</time>
      </trkpt>
      <trkpt lat="51.218081825431" lon="4.447917931612">
        <ele>9</ele>
        <time>2020-08-02T11:12:22Z</time>
      </trkpt>
      <trkpt lat="51.218019380276" lon="4.447780719909">
        <ele>9.4</ele>
        <time>2020-08-02T11:12:24Z</time>
      </trkpt>
      <trkpt lat="51.217857777244" lon="4.44756019212">
        <ele>11.2</ele>
        <time>2020-08-02T11:12:28Z</time>
      </trkpt>
      <trkpt lat="51.217749315458" lon="4.44750990072">
        <ele>13</ele>
        <time>2020-08-02T11:12:30Z</time>
      </trkpt>
      <trkpt lat="51.21763263941" lon="4.447512918204">
        <ele>12.6</ele>
        <time>2020-08-02T11:12:32Z</time>
      </trkpt>
      <trkpt lat="51.217097455095" lon="4.447688854285">
        <ele>12.4</ele>
        <time>2020-08-02T11:12:41Z</time>
      </trkpt>
      <trkpt lat="51.216958650831" lon="4.447635126306">
        <ele>11.8</ele>
        <time>2020-08-02T11:12:43Z</time>
      </trkpt>
      <trkpt lat="51.216437045194" lon="4.447386938247">
        <ele>9.2</ele>
        <time>2020-08-02T11:12:50Z</time>
      </trkpt>
      <trkpt lat="51.215878894473" lon="4.447327342938">
        <ele>6.8</ele>
        <time>2020-08-02T11:12:57Z</time>
      </trkpt>
      <trkpt lat="51.215303225581" lon="4.447280571936">
        <ele>7.4</ele>
        <time>2020-08-02T11:13:05Z</time>
      </trkpt>
      <trkpt lat="51.214840041787" lon="4.447247044336">
        <ele>4</ele>
        <time>2020-08-02T11:13:14Z</time>
      </trkpt>
      <trkpt lat="51.21474675124" lon="4.447103546208">
        <ele>4.4</ele>
        <time>2020-08-02T11:13:17Z</time>
      </trkpt>
      <trkpt lat="51.214637032169" lon="4.446762989611">
        <ele>3.2</ele>
        <time>2020-08-02T11:13:22Z</time>
      </trkpt>
      <trkpt lat="51.214558661404" lon="4.446670704892">
        <ele>2.2</ele>
        <time>2020-08-02T11:13:24Z</time>
      </trkpt>
      <trkpt lat="51.214027332763" lon="4.446507174023">
        <ele>0.8</ele>
        <time>2020-08-02T11:13:33Z</time>
      </trkpt>
      <trkpt lat="51.213588288841" lon="4.44639510802">
        <ele>0</ele>
        <time>2020-08-02T11:13:41Z</time>
      </trkpt>
      <trkpt lat="51.213491310258" lon="4.446376164926">
        <ele>0</ele>
        <time>2020-08-02T11:13:43Z</time>
      </trkpt>
      <trkpt lat="51.212978840892" lon="4.445940389945">
        <ele>0.8</ele>
        <time>2020-08-02T11:13:55Z</time>
      </trkpt>
      <trkpt lat="51.212461761481" lon="4.445526910818">
        <ele>2.6</ele>
        <time>2020-08-02T11:14:06Z</time>
      </trkpt>
      <trkpt lat="51.211965972096" lon="4.445075294046">
        <ele>5.6</ele>
        <time>2020-08-02T11:14:16Z</time>
      </trkpt>
      <trkpt lat="51.211464566838" lon="4.444577828281">
        <ele>12</ele>
        <time>2020-08-02T11:14:26Z</time>
      </trkpt>
      <trkpt lat="51.210996856818" lon="4.444078015584">
        <ele>13.4</ele>
        <time>2020-08-02T11:14:36Z</time>
      </trkpt>
      <trkpt lat="51.210543479847" lon="4.44356621677">
        <ele>12.6</ele>
        <time>2020-08-02T11:14:46Z</time>
      </trkpt>
      <trkpt lat="51.210084067908" lon="4.44301720232">
        <ele>12.8</ele>
        <time>2020-08-02T11:14:56Z</time>
      </trkpt>
      <trkpt lat="51.209641755045" lon="4.442427535655">
        <ele>13</ele>
        <time>2020-08-02T11:15:06Z</time>
      </trkpt>
      <trkpt lat="51.209246213184" lon="4.441818003887">
        <ele>12.4</ele>
        <time>2020-08-02T11:15:16Z</time>
      </trkpt>
      <trkpt lat="51.208829548935" lon="4.441166394981">
        <ele>9.8</ele>
        <time>2020-08-02T11:15:27Z</time>
      </trkpt>
      <trkpt lat="51.208649254266" lon="4.440892055394">
        <ele>8.6</ele>
        <time>2020-08-02T11:15:32Z</time>
      </trkpt>
      <trkpt lat="51.208484130836" lon="4.440832208628">
        <ele>5.4</ele>
        <time>2020-08-02T11:15:37Z</time>
      </trkpt>
      <trkpt lat="51.208422440052" lon="4.441275611138">
        <ele>6.2</ele>
        <time>2020-08-02T11:15:48Z</time>
      </trkpt>
      <trkpt lat="51.208302495063" lon="4.442125871074">
        <ele>5</ele>
        <time>2020-08-02T11:17:12Z</time>
      </trkpt>
      <trkpt lat="51.208284557797" lon="4.44302642241">
        <ele>6.2</ele>
        <time>2020-08-02T11:17:25Z</time>
      </trkpt>
      <trkpt lat="51.208350690988" lon="4.44392915304">
        <ele>7.6</ele>
        <time>2020-08-02T11:17:36Z</time>
      </trkpt>
      <trkpt lat="51.208500643179" lon="4.444802044106">
        <ele>7.6</ele>
        <time>2020-08-02T11:17:47Z</time>
      </trkpt>
      <trkpt lat="51.2085307342" lon="4.444963814776">
        <ele>7.6</ele>
        <time>2020-08-02T11:17:49Z</time>
      </trkpt>
      <trkpt lat="51.208552275683" lon="4.445131536595">
        <ele>7.6</ele>
        <time>2020-08-02T11:17:51Z</time>
      </trkpt>
      <trkpt lat="51.208680267296" lon="4.445728411694">
        <ele>7.6</ele>
        <time>2020-08-02T11:17:58Z</time>
      </trkpt>
      <trkpt lat="51.208756710224" lon="4.445987412404">
        <ele>7.8</ele>
        <time>2020-08-02T11:18:01Z</time>
      </trkpt>
      <trkpt lat="51.208871206978" lon="4.446624520623">
        <ele>9</ele>
        <time>2020-08-02T11:18:08Z</time>
      </trkpt>
      <trkpt lat="51.208859220861" lon="4.446707249976">
        <ele>11.2</ele>
        <time>2020-08-02T11:18:17Z</time>
      </trkpt>
      <trkpt lat="51.20865478632" lon="4.446767180561">
        <ele>10.8</ele>
        <time>2020-08-02T11:18:38Z</time>
      </trkpt>
      <trkpt lat="51.208542301222" lon="4.446603984968">
        <ele>10.4</ele>
        <time>2020-08-02T11:18:42Z</time>
      </trkpt>
      <trkpt lat="51.208517993712" lon="4.446469120197">
        <ele>10</ele>
        <time>2020-08-02T11:18:44Z</time>
      </trkpt>
      <trkpt lat="51.208398970732" lon="4.445898564264">
        <ele>11.4</ele>
        <time>2020-08-02T11:18:52Z</time>
      </trkpt>
      <trkpt lat="51.208301321597" lon="4.445811895418">
        <ele>9.4</ele>
        <time>2020-08-02T11:18:55Z</time>
      </trkpt>
      <trkpt lat="51.207797569407" lon="4.446150021264">
        <ele>3</ele>
        <time>2020-08-02T11:19:07Z</time>
      </trkpt>
      <trkpt lat="51.207402279003" lon="4.44648227978">
        <ele>6.6</ele>
        <time>2020-08-02T11:19:16Z</time>
      </trkpt>
      <trkpt lat="51.20710748758" lon="4.446584036046">
        <ele>5.8</ele>
        <time>2020-08-02T11:19:21Z</time>
      </trkpt>
      <trkpt lat="51.206997433233" lon="4.446575402689">
        <ele>8.4</ele>
        <time>2020-08-02T11:19:23Z</time>
      </trkpt>
      <trkpt lat="51.206940855408" lon="4.446373063623">
        <ele>7.4</ele>
        <time>2020-08-02T11:19:26Z</time>
      </trkpt>
      <trkpt lat="51.206980250338" lon="4.446237947395">
        <ele>8.4</ele>
        <time>2020-08-02T11:19:28Z</time>
      </trkpt>
      <trkpt lat="51.207191222761" lon="4.44563319331">
        <ele>10</ele>
        <time>2020-08-02T11:19:36Z</time>
      </trkpt>
      <trkpt lat="51.207188205277" lon="4.445480055997">
        <ele>10.2</ele>
        <time>2020-08-02T11:19:38Z</time>
      </trkpt>
      <trkpt lat="51.207131375995" lon="4.445323146829">
        <ele>9.4</ele>
        <time>2020-08-02T11:19:40Z</time>
      </trkpt>
      <trkpt lat="51.207032469575" lon="4.445078982082">
        <ele>8.8</ele>
        <time>2020-08-02T11:19:43Z</time>
      </trkpt>
      <trkpt lat="51.20693733501" lon="4.444959456188">
        <ele>8.6</ele>
        <time>2020-08-02T11:19:45Z</time>
      </trkpt>
      <trkpt lat="51.206553024895" lon="4.444813275852">
        <ele>8</ele>
        <time>2020-08-02T11:19:51Z</time>
      </trkpt>
      <trkpt lat="51.206359570643" lon="4.44468352404">
        <ele>7.6</ele>
        <time>2020-08-02T11:19:54Z</time>
      </trkpt>
      <trkpt lat="51.206171899902" lon="4.444646727499">
        <ele>7.2</ele>
        <time>2020-08-02T11:19:57Z</time>
      </trkpt>
      <trkpt lat="51.205847268915" lon="4.444328885851">
        <ele>7.4</ele>
        <time>2020-08-02T11:20:03Z</time>
      </trkpt>
      <trkpt lat="51.20561970033" lon="4.443927057565">
        <ele>7.6</ele>
        <time>2020-08-02T11:20:08Z</time>
      </trkpt>
      <trkpt lat="51.205432029589" lon="4.443091130678">
        <ele>9.2</ele>
        <time>2020-08-02T11:20:17Z</time>
      </trkpt>
      <trkpt lat="51.205239329708" lon="4.44219326155">
        <ele>11.2</ele>
        <time>2020-08-02T11:20:27Z</time>
      </trkpt>
      <trkpt lat="51.205068758043" lon="4.44165681995">
        <ele>13.6</ele>
        <time>2020-08-02T11:20:33Z</time>
      </trkpt>
      <trkpt lat="51.20485527105" lon="4.441305199245">
        <ele>15.6</ele>
        <time>2020-08-02T11:20:38Z</time>
      </trkpt>
      <trkpt lat="51.204783689624" lon="4.441161030565">
        <ele>16.4</ele>
        <time>2020-08-02T11:20:40Z</time>
      </trkpt>
      <trkpt lat="51.204653183441" lon="4.441009904908">
        <ele>15.8</ele>
        <time>2020-08-02T11:20:43Z</time>
      </trkpt>
      <trkpt lat="51.203720026514" lon="4.440165344664">
        <ele>12.8</ele>
        <time>2020-08-02T11:21:01Z</time>
      </trkpt>
      <trkpt lat="51.203361197375" lon="4.439866362291">
        <ele>11.4</ele>
        <time>2020-08-02T11:21:07Z</time>
      </trkpt>
      <trkpt lat="51.203170760607" lon="4.439902823556">
        <ele>8.4</ele>
        <time>2020-08-02T11:21:12Z</time>
      </trkpt>
      <trkpt lat="51.202980994391" lon="4.440070293918">
        <ele>9.2</ele>
        <time>2020-08-02T11:21:19Z</time>
      </trkpt>
      <trkpt lat="51.20291569939" lon="4.440118406024">
        <ele>9.8</ele>
        <time>2020-08-02T11:21:21Z</time>
      </trkpt>
      <trkpt lat="51.202804806853" lon="4.440072473212">
        <ele>12.2</ele>
        <time>2020-08-02T11:21:24Z</time>
      </trkpt>
      <trkpt lat="51.202338857032" lon="4.439587747935">
        <ele>30.2</ele>
        <time>2020-08-02T11:21:35Z</time>
      </trkpt>
      <trkpt lat="51.201892437038" lon="4.439011659948">
        <ele>27.2</ele>
        <time>2020-08-02T11:21:45Z</time>
      </trkpt>
      <trkpt lat="51.201629999749" lon="4.438665655116">
        <ele>26.6</ele>
        <time>2020-08-02T11:21:51Z</time>
      </trkpt>
      <trkpt lat="51.201589934267" lon="4.438514864735">
        <ele>25.4</ele>
        <time>2020-08-02T11:21:53Z</time>
      </trkpt>
      <trkpt lat="51.201578367245" lon="4.438270113255">
        <ele>25.2</ele>
        <time>2020-08-02T11:21:56Z</time>
      </trkpt>
      <trkpt lat="51.201526902379" lon="4.438128207688">
        <ele>25</ele>
        <time>2020-08-02T11:21:58Z</time>
      </trkpt>
      <trkpt lat="51.20144299956" lon="4.438027205793">
        <ele>25</ele>
        <time>2020-08-02T11:22:00Z</time>
      </trkpt>
      <trkpt lat="51.200933799135" lon="4.437578690324">
        <ele>25.4</ele>
        <time>2020-08-02T11:22:08Z</time>
      </trkpt>
      <trkpt lat="51.200466005296" lon="4.437315917759">
        <ele>26.2</ele>
        <time>2020-08-02T11:22:15Z</time>
      </trkpt>
      <trkpt lat="51.19994012489" lon="4.437106789354">
        <ele>19</ele>
        <time>2020-08-02T11:22:24Z</time>
      </trkpt>
      <trkpt lat="51.199545756495" lon="4.437054067203">
        <ele>8.8</ele>
        <time>2020-08-02T11:22:35Z</time>
      </trkpt>
      <trkpt lat="51.199049380377" lon="4.436822559125">
        <ele>8.8</ele>
        <time>2020-08-02T11:22:47Z</time>
      </trkpt>
      <trkpt lat="51.198543197436" lon="4.43650698059">
        <ele>12.4</ele>
        <time>2020-08-02T11:22:55Z</time>
      </trkpt>
      <trkpt lat="51.198034248468" lon="4.43636197372">
        <ele>17.6</ele>
        <time>2020-08-02T11:23:04Z</time>
      </trkpt>
      <trkpt lat="51.197548265906" lon="4.435929132404">
        <ele>19.2</ele>
        <time>2020-08-02T11:23:12Z</time>
      </trkpt>
      <trkpt lat="51.197059768774" lon="4.435521688245">
        <ele>17.8</ele>
        <time>2020-08-02T11:23:19Z</time>
      </trkpt>
      <trkpt lat="51.196519303862" lon="4.435145676211">
        <ele>9.6</ele>
        <time>2020-08-02T11:23:27Z</time>
      </trkpt>
      <trkpt lat="51.196034913861" lon="4.434743512649">
        <ele>7.6</ele>
        <time>2020-08-02T11:23:36Z</time>
      </trkpt>
      <trkpt lat="51.195637611801" lon="4.434413517246">
        <ele>6.4</ele>
        <time>2020-08-02T11:23:44Z</time>
      </trkpt>
      <trkpt lat="51.195400906945" lon="4.434282675787">
        <ele>4.8</ele>
        <time>2020-08-02T11:23:49Z</time>
      </trkpt>
      <trkpt lat="51.194939148074" lon="4.433827622436">
        <ele>3</ele>
        <time>2020-08-02T11:23:59Z</time>
      </trkpt>
      <trkpt lat="51.194500020333" lon="4.433318254373">
        <ele>10.2</ele>
        <time>2020-08-02T11:24:09Z</time>
      </trkpt>
      <trkpt lat="51.194115207304" lon="4.432874013673">
        <ele>16.6</ele>
        <time>2020-08-02T11:24:17Z</time>
      </trkpt>
      <trkpt lat="51.19397305028" lon="4.432549634143">
        <ele>21.8</ele>
        <time>2020-08-02T11:24:21Z</time>
      </trkpt>
      <trkpt lat="51.19365034713" lon="4.431776571506">
        <ele>21</ele>
        <time>2020-08-02T11:24:30Z</time>
      </trkpt>
      <trkpt lat="51.193318759166" lon="4.431099481624">
        <ele>16.2</ele>
        <time>2020-08-02T11:24:38Z</time>
      </trkpt>
      <trkpt lat="51.192962779873" lon="4.430412836376">
        <ele>17.8</ele>
        <time>2020-08-02T11:24:47Z</time>
      </trkpt>
      <trkpt lat="51.192610572435" lon="4.429663745973">
        <ele>19</ele>
        <time>2020-08-02T11:24:56Z</time>
      </trkpt>
      <trkpt lat="51.192430613042" lon="4.429403068883">
        <ele>17.6</ele>
        <time>2020-08-02T11:25:01Z</time>
      </trkpt>
      <trkpt lat="51.192276050806" lon="4.429235263245">
        <ele>15.4</ele>
        <time>2020-08-02T11:25:04Z</time>
      </trkpt>
      <trkpt lat="51.192185358648" lon="4.429081539199">
        <ele>15</ele>
        <time>2020-08-02T11:25:06Z</time>
      </trkpt>
      <trkpt lat="51.191829882269" lon="4.428323480163">
        <ele>19.2</ele>
        <time>2020-08-02T11:25:16Z</time>
      </trkpt>
      <trkpt lat="51.191471472225" lon="4.427668518497">
        <ele>21.2</ele>
        <time>2020-08-02T11:25:25Z</time>
      </trkpt>
      <trkpt lat="51.191052544863" lon="4.427017915419">
        <ele>22.2</ele>
        <time>2020-08-02T11:25:34Z</time>
      </trkpt>
      <trkpt lat="51.190909046735" lon="4.426815576353">
        <ele>23.2</ele>
        <time>2020-08-02T11:25:37Z</time>
      </trkpt>
      <trkpt lat="51.190513337236" lon="4.426219790901">
        <ele>20.8</ele>
        <time>2020-08-02T11:25:46Z</time>
      </trkpt>
      <trkpt lat="51.190148221672" lon="4.42556273376">
        <ele>23.6</ele>
        <time>2020-08-02T11:25:56Z</time>
      </trkpt>
      <trkpt lat="51.189920150173" lon="4.425388222602">
        <ele>20.4</ele>
        <time>2020-08-02T11:26:02Z</time>
      </trkpt>
      <trkpt lat="51.18981143693" lon="4.425397358873">
        <ele>20.4</ele>
        <time>2020-08-02T11:26:05Z</time>
      </trkpt>
      <trkpt lat="51.189550592202" lon="4.424974743475">
        <ele>15.4</ele>
        <time>2020-08-02T11:26:16Z</time>
      </trkpt>
      <trkpt lat="51.189488398504" lon="4.425064345986">
        <ele>14.8</ele>
        <time>2020-08-02T11:26:18Z</time>
      </trkpt>
      <trkpt lat="51.189032004049" lon="4.425636662118">
        <ele>14</ele>
        <time>2020-08-02T11:26:28Z</time>
      </trkpt>
      <trkpt lat="51.18856756297" lon="4.426235716511">
        <ele>10.2</ele>
        <time>2020-08-02T11:26:37Z</time>
      </trkpt>
      <trkpt lat="51.18851391881" lon="4.426299083675">
        <ele>9.8</ele>
        <time>2020-08-02T11:26:38Z</time>
      </trkpt>
      <trkpt lat="51.188072444137" lon="4.426849606867">
        <ele>8.2</ele>
        <time>2020-08-02T11:26:46Z</time>
      </trkpt>
      <trkpt lat="51.187632478206" lon="4.427382611888">
        <ele>7</ele>
        <time>2020-08-02T11:26:54Z</time>
      </trkpt>
      <trkpt lat="51.187134006613" lon="4.42790715119">
        <ele>3.4</ele>
        <time>2020-08-02T11:27:03Z</time>
      </trkpt>
      <trkpt lat="51.186677360701" lon="4.428396235055">
        <ele>1.2</ele>
        <time>2020-08-02T11:27:12Z</time>
      </trkpt>
      <trkpt lat="51.186189450302" lon="4.428916499588">
        <ele>0</ele>
        <time>2020-08-02T11:27:22Z</time>
      </trkpt>
      <trkpt lat="51.185687206854" lon="4.429398877933">
        <ele>3.4</ele>
        <time>2020-08-02T11:27:32Z</time>
      </trkpt>
      <trkpt lat="51.185236092996" lon="4.429885866323">
        <ele>4.8</ele>
        <time>2020-08-02T11:27:41Z</time>
      </trkpt>
      <trkpt lat="51.185026377858" lon="4.43007135777">
        <ele>3.4</ele>
        <time>2020-08-02T11:27:45Z</time>
      </trkpt>
      <trkpt lat="51.184451882432" lon="4.430277468691">
        <ele>3.2</ele>
        <time>2020-08-02T11:27:54Z</time>
      </trkpt>
      <trkpt lat="51.183881326499" lon="4.430469665658">
        <ele>5</ele>
        <time>2020-08-02T11:28:03Z</time>
      </trkpt>
      <trkpt lat="51.183333234058" lon="4.430651636707">
        <ele>9.4</ele>
        <time>2020-08-02T11:28:11Z</time>
      </trkpt>
      <trkpt lat="51.182805509634" lon="4.430890939952">
        <ele>15</ele>
        <time>2020-08-02T11:28:19Z</time>
      </trkpt>
      <trkpt lat="51.182241323945" lon="4.431126722799">
        <ele>13</ele>
        <time>2020-08-02T11:28:28Z</time>
      </trkpt>
      <trkpt lat="51.181691303667" lon="4.431348507873">
        <ele>14.2</ele>
        <time>2020-08-02T11:28:37Z</time>
      </trkpt>
      <trkpt lat="51.181151928402" lon="4.43160776004">
        <ele>15</ele>
        <time>2020-08-02T11:28:46Z</time>
      </trkpt>
      <trkpt lat="51.180663012175" lon="4.432029956343">
        <ele>15.2</ele>
        <time>2020-08-02T11:28:55Z</time>
      </trkpt>
      <trkpt lat="51.180185830608" lon="4.43250127058">
        <ele>12.2</ele>
        <time>2020-08-02T11:29:05Z</time>
      </trkpt>
      <trkpt lat="51.179720970434" lon="4.432954312275">
        <ele>8.4</ele>
        <time>2020-08-02T11:29:15Z</time>
      </trkpt>
      <trkpt lat="51.179229791094" lon="4.433385141935">
        <ele>9.6</ele>
        <time>2020-08-02T11:29:25Z</time>
      </trkpt>
      <trkpt lat="51.178822095478" lon="4.433748581119">
        <ele>12.2</ele>
        <time>2020-08-02T11:29:33Z</time>
      </trkpt>
      <trkpt lat="51.178721764135" lon="4.433724692704">
        <ele>13.2</ele>
        <time>2020-08-02T11:29:35Z</time>
      </trkpt>
      <trkpt lat="51.178285570059" lon="4.433091188702">
        <ele>23.4</ele>
        <time>2020-08-02T11:29:47Z</time>
      </trkpt>
      <trkpt lat="51.177846693775" lon="4.432351569846">
        <ele>28</ele>
        <time>2020-08-02T11:29:58Z</time>
      </trkpt>
      <trkpt lat="51.177446877145" lon="4.431739020594">
        <ele>25.2</ele>
        <time>2020-08-02T11:30:10Z</time>
      </trkpt>
      <trkpt lat="51.177358867195" lon="4.431589990412">
        <ele>24.8</ele>
        <time>2020-08-02T11:30:12Z</time>
      </trkpt>
      <trkpt lat="51.177339085911" lon="4.431529137818">
        <ele>24.8</ele>
        <time>2020-08-02T11:30:14Z</time>
      </trkpt>
      <trkpt lat="51.177172286101" lon="4.430637638934">
        <ele>22.8</ele>
        <time>2020-08-02T11:30:25Z</time>
      </trkpt>
      <trkpt lat="51.177139261415" lon="4.430272355732">
        <ele>23.8</ele>
        <time>2020-08-02T11:30:33Z</time>
      </trkpt>
      <trkpt lat="51.176581613608" lon="4.430308230264">
        <ele>15.2</ele>
        <time>2020-08-02T11:30:51Z</time>
      </trkpt>
      <trkpt lat="51.175998736282" lon="4.430385092287">
        <ele>15.2</ele>
        <time>2020-08-02T11:31:02Z</time>
      </trkpt>
      <trkpt lat="51.17556723607" lon="4.430430019271">
        <ele>15.2</ele>
        <time>2020-08-02T11:31:09Z</time>
      </trkpt>
      <trkpt lat="51.175477465921" lon="4.430338069828">
        <ele>17.4</ele>
        <time>2020-08-02T11:31:11Z</time>
      </trkpt>
      <trkpt lat="51.175428264168" lon="4.430209323844">
        <ele>22.8</ele>
        <time>2020-08-02T11:31:13Z</time>
      </trkpt>
      <trkpt lat="51.175385935573" lon="4.430084433534">
        <ele>24.2</ele>
        <time>2020-08-02T11:31:15Z</time>
      </trkpt>
      <trkpt lat="51.175295411053" lon="4.43002190456">
        <ele>23.6</ele>
        <time>2020-08-02T11:31:17Z</time>
      </trkpt>
      <trkpt lat="51.174709683881" lon="4.429822666797">
        <ele>15.2</ele>
        <time>2020-08-02T11:31:27Z</time>
      </trkpt>
      <trkpt lat="51.174169554245" lon="4.429714707925">
        <ele>17.6</ele>
        <time>2020-08-02T11:31:35Z</time>
      </trkpt>
      <trkpt lat="51.173974926527" lon="4.429654106788">
        <ele>17.4</ele>
        <time>2020-08-02T11:31:38Z</time>
      </trkpt>
      <trkpt lat="51.173872080614" lon="4.429539693853">
        <ele>18</ele>
        <time>2020-08-02T11:31:40Z</time>
      </trkpt>
      <trkpt lat="51.173825058155" lon="4.429351101103">
        <ele>18.4</ele>
        <time>2020-08-02T11:31:42Z</time>
      </trkpt>
      <trkpt lat="51.173776778411" lon="4.428393804304">
        <ele>19.2</ele>
        <time>2020-08-02T11:31:51Z</time>
      </trkpt>
      <trkpt lat="51.173726738468" lon="4.427509932949">
        <ele>21.6</ele>
        <time>2020-08-02T11:31:59Z</time>
      </trkpt>
      <trkpt lat="51.173679548371" lon="4.426629665811">
        <ele>20.8</ele>
        <time>2020-08-02T11:32:07Z</time>
      </trkpt>
      <trkpt lat="51.173678039629" lon="4.426260778392">
        <ele>22</ele>
        <time>2020-08-02T11:32:11Z</time>
      </trkpt>
      <trkpt lat="51.173698407646" lon="4.425878815209">
        <ele>19.8</ele>
        <time>2020-08-02T11:32:19Z</time>
      </trkpt>
      <trkpt lat="51.173142939133" lon="4.425958107983">
        <ele>17</ele>
        <time>2020-08-02T11:32:34Z</time>
      </trkpt>
      <trkpt lat="51.172602138945" lon="4.42615701047">
        <ele>13</ele>
        <time>2020-08-02T11:32:47Z</time>
      </trkpt>
      <trkpt lat="51.172029152261" lon="4.426340071166">
        <ele>13</ele>
        <time>2020-08-02T11:32:56Z</time>
      </trkpt>
      <trkpt lat="51.171431355153" lon="4.426451801893">
        <ele>12.2</ele>
        <time>2020-08-02T11:33:04Z</time>
      </trkpt>
      <trkpt lat="51.170834144778" lon="4.426549115752">
        <ele>13.4</ele>
        <time>2020-08-02T11:33:12Z</time>
      </trkpt>
      <trkpt lat="51.170256715687" lon="4.426501674198">
        <ele>18</ele>
        <time>2020-08-02T11:33:20Z</time>
      </trkpt>
      <trkpt lat="51.169724045942" lon="4.426349710351">
        <ele>19.6</ele>
        <time>2020-08-02T11:33:28Z</time>
      </trkpt>
      <trkpt lat="51.169145443385" lon="4.426231777018">
        <ele>19</ele>
        <time>2020-08-02T11:33:37Z</time>
      </trkpt>
      <trkpt lat="51.168579916592" lon="4.426239823642">
        <ele>18.8</ele>
        <time>2020-08-02T11:33:46Z</time>
      </trkpt>
      <trkpt lat="51.167697973074" lon="4.426268573559">
        <ele>18.2</ele>
        <time>2020-08-02T11:34:00Z</time>
      </trkpt>
      <trkpt lat="51.167159435999" lon="4.426351219093">
        <ele>16.8</ele>
        <time>2020-08-02T11:34:09Z</time>
      </trkpt>
      <trkpt lat="51.16708810603" lon="4.426371922386">
        <ele>17</ele>
        <time>2020-08-02T11:34:12Z</time>
      </trkpt>
      <trkpt lat="51.167086681107" lon="4.425952659748">
        <ele>14.2</ele>
        <time>2020-08-02T11:34:50Z</time>
      </trkpt>
      <trkpt lat="51.166984589565" lon="4.425738083108">
        <ele>13.4</ele>
        <time>2020-08-02T11:34:55Z</time>
      </trkpt>
      <trkpt lat="51.166858944884" lon="4.424815235918">
        <ele>15.6</ele>
        <time>2020-08-02T11:35:06Z</time>
      </trkpt>
      <trkpt lat="51.166729779805" lon="4.423882581905">
        <ele>19</ele>
        <time>2020-08-02T11:35:15Z</time>
      </trkpt>
      <trkpt lat="51.166647721004" lon="4.423022515146">
        <ele>20.2</ele>
        <time>2020-08-02T11:35:23Z</time>
      </trkpt>
      <trkpt lat="51.166565243108" lon="4.42244382877">
        <ele>19.6</ele>
        <time>2020-08-02T11:35:28Z</time>
      </trkpt>
      <trkpt lat="51.166372627046" lon="4.421604549123">
        <ele>18.8</ele>
        <time>2020-08-02T11:35:38Z</time>
      </trkpt>
      <trkpt lat="51.16617866988" lon="4.420712631144">
        <ele>17.6</ele>
        <time>2020-08-02T11:35:47Z</time>
      </trkpt>
      <trkpt lat="51.165981192316" lon="4.419831777273">
        <ele>17.4</ele>
        <time>2020-08-02T11:35:56Z</time>
      </trkpt>
      <trkpt lat="51.165815649791" lon="4.418915551784">
        <ele>19</ele>
        <time>2020-08-02T11:36:05Z</time>
      </trkpt>
      <trkpt lat="51.165772650644" lon="4.417980886115">
        <ele>16.4</ele>
        <time>2020-08-02T11:36:14Z</time>
      </trkpt>
      <trkpt lat="51.165735686465" lon="4.417156274793">
        <ele>16.2</ele>
        <time>2020-08-02T11:36:22Z</time>
      </trkpt>
      <trkpt lat="51.165766364219" lon="4.416995509951">
        <ele>16.2</ele>
        <time>2020-08-02T11:36:24Z</time>
      </trkpt>
      <trkpt lat="51.165771225721" lon="4.416847820873">
        <ele>15.8</ele>
        <time>2020-08-02T11:36:26Z</time>
      </trkpt>
      <trkpt lat="51.165734512999" lon="4.416698790691">
        <ele>15.6</ele>
        <time>2020-08-02T11:36:28Z</time>
      </trkpt>
      <trkpt lat="51.165678102812" lon="4.416118176478">
        <ele>16.2</ele>
        <time>2020-08-02T11:36:35Z</time>
      </trkpt>
      <trkpt lat="51.165638707882" lon="4.415266994533">
        <ele>16.2</ele>
        <time>2020-08-02T11:36:45Z</time>
      </trkpt>
      <trkpt lat="51.165581124229" lon="4.414437521709">
        <ele>15.2</ele>
        <time>2020-08-02T11:36:56Z</time>
      </trkpt>
      <trkpt lat="51.16554416005" lon="4.413486259878">
        <ele>11.2</ele>
        <time>2020-08-02T11:37:05Z</time>
      </trkpt>
      <trkpt lat="51.165480541429" lon="4.412579422117">
        <ele>9.4</ele>
        <time>2020-08-02T11:37:14Z</time>
      </trkpt>
      <trkpt lat="51.165484229465" lon="4.412513624202">
        <ele>9.8</ele>
        <time>2020-08-02T11:37:15Z</time>
      </trkpt>
      <trkpt lat="51.165665529962" lon="4.411656072013">
        <ele>13.8</ele>
        <time>2020-08-02T11:37:30Z</time>
      </trkpt>
      <trkpt lat="51.165839370568" lon="4.410784186775">
        <ele>14.6</ele>
        <time>2020-08-02T11:37:41Z</time>
      </trkpt>
      <trkpt lat="51.16584004112" lon="4.41068402307">
        <ele>14.2</ele>
        <time>2020-08-02T11:37:43Z</time>
      </trkpt>
      <trkpt lat="51.165796958154" lon="4.410650160194">
        <ele>13.2</ele>
        <time>2020-08-02T11:37:45Z</time>
      </trkpt>
      <trkpt lat="51.165199244865" lon="4.410651501298">
        <ele>12.8</ele>
        <time>2020-08-02T11:37:56Z</time>
      </trkpt>
      <trkpt lat="51.164650146596" lon="4.410637754982">
        <ele>9</ele>
        <time>2020-08-02T11:38:05Z</time>
      </trkpt>
      <trkpt lat="51.164070202935" lon="4.410645885425">
        <ele>5.8</ele>
        <time>2020-08-02T11:38:14Z</time>
      </trkpt>
      <trkpt lat="51.163707769579" lon="4.410638844629">
        <ele>6.4</ele>
        <time>2020-08-02T11:38:20Z</time>
      </trkpt>
      <trkpt lat="51.163452205448" lon="4.410590648704">
        <ele>9.4</ele>
        <time>2020-08-02T11:38:24Z</time>
      </trkpt>
      <trkpt lat="51.163336870504" lon="4.410511942663">
        <ele>9.8</ele>
        <time>2020-08-02T11:38:26Z</time>
      </trkpt>
      <trkpt lat="51.162928336698" lon="4.409902159438">
        <ele>11.2</ele>
        <time>2020-08-02T11:38:35Z</time>
      </trkpt>
      <trkpt lat="51.162845020612" lon="4.409764863916">
        <ele>11.2</ele>
        <time>2020-08-02T11:38:37Z</time>
      </trkpt>
      <trkpt lat="51.162748042029" lon="4.409680877278">
        <ele>10.4</ele>
        <time>2020-08-02T11:38:39Z</time>
      </trkpt>
      <trkpt lat="51.162637065673" lon="4.409704514236">
        <ele>10.6</ele>
        <time>2020-08-02T11:38:41Z</time>
      </trkpt>
      <trkpt lat="51.162078076762" lon="4.410185802934">
        <ele>10</ele>
        <time>2020-08-02T11:38:50Z</time>
      </trkpt>
      <trkpt lat="51.161607516896" lon="4.410610849083">
        <ele>7.8</ele>
        <time>2020-08-02T11:38:59Z</time>
      </trkpt>
      <trkpt lat="51.16108331287" lon="4.411059029276">
        <ele>6.4</ele>
        <time>2020-08-02T11:39:07Z</time>
      </trkpt>
      <trkpt lat="51.16052088738" lon="4.411409727972">
        <ele>8.4</ele>
        <time>2020-08-02T11:39:15Z</time>
      </trkpt>
      <trkpt lat="51.159972878758" lon="4.411687587957">
        <ele>8.4</ele>
        <time>2020-08-02T11:39:24Z</time>
      </trkpt>
      <trkpt lat="51.15981848416" lon="4.411837959243">
        <ele>8.2</ele>
        <time>2020-08-02T11:39:28Z</time>
      </trkpt>
      <trkpt lat="51.159386481034" lon="4.412382363648">
        <ele>6.4</ele>
        <time>2020-08-02T11:39:38Z</time>
      </trkpt>
      <trkpt lat="51.158942994705" lon="4.4129110939">
        <ele>4.8</ele>
        <time>2020-08-02T11:39:47Z</time>
      </trkpt>
      <trkpt lat="51.158484001861" lon="4.413438818324">
        <ele>4</ele>
        <time>2020-08-02T11:39:57Z</time>
      </trkpt>
      <trkpt lat="51.15805074145" lon="4.414038124174">
        <ele>8.4</ele>
        <time>2020-08-02T11:40:07Z</time>
      </trkpt>
      <trkpt lat="51.157615469383" lon="4.414660061154">
        <ele>10</ele>
        <time>2020-08-02T11:40:17Z</time>
      </trkpt>
      <trkpt lat="51.157223699377" lon="4.415281746677">
        <ele>9.8</ele>
        <time>2020-08-02T11:40:26Z</time>
      </trkpt>
      <trkpt lat="51.156798317952" lon="4.415917429973">
        <ele>10</ele>
        <time>2020-08-02T11:40:36Z</time>
      </trkpt>
      <trkpt lat="51.156422222099" lon="4.41642059543">
        <ele>9.2</ele>
        <time>2020-08-02T11:40:44Z</time>
      </trkpt>
      <trkpt lat="51.15630479168" lon="4.416472730848">
        <ele>9.2</ele>
        <time>2020-08-02T11:40:46Z</time>
      </trkpt>
      <trkpt lat="51.156185265786" lon="4.416464013672">
        <ele>10</ele>
        <time>2020-08-02T11:40:48Z</time>
      </trkpt>
      <trkpt lat="51.15609105323" lon="4.416378853568">
        <ele>11.4</ele>
        <time>2020-08-02T11:40:50Z</time>
      </trkpt>
      <trkpt lat="51.156061381304" lon="4.416211299387">
        <ele>13.4</ele>
        <time>2020-08-02T11:40:52Z</time>
      </trkpt>
      <trkpt lat="51.156052747947" lon="4.416013738004">
        <ele>15</ele>
        <time>2020-08-02T11:40:54Z</time>
      </trkpt>
      <trkpt lat="51.155954009165" lon="4.41514487025">
        <ele>20.8</ele>
        <time>2020-08-02T11:41:02Z</time>
      </trkpt>
      <trkpt lat="51.155786622622" lon="4.414292095744">
        <ele>19.8</ele>
        <time>2020-08-02T11:41:11Z</time>
      </trkpt>
      <trkpt lat="51.155554192535" lon="4.413488271534">
        <ele>15.8</ele>
        <time>2020-08-02T11:41:19Z</time>
      </trkpt>
      <trkpt lat="51.15524364314" lon="4.412744713185">
        <ele>14.6</ele>
        <time>2020-08-02T11:41:27Z</time>
      </trkpt>
      <trkpt lat="51.155141803055" lon="4.412526616147">
        <ele>13.2</ele>
        <time>2020-08-02T11:41:30Z</time>
      </trkpt>
      <trkpt lat="51.155147921842" lon="4.412383453295">
        <ele>12.4</ele>
        <time>2020-08-02T11:41:32Z</time>
      </trkpt>
      <trkpt lat="51.155153705353" lon="4.412170469216">
        <ele>12.2</ele>
        <time>2020-08-02T11:41:35Z</time>
      </trkpt>
      <trkpt lat="51.155116405898" lon="4.412043231974">
        <ele>11.6</ele>
        <time>2020-08-02T11:41:37Z</time>
      </trkpt>
      <trkpt lat="51.155043399549" lon="4.411979697172">
        <ele>11</ele>
        <time>2020-08-02T11:41:39Z</time>
      </trkpt>
      <trkpt lat="51.154833181497" lon="4.411915575637">
        <ele>12.6</ele>
        <time>2020-08-02T11:41:43Z</time>
      </trkpt>
      <trkpt lat="51.154734777991" lon="4.411811556258">
        <ele>12.6</ele>
        <time>2020-08-02T11:41:45Z</time>
      </trkpt>
      <trkpt lat="51.154363124545" lon="4.411093646523">
        <ele>11.8</ele>
        <time>2020-08-02T11:41:54Z</time>
      </trkpt>
      <trkpt lat="51.154120887635" lon="4.410322176447">
        <ele>12.2</ele>
        <time>2020-08-02T11:42:02Z</time>
      </trkpt>
      <trkpt lat="51.15393690493" lon="4.409511143803">
        <ele>12.2</ele>
        <time>2020-08-02T11:42:10Z</time>
      </trkpt>
      <trkpt lat="51.153750659112" lon="4.408629116466">
        <ele>11.8</ele>
        <time>2020-08-02T11:42:19Z</time>
      </trkpt>
      <trkpt lat="51.153554774109" lon="4.407761086902">
        <ele>11.6</ele>
        <time>2020-08-02T11:42:28Z</time>
      </trkpt>
      <trkpt lat="51.153373138336" lon="4.406904372903">
        <ele>11</ele>
        <time>2020-08-02T11:42:37Z</time>
      </trkpt>
      <trkpt lat="51.153186473423" lon="4.406042881221">
        <ele>10.6</ele>
        <time>2020-08-02T11:42:46Z</time>
      </trkpt>
      <trkpt lat="51.153040712182" lon="4.405168565232">
        <ele>10.8</ele>
        <time>2020-08-02T11:42:55Z</time>
      </trkpt>
      <trkpt lat="51.153004418555" lon="4.404286537895">
        <ele>9.6</ele>
        <time>2020-08-02T11:43:04Z</time>
      </trkpt>
      <trkpt lat="51.15303585068" lon="4.403415742304">
        <ele>9.4</ele>
        <time>2020-08-02T11:43:13Z</time>
      </trkpt>
      <trkpt lat="51.153039873992" lon="4.402959347849">
        <ele>9.4</ele>
        <time>2020-08-02T11:43:18Z</time>
      </trkpt>
      <trkpt lat="51.153095781265" lon="4.402781651569">
        <ele>9.2</ele>
        <time>2020-08-02T11:43:21Z</time>
      </trkpt>
      <trkpt lat="51.153022523459" lon="4.40258878405">
        <ele>8.6</ele>
        <time>2020-08-02T11:43:26Z</time>
      </trkpt>
      <trkpt lat="51.152492284465" lon="4.402817945196">
        <ele>6.2</ele>
        <time>2020-08-02T11:43:37Z</time>
      </trkpt>
      <trkpt lat="51.151955675227" lon="4.403028917619">
        <ele>7.2</ele>
        <time>2020-08-02T11:43:45Z</time>
      </trkpt>
      <trkpt lat="51.151389729339" lon="4.403238297481">
        <ele>7.4</ele>
        <time>2020-08-02T11:43:53Z</time>
      </trkpt>
      <trkpt lat="51.150825292193" lon="4.403442229108">
        <ele>7.4</ele>
        <time>2020-08-02T11:44:01Z</time>
      </trkpt>
      <trkpt lat="51.150267057653" lon="4.403635431903">
        <ele>8</ele>
        <time>2020-08-02T11:44:09Z</time>
      </trkpt>
      <trkpt lat="51.14971578009" lon="4.403836178408">
        <ele>7.2</ele>
        <time>2020-08-02T11:44:17Z</time>
      </trkpt>
      <trkpt lat="51.149221918542" lon="4.404115379497">
        <ele>7.2</ele>
        <time>2020-08-02T11:44:25Z</time>
      </trkpt>
      <trkpt lat="51.148704252398" lon="4.40456020693">
        <ele>6.4</ele>
        <time>2020-08-02T11:44:34Z</time>
      </trkpt>
      <trkpt lat="51.148224304804" lon="4.404997071558">
        <ele>4.2</ele>
        <time>2020-08-02T11:44:42Z</time>
      </trkpt>
      <trkpt lat="51.147750056902" lon="4.405419686956">
        <ele>2.4</ele>
        <time>2020-08-02T11:44:50Z</time>
      </trkpt>
      <trkpt lat="51.147231887844" lon="4.405916733626">
        <ele>0.2</ele>
        <time>2020-08-02T11:44:59Z</time>
      </trkpt>
      <trkpt lat="51.146755125372" lon="4.406377067574">
        <ele>0</ele>
        <time>2020-08-02T11:45:07Z</time>
      </trkpt>
      <trkpt lat="51.146276351244" lon="4.406797755135">
        <ele>0.6</ele>
        <time>2020-08-02T11:45:15Z</time>
      </trkpt>
      <trkpt lat="51.145741334567" lon="4.407227746605">
        <ele>2.2</ele>
        <time>2020-08-02T11:45:24Z</time>
      </trkpt>
      <trkpt lat="51.145206066433" lon="4.407642818293">
        <ele>2.4</ele>
        <time>2020-08-02T11:45:33Z</time>
      </trkpt>
      <trkpt lat="51.144685885719" lon="4.408054704859">
        <ele>3.4</ele>
        <time>2020-08-02T11:45:42Z</time>
      </trkpt>
      <trkpt lat="51.14420300446" lon="4.408413031084">
        <ele>2.8</ele>
        <time>2020-08-02T11:45:51Z</time>
      </trkpt>
      <trkpt lat="51.144073001191" lon="4.408551919167">
        <ele>3</ele>
        <time>2020-08-02T11:45:54Z</time>
      </trkpt>
      <trkpt lat="51.143985745612" lon="4.408597684341">
        <ele>3.6</ele>
        <time>2020-08-02T11:45:56Z</time>
      </trkpt>
      <trkpt lat="51.143913493634" lon="4.408564408198">
        <ele>5.8</ele>
        <time>2020-08-02T11:45:58Z</time>
      </trkpt>
      <trkpt lat="51.143845013511" lon="4.408291744991">
        <ele>9.2</ele>
        <time>2020-08-02T11:46:02Z</time>
      </trkpt>
      <trkpt lat="51.143846522253" lon="4.408136512203">
        <ele>8.4</ele>
        <time>2020-08-02T11:46:04Z</time>
      </trkpt>
      <trkpt lat="51.143997815548" lon="4.407299663307">
        <ele>8.4</ele>
        <time>2020-08-02T11:46:14Z</time>
      </trkpt>
      <trkpt lat="51.144080796358" lon="4.40640087217">
        <ele>8.2</ele>
        <time>2020-08-02T11:46:24Z</time>
      </trkpt>
      <trkpt lat="51.144121280935" lon="4.405454052746">
        <ele>8.8</ele>
        <time>2020-08-02T11:46:34Z</time>
      </trkpt>
      <trkpt lat="51.144136033079" lon="4.404582586603">
        <ele>8.8</ele>
        <time>2020-08-02T11:46:43Z</time>
      </trkpt>
      <trkpt lat="51.144135194889" lon="4.403089351118">
        <ele>8.2</ele>
        <time>2020-08-02T11:46:58Z</time>
      </trkpt>
      <trkpt lat="51.144157323105" lon="4.402150075404">
        <ele>9</ele>
        <time>2020-08-02T11:47:08Z</time>
      </trkpt>
      <trkpt lat="51.144184145185" lon="4.401224462187">
        <ele>8.6</ele>
        <time>2020-08-02T11:47:18Z</time>
      </trkpt>
      <trkpt lat="51.14419462256" lon="4.400672094977">
        <ele>8.4</ele>
        <time>2020-08-02T11:47:24Z</time>
      </trkpt>
      <trkpt lat="51.144243572856" lon="4.399814710426">
        <ele>8.8</ele>
        <time>2020-08-02T11:47:34Z</time>
      </trkpt>
      <trkpt lat="51.144285901451" lon="4.399369044803">
        <ele>9</ele>
        <time>2020-08-02T11:47:39Z</time>
      </trkpt>
      <trkpt lat="51.144404756793" lon="4.398511157338">
        <ele>9.2</ele>
        <time>2020-08-02T11:47:49Z</time>
      </trkpt>
      <trkpt lat="51.144451527795" lon="4.398271434998">
        <ele>9.4</ele>
        <time>2020-08-02T11:47:52Z</time>
      </trkpt>
      <trkpt lat="51.144563845255" lon="4.397431233342">
        <ele>9.4</ele>
        <time>2020-08-02T11:48:02Z</time>
      </trkpt>
      <trkpt lat="51.144635761957" lon="4.396989926307">
        <ele>10</ele>
        <time>2020-08-02T11:48:07Z</time>
      </trkpt>
      <trkpt lat="51.144756461317" lon="4.396096499586">
        <ele>9.2</ele>
        <time>2020-08-02T11:48:17Z</time>
      </trkpt>
      <trkpt lat="51.144774566221" lon="4.395771030409">
        <ele>9</ele>
        <time>2020-08-02T11:48:23Z</time>
      </trkpt>
      <trkpt lat="51.144787474347" lon="4.395259902147">
        <ele>9.2</ele>
        <time>2020-08-02T11:48:57Z</time>
      </trkpt>
      <trkpt lat="51.144741792992" lon="4.394391369669">
        <ele>10</ele>
        <time>2020-08-02T11:49:07Z</time>
      </trkpt>
      <trkpt lat="51.144658225449" lon="4.393510264341">
        <ele>8.8</ele>
        <time>2020-08-02T11:49:16Z</time>
      </trkpt>
      <trkpt lat="51.144582536892" lon="4.39260761753">
        <ele>8</ele>
        <time>2020-08-02T11:49:25Z</time>
      </trkpt>
      <trkpt lat="51.144515565511" lon="4.391731289885">
        <ele>7.2</ele>
        <time>2020-08-02T11:49:34Z</time>
      </trkpt>
      <trkpt lat="51.144374665772" lon="4.390874575886">
        <ele>7.2</ele>
        <time>2020-08-02T11:49:43Z</time>
      </trkpt>
      <trkpt lat="51.144244662503" lon="4.390411643549">
        <ele>7.4</ele>
        <time>2020-08-02T11:49:48Z</time>
      </trkpt>
      <trkpt lat="51.144187833221" lon="4.390239311685">
        <ele>7.4</ele>
        <time>2020-08-02T11:49:50Z</time>
      </trkpt>
      <trkpt lat="51.143925228294" lon="4.389481420287">
        <ele>8.2</ele>
        <time>2020-08-02T11:49:59Z</time>
      </trkpt>
      <trkpt lat="51.143671927276" lon="4.38861783313">
        <ele>8.4</ele>
        <time>2020-08-02T11:50:09Z</time>
      </trkpt>
      <trkpt lat="51.143492303159" lon="4.387735889612">
        <ele>8.2</ele>
        <time>2020-08-02T11:50:18Z</time>
      </trkpt>
      <trkpt lat="51.143339165846" lon="4.386813880612">
        <ele>8</ele>
        <time>2020-08-02T11:50:27Z</time>
      </trkpt>
      <trkpt lat="51.143185022705" lon="4.385902684263">
        <ele>7.8</ele>
        <time>2020-08-02T11:50:36Z</time>
      </trkpt>
      <trkpt lat="51.14302450932" lon="4.384973550648">
        <ele>7.4</ele>
        <time>2020-08-02T11:50:45Z</time>
      </trkpt>
      <trkpt lat="51.142870533817" lon="4.38408154885">
        <ele>7.4</ele>
        <time>2020-08-02T11:50:54Z</time>
      </trkpt>
      <trkpt lat="51.14272946644" lon="4.383218883702">
        <ele>7.2</ele>
        <time>2020-08-02T11:51:03Z</time>
      </trkpt>
      <trkpt lat="51.142582028819" lon="4.382331491949">
        <ele>6.6</ele>
        <time>2020-08-02T11:51:12Z</time>
      </trkpt>
      <trkpt lat="51.142435848483" lon="4.38142951569">
        <ele>6</ele>
        <time>2020-08-02T11:51:21Z</time>
      </trkpt>
      <trkpt lat="51.142376001717" lon="4.380516810599">
        <ele>5.8</ele>
        <time>2020-08-02T11:51:32Z</time>
      </trkpt>
      <trkpt lat="51.142380360305" lon="4.37978750148">
        <ele>5.6</ele>
        <time>2020-08-02T11:51:43Z</time>
      </trkpt>
      <trkpt lat="51.142378935382" lon="4.378674971893">
        <ele>5.8</ele>
        <time>2020-08-02T11:53:28Z</time>
      </trkpt>
      <trkpt lat="51.142389412757" lon="4.377796967868">
        <ele>4.6</ele>
        <time>2020-08-02T11:53:43Z</time>
      </trkpt>
      <trkpt lat="51.14235144275" lon="4.376875964696">
        <ele>0.4</ele>
        <time>2020-08-02T11:53:55Z</time>
      </trkpt>
      <trkpt lat="51.142317663693" lon="4.375991422789">
        <ele>3.4</ele>
        <time>2020-08-02T11:54:06Z</time>
      </trkpt>
      <trkpt lat="51.142263265162" lon="4.375134960247">
        <ele>1.8</ele>
        <time>2020-08-02T11:54:17Z</time>
      </trkpt>
      <trkpt lat="51.142157904679" lon="4.374284616492">
        <ele>2.4</ele>
        <time>2020-08-02T11:54:27Z</time>
      </trkpt>
      <trkpt lat="51.14203041598" lon="4.373363529501">
        <ele>2.6</ele>
        <time>2020-08-02T11:54:37Z</time>
      </trkpt>
      <trkpt lat="51.14187199807" lon="4.372458451939">
        <ele>3.2</ele>
        <time>2020-08-02T11:54:47Z</time>
      </trkpt>
      <trkpt lat="51.141696229627" lon="4.371896948458">
        <ele>3</ele>
        <time>2020-08-02T11:54:54Z</time>
      </trkpt>
      <trkpt lat="51.141325162914" lon="4.371212314866">
        <ele>0</ele>
        <time>2020-08-02T11:55:04Z</time>
      </trkpt>
      <trkpt lat="51.140905565" lon="4.370551066775">
        <ele>0.6</ele>
        <time>2020-08-02T11:55:14Z</time>
      </trkpt>
      <trkpt lat="51.140514046451" lon="4.369905409018">
        <ele>1.4</ele>
        <time>2020-08-02T11:55:24Z</time>
      </trkpt>
      <trkpt lat="51.14036241788" lon="4.369655293122">
        <ele>2.4</ele>
        <time>2020-08-02T11:55:29Z</time>
      </trkpt>
      <trkpt lat="51.140012138279" lon="4.369129245078">
        <ele>9</ele>
        <time>2020-08-02T11:55:56Z</time>
      </trkpt>
      <trkpt lat="51.139870484169" lon="4.368920871044">
        <ele>7.6</ele>
        <time>2020-08-02T11:56:01Z</time>
      </trkpt>
      <trkpt lat="51.139755316863" lon="4.368686764577">
        <ele>2</ele>
        <time>2020-08-02T11:56:56Z</time>
      </trkpt>
      <trkpt lat="51.13935658988" lon="4.367999532596">
        <ele>0</ele>
        <time>2020-08-02T11:57:13Z</time>
      </trkpt>
      <trkpt lat="51.138969178462" lon="4.367383546765">
        <ele>0</ele>
        <time>2020-08-02T11:57:23Z</time>
      </trkpt>
      <trkpt lat="51.138589310754" lon="4.366715676973">
        <ele>0</ele>
        <time>2020-08-02T11:57:32Z</time>
      </trkpt>
      <trkpt lat="51.138205084458" lon="4.366066750275">
        <ele>0.6</ele>
        <time>2020-08-02T11:57:40Z</time>
      </trkpt>
      <trkpt lat="51.137827060768" lon="4.365438023956">
        <ele>2</ele>
        <time>2020-08-02T11:57:48Z</time>
      </trkpt>
      <trkpt lat="51.137447444517" lon="4.36478809143">
        <ele>1.4</ele>
        <time>2020-08-02T11:57:57Z</time>
      </trkpt>
      <trkpt lat="51.136882672095" lon="4.364798652624">
        <ele>0</ele>
        <time>2020-08-02T11:58:11Z</time>
      </trkpt>
      <trkpt lat="51.136309014859" lon="4.364913065559">
        <ele>0</ele>
        <time>2020-08-02T11:58:22Z</time>
      </trkpt>
      <trkpt lat="51.135929063332" lon="4.364695136159">
        <ele>0</ele>
        <time>2020-08-02T11:58:32Z</time>
      </trkpt>
      <trkpt lat="51.135638881954" lon="4.363958450968">
        <ele>8.4</ele>
        <time>2020-08-02T11:58:42Z</time>
      </trkpt>
      <trkpt lat="51.135400835994" lon="4.363096540191">
        <ele>8.2</ele>
        <time>2020-08-02T11:58:51Z</time>
      </trkpt>
      <trkpt lat="51.135140997094" lon="4.362280981321">
        <ele>11</ele>
        <time>2020-08-02T11:58:59Z</time>
      </trkpt>
      <trkpt lat="51.134877051063" lon="4.361510936168">
        <ele>12.2</ele>
        <time>2020-08-02T11:59:07Z</time>
      </trkpt>
      <trkpt lat="51.134617882715" lon="4.360736783884">
        <ele>12.8</ele>
        <time>2020-08-02T11:59:16Z</time>
      </trkpt>
      <trkpt lat="51.134465248316" lon="4.360364627524">
        <ele>12.2</ele>
        <time>2020-08-02T11:59:21Z</time>
      </trkpt>
      <trkpt lat="51.134343962223" lon="4.360310145174">
        <ele>10.6</ele>
        <time>2020-08-02T11:59:23Z</time>
      </trkpt>
      <trkpt lat="51.134228711098" lon="4.360367980284">
        <ele>8.6</ele>
        <time>2020-08-02T11:59:25Z</time>
      </trkpt>
      <trkpt lat="51.134133995628" lon="4.360478872821">
        <ele>6.6</ele>
        <time>2020-08-02T11:59:27Z</time>
      </trkpt>
      <trkpt lat="51.133727473478" lon="4.361067533658">
        <ele>0.2</ele>
        <time>2020-08-02T11:59:36Z</time>
      </trkpt>
      <trkpt lat="51.133231181179" lon="4.361488305038">
        <ele>0</ele>
        <time>2020-08-02T11:59:45Z</time>
      </trkpt>
      <trkpt lat="51.132704462583" lon="4.361933300109">
        <ele>0</ele>
        <time>2020-08-02T11:59:55Z</time>
      </trkpt>
      <trkpt lat="51.132658026857" lon="4.361999098024">
        <ele>0</ele>
        <time>2020-08-02T11:59:56Z</time>
      </trkpt>
      <trkpt lat="51.13258904382" lon="4.362136561184">
        <ele>0</ele>
        <time>2020-08-02T11:59:58Z</time>
      </trkpt>
      <trkpt lat="51.132474630885" lon="4.362295817284">
        <ele>2.2</ele>
        <time>2020-08-02T12:00:05Z</time>
      </trkpt>
      <trkpt lat="51.132307579618" lon="4.362069925079">
        <ele>2.2</ele>
        <time>2020-08-02T12:01:13Z</time>
      </trkpt>
      <trkpt lat="51.131832661164" lon="4.36152753233">
        <ele>1.6</ele>
        <time>2020-08-02T12:01:24Z</time>
      </trkpt>
      <trkpt lat="51.131654042875" lon="4.361262915747">
        <ele>1.6</ele>
        <time>2020-08-02T12:01:28Z</time>
      </trkpt>
      <trkpt lat="51.131606349864" lon="4.361066360192">
        <ele>1</ele>
        <time>2020-08-02T12:01:30Z</time>
      </trkpt>
      <trkpt lat="51.131552538066" lon="4.360744830508">
        <ele>0.2</ele>
        <time>2020-08-02T12:01:33Z</time>
      </trkpt>
      <trkpt lat="51.131475843681" lon="4.360557914138">
        <ele>0.4</ele>
        <time>2020-08-02T12:01:35Z</time>
      </trkpt>
      <trkpt lat="51.131130174125" lon="4.360059442545">
        <ele>1.4</ele>
        <time>2020-08-02T12:01:42Z</time>
      </trkpt>
      <trkpt lat="51.130770003882" lon="4.359744283105">
        <ele>1.4</ele>
        <time>2020-08-02T12:01:48Z</time>
      </trkpt>
      <trkpt lat="51.130673695851" lon="4.359591732525">
        <ele>1.4</ele>
        <time>2020-08-02T12:01:50Z</time>
      </trkpt>
      <trkpt lat="51.13046507036" lon="4.358784723193">
        <ele>0.8</ele>
        <time>2020-08-02T12:01:58Z</time>
      </trkpt>
      <trkpt lat="51.130393405115" lon="4.358494793272">
        <ele>0.8</ele>
        <time>2020-08-02T12:02:01Z</time>
      </trkpt>
      <trkpt lat="51.130318722386" lon="4.358327574367">
        <ele>0.8</ele>
        <time>2020-08-02T12:02:03Z</time>
      </trkpt>
      <trkpt lat="51.129867273252" lon="4.357838322864">
        <ele>1.4</ele>
        <time>2020-08-02T12:02:12Z</time>
      </trkpt>
      <trkpt lat="51.129822346268" lon="4.357772524949">
        <ele>1.6</ele>
        <time>2020-08-02T12:02:13Z</time>
      </trkpt>
      <trkpt lat="51.12949612272" lon="4.357065511684">
        <ele>2.2</ele>
        <time>2020-08-02T12:02:22Z</time>
      </trkpt>
      <trkpt lat="51.129244833358" lon="4.356652451652">
        <ele>2.8</ele>
        <time>2020-08-02T12:02:28Z</time>
      </trkpt>
      <trkpt lat="51.129133437907" lon="4.35655455106">
        <ele>3</ele>
        <time>2020-08-02T12:02:30Z</time>
      </trkpt>
      <trkpt lat="51.128602863637" lon="4.356348859234">
        <ele>2.6</ele>
        <time>2020-08-02T12:02:38Z</time>
      </trkpt>
      <trkpt lat="51.128040102871" lon="4.356183987261">
        <ele>4.2</ele>
        <time>2020-08-02T12:02:46Z</time>
      </trkpt>
      <trkpt lat="51.127487400385" lon="4.356157751914">
        <ele>4.8</ele>
        <time>2020-08-02T12:02:54Z</time>
      </trkpt>
      <trkpt lat="51.126959424504" lon="4.356377190056">
        <ele>5</ele>
        <time>2020-08-02T12:03:02Z</time>
      </trkpt>
      <trkpt lat="51.126415355375" lon="4.356695450799">
        <ele>5.4</ele>
        <time>2020-08-02T12:03:11Z</time>
      </trkpt>
      <trkpt lat="51.126245789538" lon="4.356788070794">
        <ele>6</ele>
        <time>2020-08-02T12:03:14Z</time>
      </trkpt>
      <trkpt lat="51.125801548838" lon="4.356872979441">
        <ele>7.2</ele>
        <time>2020-08-02T12:03:22Z</time>
      </trkpt>
      <trkpt lat="51.12573684057" lon="4.356775665582">
        <ele>7.2</ele>
        <time>2020-08-02T12:03:24Z</time>
      </trkpt>
      <trkpt lat="51.125718316571" lon="4.356539296002">
        <ele>7.2</ele>
        <time>2020-08-02T12:03:27Z</time>
      </trkpt>
      <trkpt lat="51.125584038533" lon="4.355660453787">
        <ele>6.8</ele>
        <time>2020-08-02T12:03:37Z</time>
      </trkpt>
      <trkpt lat="51.125460405508" lon="4.354770547464">
        <ele>6.2</ele>
        <time>2020-08-02T12:03:46Z</time>
      </trkpt>
      <trkpt lat="51.125337443035" lon="4.353886005557">
        <ele>5.6</ele>
        <time>2020-08-02T12:03:55Z</time>
      </trkpt>
      <trkpt lat="51.125209199965" lon="4.352990231904">
        <ele>5.2</ele>
        <time>2020-08-02T12:04:04Z</time>
      </trkpt>
      <trkpt lat="51.125092943012" lon="4.352115413001">
        <ele>5</ele>
        <time>2020-08-02T12:04:12Z</time>
      </trkpt>
      <trkpt lat="51.125014907523" lon="4.351227183058">
        <ele>4.6</ele>
        <time>2020-08-02T12:04:20Z</time>
      </trkpt>
      <trkpt lat="51.124966124865" lon="4.350362254797">
        <ele>4.4</ele>
        <time>2020-08-02T12:04:28Z</time>
      </trkpt>
      <trkpt lat="51.124896387457" lon="4.349133971171">
        <ele>4.2</ele>
        <time>2020-08-02T12:04:40Z</time>
      </trkpt>
      <trkpt lat="51.124844335858" lon="4.348218332415">
        <ele>3.8</ele>
        <time>2020-08-02T12:04:49Z</time>
      </trkpt>
      <trkpt lat="51.124794044458" lon="4.347273021733">
        <ele>3.6</ele>
        <time>2020-08-02T12:04:58Z</time>
      </trkpt>
      <trkpt lat="51.12474358542" lon="4.346317066038">
        <ele>3.2</ele>
        <time>2020-08-02T12:05:07Z</time>
      </trkpt>
      <trkpt lat="51.124695557133" lon="4.345364295465">
        <ele>3.6</ele>
        <time>2020-08-02T12:05:16Z</time>
      </trkpt>
      <trkpt lat="51.124645349552" lon="4.344490817666">
        <ele>3</ele>
        <time>2020-08-02T12:05:25Z</time>
      </trkpt>
      <trkpt lat="51.12460863683" lon="4.344359892388">
        <ele>3.2</ele>
        <time>2020-08-02T12:05:27Z</time>
      </trkpt>
      <trkpt lat="51.124526242753" lon="4.343540226387">
        <ele>4.2</ele>
        <time>2020-08-02T12:05:37Z</time>
      </trkpt>
      <trkpt lat="51.124402609728" lon="4.343415000801">
        <ele>3.2</ele>
        <time>2020-08-02T12:05:39Z</time>
      </trkpt>
      <trkpt lat="51.124353910889" lon="4.343424220891">
        <ele>2.4</ele>
        <time>2020-08-02T12:05:41Z</time>
      </trkpt>
      <trkpt lat="51.124257016125" lon="4.343483145648">
        <ele>1.6</ele>
        <time>2020-08-02T12:05:43Z</time>
      </trkpt>
      <trkpt lat="51.123762484025" lon="4.343901905372">
        <ele>4.8</ele>
        <time>2020-08-02T12:05:52Z</time>
      </trkpt>
      <trkpt lat="51.123412372062" lon="4.344178927167">
        <ele>5.2</ele>
        <time>2020-08-02T12:05:58Z</time>
      </trkpt>
      <trkpt lat="51.122884144724" lon="4.344575810132">
        <ele>6.6</ele>
        <time>2020-08-02T12:06:07Z</time>
      </trkpt>
      <trkpt lat="51.122365305114" lon="4.344993815485">
        <ele>9</ele>
        <time>2020-08-02T12:06:16Z</time>
      </trkpt>
      <trkpt lat="51.121844537667" lon="4.345422717308">
        <ele>7.8</ele>
        <time>2020-08-02T12:06:25Z</time>
      </trkpt>
      <trkpt lat="51.121332319758" lon="4.345888750948">
        <ele>7.8</ele>
        <time>2020-08-02T12:06:34Z</time>
      </trkpt>
      <trkpt lat="51.120828651387" lon="4.346342547014">
        <ele>8.2</ele>
        <time>2020-08-02T12:06:43Z</time>
      </trkpt>
      <trkpt lat="51.120351134544" lon="4.346767593163">
        <ele>8.6</ele>
        <time>2020-08-02T12:06:52Z</time>
      </trkpt>
      <trkpt lat="51.119836653522" lon="4.347233459165">
        <ele>9.4</ele>
        <time>2020-08-02T12:07:02Z</time>
      </trkpt>
      <trkpt lat="51.119368692045" lon="4.347664540282">
        <ele>9.8</ele>
        <time>2020-08-02T12:07:12Z</time>
      </trkpt>
      <trkpt lat="51.119276155869" lon="4.347685159756">
        <ele>10.2</ele>
        <time>2020-08-02T12:07:13Z</time>
      </trkpt>
      <trkpt lat="51.119237850586" lon="4.347640065134">
        <ele>10</ele>
        <time>2020-08-02T12:07:15Z</time>
      </trkpt>
      <trkpt lat="51.118852367005" lon="4.346970351324">
        <ele>10</ele>
        <time>2020-08-02T12:07:25Z</time>
      </trkpt>
      <trkpt lat="51.118741558287" lon="4.346747057508">
        <ele>9.8</ele>
        <time>2020-08-02T12:07:27Z</time>
      </trkpt>
      <trkpt lat="51.118713898017" lon="4.346661143033">
        <ele>9.8</ele>
        <time>2020-08-02T12:07:29Z</time>
      </trkpt>
      <trkpt lat="51.118581380178" lon="4.345810380183">
        <ele>8.8</ele>
        <time>2020-08-02T12:07:38Z</time>
      </trkpt>
      <trkpt lat="51.118533938624" lon="4.344922653154">
        <ele>7</ele>
        <time>2020-08-02T12:07:47Z</time>
      </trkpt>
      <trkpt lat="51.118477109342" lon="4.343983125983">
        <ele>7.2</ele>
        <time>2020-08-02T12:07:56Z</time>
      </trkpt>
      <trkpt lat="51.118429667788" lon="4.343094812221">
        <ele>6.4</ele>
        <time>2020-08-02T12:08:04Z</time>
      </trkpt>
      <trkpt lat="51.118451041633" lon="4.342119075242">
        <ele>5.2</ele>
        <time>2020-08-02T12:08:12Z</time>
      </trkpt>
      <trkpt lat="51.118426734123" lon="4.341178542243">
        <ele>4.8</ele>
        <time>2020-08-02T12:08:20Z</time>
      </trkpt>
      <trkpt lat="51.118407288115" lon="4.340274219052">
        <ele>4.6</ele>
        <time>2020-08-02T12:08:28Z</time>
      </trkpt>
      <trkpt lat="51.118434361652" lon="4.339387833127">
        <ele>4.6</ele>
        <time>2020-08-02T12:08:36Z</time>
      </trkpt>
      <trkpt lat="51.118448275606" lon="4.338586942582">
        <ele>4.2</ele>
        <time>2020-08-02T12:08:45Z</time>
      </trkpt>
      <trkpt lat="51.117899512613" lon="4.338717700222">
        <ele>4</ele>
        <time>2020-08-02T12:08:57Z</time>
      </trkpt>
      <trkpt lat="51.117623412827" lon="4.338964044263">
        <ele>3.4</ele>
        <time>2020-08-02T12:09:02Z</time>
      </trkpt>
      <trkpt lat="51.117200210696" lon="4.339590088374">
        <ele>2</ele>
        <time>2020-08-02T12:09:11Z</time>
      </trkpt>
      <trkpt lat="51.11708085244" lon="4.339815142389">
        <ele>0.8</ele>
        <time>2020-08-02T12:09:15Z</time>
      </trkpt>
      <trkpt lat="51.11701044448" lon="4.339962663829">
        <ele>0.2</ele>
        <time>2020-08-02T12:09:18Z</time>
      </trkpt>
      <trkpt lat="51.11641281501" lon="4.339680529075">
        <ele>0</ele>
        <time>2020-08-02T12:09:28Z</time>
      </trkpt>
      <trkpt lat="51.115864052017" lon="4.3394185947">
        <ele>0</ele>
        <time>2020-08-02T12:09:37Z</time>
      </trkpt>
      <trkpt lat="51.115331046996" lon="4.339137046679">
        <ele>0.6</ele>
        <time>2020-08-02T12:09:45Z</time>
      </trkpt>
      <trkpt lat="51.114767196583" lon="4.338884332394">
        <ele>2.8</ele>
        <time>2020-08-02T12:09:53Z</time>
      </trkpt>
      <trkpt lat="51.114192952614" lon="4.338676293636">
        <ele>0.6</ele>
        <time>2020-08-02T12:10:01Z</time>
      </trkpt>
      <trkpt lat="51.113620720301" lon="4.33848904199">
        <ele>1.8</ele>
        <time>2020-08-02T12:10:10Z</time>
      </trkpt>
      <trkpt lat="51.113068269272" lon="4.338284272173">
        <ele>5</ele>
        <time>2020-08-02T12:10:19Z</time>
      </trkpt>
      <trkpt lat="51.112515063872" lon="4.338072629198">
        <ele>5.4</ele>
        <time>2020-08-02T12:10:29Z</time>
      </trkpt>
      <trkpt lat="51.112401405308" lon="4.337970118561">
        <ele>5.2</ele>
        <time>2020-08-02T12:10:32Z</time>
      </trkpt>
      <trkpt lat="51.112312557168" lon="4.337959138272">
        <ele>5.8</ele>
        <time>2020-08-02T12:10:34Z</time>
      </trkpt>
      <trkpt lat="51.112233096756" lon="4.338010016405">
        <ele>6.8</ele>
        <time>2020-08-02T12:10:36Z</time>
      </trkpt>
      <trkpt lat="51.11207769633" lon="4.338101462934">
        <ele>8.2</ele>
        <time>2020-08-02T12:10:41Z</time>
      </trkpt>
      <trkpt lat="51.111890360865" lon="4.337747579116">
        <ele>8.8</ele>
        <time>2020-08-02T12:10:50Z</time>
      </trkpt>
      <trkpt lat="51.111888181571" lon="4.337516071038">
        <ele>7.2</ele>
        <time>2020-08-02T12:10:53Z</time>
      </trkpt>
      <trkpt lat="51.111884577354" lon="4.337285484969">
        <ele>6.4</ele>
        <time>2020-08-02T12:10:56Z</time>
      </trkpt>
      <trkpt lat="51.111737558828" lon="4.336419215604">
        <ele>4.8</ele>
        <time>2020-08-02T12:11:06Z</time>
      </trkpt>
      <trkpt lat="51.111548714621" lon="4.335604159648">
        <ele>4</ele>
        <time>2020-08-02T12:11:18Z</time>
      </trkpt>
      <trkpt lat="51.111336401094" lon="4.335344236929">
        <ele>6.2</ele>
        <time>2020-08-02T12:11:25Z</time>
      </trkpt>
      <trkpt lat="51.111297509078" lon="4.33519746986">
        <ele>6.2</ele>
        <time>2020-08-02T12:11:27Z</time>
      </trkpt>
      <trkpt lat="51.111161051746" lon="4.334362381163">
        <ele>4.2</ele>
        <time>2020-08-02T12:11:37Z</time>
      </trkpt>
      <trkpt lat="51.110935913912" lon="4.333572554726">
        <ele>3.4</ele>
        <time>2020-08-02T12:11:47Z</time>
      </trkpt>
      <trkpt lat="51.110795684725" lon="4.3332159887">
        <ele>4.4</ele>
        <time>2020-08-02T12:11:52Z</time>
      </trkpt>
      <trkpt lat="51.110714547933" lon="4.332733861812">
        <ele>3.4</ele>
        <time>2020-08-02T12:11:58Z</time>
      </trkpt>
      <trkpt lat="51.110707926232" lon="4.332578545205">
        <ele>3.4</ele>
        <time>2020-08-02T12:12:00Z</time>
      </trkpt>
      <trkpt lat="51.110695772477" lon="4.332188200122">
        <ele>3</ele>
        <time>2020-08-02T12:12:07Z</time>
      </trkpt>
      <trkpt lat="51.110724438575" lon="4.330309313418">
        <ele>1</ele>
        <time>2020-08-02T12:13:44Z</time>
      </trkpt>
      <trkpt lat="51.110818483493" lon="4.329547817803">
        <ele>2.4</ele>
        <time>2020-08-02T12:13:56Z</time>
      </trkpt>
      <trkpt lat="51.110855950586" lon="4.329417143982">
        <ele>3</ele>
        <time>2020-08-02T12:13:58Z</time>
      </trkpt>
      <trkpt lat="51.110862991382" lon="4.329271298922">
        <ele>4</ele>
        <time>2020-08-02T12:14:00Z</time>
      </trkpt>
      <trkpt lat="51.11072066672" lon="4.328432186913">
        <ele>5.4</ele>
        <time>2020-08-02T12:14:14Z</time>
      </trkpt>
      <trkpt lat="51.110248011379" lon="4.327928602361">
        <ele>4</ele>
        <time>2020-08-02T12:14:29Z</time>
      </trkpt>
      <trkpt lat="51.109793963856" lon="4.327400039747">
        <ele>5.4</ele>
        <time>2020-08-02T12:14:43Z</time>
      </trkpt>
      <trkpt lat="51.10966370913" lon="4.327127208902">
        <ele>9.4</ele>
        <time>2020-08-02T12:14:49Z</time>
      </trkpt>
      <trkpt lat="51.109614339739" lon="4.326756226008">
        <ele>10.2</ele>
        <time>2020-08-02T12:14:54Z</time>
      </trkpt>
      <trkpt lat="51.109567736375" lon="4.326669305705">
        <ele>9.2</ele>
        <time>2020-08-02T12:14:56Z</time>
      </trkpt>
      <trkpt lat="51.10935357883" lon="4.326696882156">
        <ele>8.4</ele>
        <time>2020-08-02T12:15:02Z</time>
      </trkpt>
      <trkpt lat="51.109043616168" lon="4.326703587676">
        <ele>8</ele>
        <time>2020-08-02T12:17:40Z</time>
      </trkpt>
      <trkpt lat="51.108475574805" lon="4.326789502151">
        <ele>8.4</ele>
        <time>2020-08-02T12:17:54Z</time>
      </trkpt>
      <trkpt lat="51.107922704681" lon="4.326905088552">
        <ele>11.2</ele>
        <time>2020-08-02T12:18:05Z</time>
      </trkpt>
      <trkpt lat="51.107763867676" lon="4.326929479881">
        <ele>11.4</ele>
        <time>2020-08-02T12:18:08Z</time>
      </trkpt>
      <trkpt lat="51.107603941024" lon="4.326919421601">
        <ele>11.8</ele>
        <time>2020-08-02T12:18:11Z</time>
      </trkpt>
      <trkpt lat="51.107018130033" lon="4.326997373271">
        <ele>11</ele>
        <time>2020-08-02T12:18:22Z</time>
      </trkpt>
      <trkpt lat="51.106791148181" lon="4.327042384074">
        <ele>11</ele>
        <time>2020-08-02T12:18:27Z</time>
      </trkpt>
      <trkpt lat="51.106472384524" lon="4.327333068366">
        <ele>10.6</ele>
        <time>2020-08-02T12:18:35Z</time>
      </trkpt>
      <trkpt lat="51.105997130794" lon="4.327747553321">
        <ele>9.2</ele>
        <time>2020-08-02T12:18:46Z</time>
      </trkpt>
      <trkpt lat="51.105507460196" lon="4.32812398445">
        <ele>8.4</ele>
        <time>2020-08-02T12:18:55Z</time>
      </trkpt>
      <trkpt lat="51.1051735253" lon="4.328359432021">
        <ele>10.2</ele>
        <time>2020-08-02T12:19:01Z</time>
      </trkpt>
      <trkpt lat="51.105019382159" lon="4.328322048747">
        <ele>9.6</ele>
        <time>2020-08-02T12:19:04Z</time>
      </trkpt>
      <trkpt lat="51.104903711939" lon="4.328343087316">
        <ele>8.2</ele>
        <time>2020-08-02T12:19:06Z</time>
      </trkpt>
      <trkpt lat="51.10467647863" lon="4.328471246567">
        <ele>6.6</ele>
        <time>2020-08-02T12:19:10Z</time>
      </trkpt>
      <trkpt lat="51.104140204668" lon="4.328895035431">
        <ele>0</ele>
        <time>2020-08-02T12:19:18Z</time>
      </trkpt>
      <trkpt lat="51.103631758614" lon="4.32935696194">
        <ele>0.6</ele>
        <time>2020-08-02T12:19:25Z</time>
      </trkpt>
      <trkpt lat="51.103192379416" lon="4.329970684658">
        <ele>0.4</ele>
        <time>2020-08-02T12:19:33Z</time>
      </trkpt>
      <trkpt lat="51.1027846838" lon="4.330532271958">
        <ele>0</ele>
        <time>2020-08-02T12:19:40Z</time>
      </trkpt>
      <trkpt lat="51.102354273235" lon="4.331077933648">
        <ele>0</ele>
        <time>2020-08-02T12:19:48Z</time>
      </trkpt>
      <trkpt lat="51.101930987285" lon="4.331637341654">
        <ele>0.4</ele>
        <time>2020-08-02T12:19:56Z</time>
      </trkpt>
      <trkpt lat="51.10183836729" lon="4.33172652507">
        <ele>0.6</ele>
        <time>2020-08-02T12:19:58Z</time>
      </trkpt>
      <trkpt lat="51.101668801453" lon="4.331566346961">
        <ele>2.6</ele>
        <time>2020-08-02T12:20:02Z</time>
      </trkpt>
      <trkpt lat="51.101575594725" lon="4.331544302564">
        <ele>3.2</ele>
        <time>2020-08-02T12:20:04Z</time>
      </trkpt>
      <trkpt lat="51.101485237843" lon="4.331585960607">
        <ele>3.2</ele>
        <time>2020-08-02T12:20:06Z</time>
      </trkpt>
      <trkpt lat="51.101401167386" lon="4.331647064658">
        <ele>3.2</ele>
        <time>2020-08-02T12:20:08Z</time>
      </trkpt>
      <trkpt lat="51.101300919862" lon="4.331566598418">
        <ele>2.6</ele>
        <time>2020-08-02T12:20:11Z</time>
      </trkpt>
      <trkpt lat="51.101019036565" lon="4.331147084323">
        <ele>3</ele>
        <time>2020-08-02T12:20:19Z</time>
      </trkpt>
      <trkpt lat="51.100979473997" lon="4.331017919244">
        <ele>4.2</ele>
        <time>2020-08-02T12:20:21Z</time>
      </trkpt>
      <trkpt lat="51.100983329671" lon="4.330854053099">
        <ele>5</ele>
        <time>2020-08-02T12:20:24Z</time>
      </trkpt>
      <trkpt lat="51.100933625004" lon="4.330873163831">
        <ele>3.2</ele>
        <time>2020-08-02T12:20:27Z</time>
      </trkpt>
      <trkpt lat="51.1008736106" lon="4.330910714743">
        <ele>2</ele>
        <time>2020-08-02T12:20:30Z</time>
      </trkpt>
      <trkpt lat="51.100861708302" lon="4.330845419742">
        <ele>2</ele>
        <time>2020-08-02T12:20:32Z</time>
      </trkpt>
      <trkpt lat="51.100906635286" lon="4.330686750375">
        <ele>1.8</ele>
        <time>2020-08-02T12:20:36Z</time>
      </trkpt>
      <trkpt lat="51.100846117968" lon="4.330730084798">
        <ele>0</ele>
        <time>2020-08-02T12:22:14Z</time>
      </trkpt>
      <trkpt lat="51.100831617281" lon="4.33075422467">
        <ele>0</ele>
        <time>2020-08-02T12:22:15Z</time>
      </trkpt>
      <trkpt lat="51.100445379329" lon="4.331461573211">
        <ele>0</ele>
        <time>2020-08-02T12:22:27Z</time>
      </trkpt>
      <trkpt lat="51.100107924035" lon="4.332180153498">
        <ele>0</ele>
        <time>2020-08-02T12:22:35Z</time>
      </trkpt>
      <trkpt lat="51.099752699113" lon="4.332927735159">
        <ele>0</ele>
        <time>2020-08-02T12:22:43Z</time>
      </trkpt>
      <trkpt lat="51.099393953793" lon="4.333702306538">
        <ele>0</ele>
        <time>2020-08-02T12:22:51Z</time>
      </trkpt>
      <trkpt lat="51.09900360871" lon="4.334446200163">
        <ele>3</ele>
        <time>2020-08-02T12:22:59Z</time>
      </trkpt>
      <trkpt lat="51.098677301343" lon="4.335138964198">
        <ele>4</ele>
        <time>2020-08-02T12:23:06Z</time>
      </trkpt>
      <trkpt lat="51.098320567679" lon="4.33592501878">
        <ele>4.8</ele>
        <time>2020-08-02T12:23:13Z</time>
      </trkpt>
      <trkpt lat="51.098010018284" lon="4.336627338181">
        <ele>4.8</ele>
        <time>2020-08-02T12:23:21Z</time>
      </trkpt>
      <trkpt lat="51.097381794879" lon="4.338054943389">
        <ele>1.6</ele>
        <time>2020-08-02T12:23:36Z</time>
      </trkpt>
      <trkpt lat="51.097026737595" lon="4.338787353811">
        <ele>0.6</ele>
        <time>2020-08-02T12:23:44Z</time>
      </trkpt>
      <trkpt lat="51.096713338354" lon="4.339539461698">
        <ele>1.6</ele>
        <time>2020-08-02T12:23:52Z</time>
      </trkpt>
      <trkpt lat="51.096396670172" lon="4.340286708083">
        <ele>0.2</ele>
        <time>2020-08-02T12:24:01Z</time>
      </trkpt>
      <trkpt lat="51.09610179493" lon="4.341020543428">
        <ele>0</ele>
        <time>2020-08-02T12:24:09Z</time>
      </trkpt>
      <trkpt lat="51.095809685715" lon="4.341744236674">
        <ele>0.4</ele>
        <time>2020-08-02T12:24:17Z</time>
      </trkpt>
      <trkpt lat="51.095488575126" lon="4.342465163893">
        <ele>2</ele>
        <time>2020-08-02T12:24:25Z</time>
      </trkpt>
      <trkpt lat="51.095174840609" lon="4.343268485189">
        <ele>2</ele>
        <time>2020-08-02T12:24:33Z</time>
      </trkpt>
      <trkpt lat="51.094860770816" lon="4.344087983552">
        <ele>1.8</ele>
        <time>2020-08-02T12:24:41Z</time>
      </trkpt>
      <trkpt lat="51.094553658" lon="4.344895831074">
        <ele>1.6</ele>
        <time>2020-08-02T12:24:49Z</time>
      </trkpt>
      <trkpt lat="51.094523902255" lon="4.345001107738">
        <ele>1.8</ele>
        <time>2020-08-02T12:24:50Z</time>
      </trkpt>
      <trkpt lat="51.094449890078" lon="4.345441408945">
        <ele>1.8</ele>
        <time>2020-08-02T12:24:54Z</time>
      </trkpt>
      <trkpt lat="51.094212849946" lon="4.347888672288">
        <ele>0</ele>
        <time>2020-08-02T12:28:15Z</time>
      </trkpt>
      <trkpt lat="51.094093575509" lon="4.348713786524">
        <ele>0</ele>
        <time>2020-08-02T12:28:31Z</time>
      </trkpt>
      <trkpt lat="51.094150237153" lon="4.348908917156">
        <ele>0</ele>
        <time>2020-08-02T12:28:35Z</time>
      </trkpt>
      <trkpt lat="51.094053007113" lon="4.349203960036">
        <ele>0</ele>
        <time>2020-08-02T12:28:42Z</time>
      </trkpt>
      <trkpt lat="51.093850919504" lon="4.350066541365">
        <ele>1.4</ele>
        <time>2020-08-02T12:28:51Z</time>
      </trkpt>
      <trkpt lat="51.093655621234" lon="4.350937923689">
        <ele>3.4</ele>
        <time>2020-08-02T12:29:00Z</time>
      </trkpt>
      <trkpt lat="51.093373318842" lon="4.351787010159">
        <ele>5.8</ele>
        <time>2020-08-02T12:29:09Z</time>
      </trkpt>
      <trkpt lat="51.093087496052" lon="4.352564347565">
        <ele>2.6</ele>
        <time>2020-08-02T12:29:17Z</time>
      </trkpt>
      <trkpt lat="51.093045838009" lon="4.352647160737">
        <ele>2</ele>
        <time>2020-08-02T12:29:18Z</time>
      </trkpt>
      <trkpt lat="51.092681225359" lon="4.353361298617">
        <ele>0.8</ele>
        <time>2020-08-02T12:29:27Z</time>
      </trkpt>
      <trkpt lat="51.092366987928" lon="4.354088009347">
        <ele>1.6</ele>
        <time>2020-08-02T12:29:42Z</time>
      </trkpt>
      <trkpt lat="51.092313427587" lon="4.354837686483">
        <ele>0</ele>
        <time>2020-08-02T12:29:56Z</time>
      </trkpt>
      <trkpt lat="51.091755360685" lon="4.355154270846">
        <ele>1</ele>
        <time>2020-08-02T12:30:06Z</time>
      </trkpt>
      <trkpt lat="51.091694843367" lon="4.35517237575">
        <ele>0.8</ele>
        <time>2020-08-02T12:30:07Z</time>
      </trkpt>
      <trkpt lat="51.091577329129" lon="4.355170447913">
        <ele>0</ele>
        <time>2020-08-02T12:30:09Z</time>
      </trkpt>
      <trkpt lat="51.091459731072" lon="4.355220739313">
        <ele>0</ele>
        <time>2020-08-02T12:30:11Z</time>
      </trkpt>
      <trkpt lat="51.091013059621" lon="4.355581244832">
        <ele>1</ele>
        <time>2020-08-02T12:30:19Z</time>
      </trkpt>
      <trkpt lat="51.090964444601" lon="4.355750223936">
        <ele>1</ele>
        <time>2020-08-02T12:30:21Z</time>
      </trkpt>
      <trkpt lat="51.09087232752" lon="4.355880394843">
        <ele>1</ele>
        <time>2020-08-02T12:30:23Z</time>
      </trkpt>
      <trkpt lat="51.090382405465" lon="4.356316421281">
        <ele>1.6</ele>
        <time>2020-08-02T12:30:31Z</time>
      </trkpt>
      <trkpt lat="51.089873037402" lon="4.356768708605">
        <ele>4.4</ele>
        <time>2020-08-02T12:30:40Z</time>
      </trkpt>
      <trkpt lat="51.089393927998" lon="4.357200460274">
        <ele>7</ele>
        <time>2020-08-02T12:30:54Z</time>
      </trkpt>
      <trkpt lat="51.088897635699" lon="4.357645371526">
        <ele>8.8</ele>
        <time>2020-08-02T12:31:09Z</time>
      </trkpt>
      <trkpt lat="51.088391033663" lon="4.35809430609">
        <ele>7</ele>
        <time>2020-08-02T12:31:20Z</time>
      </trkpt>
      <trkpt lat="51.088076712413" lon="4.358430252642">
        <ele>5</ele>
        <time>2020-08-02T12:31:25Z</time>
      </trkpt>
      <trkpt lat="51.087691983203" lon="4.359033246528">
        <ele>1.8</ele>
        <time>2020-08-02T12:31:32Z</time>
      </trkpt>
      <trkpt lat="51.087621994338" lon="4.359134332242">
        <ele>1.4</ele>
        <time>2020-08-02T12:31:34Z</time>
      </trkpt>
      <trkpt lat="51.087514203104" lon="4.359073228191">
        <ele>0.8</ele>
        <time>2020-08-02T12:31:37Z</time>
      </trkpt>
      <trkpt lat="51.087126288772" lon="4.358411561005">
        <ele>0</ele>
        <time>2020-08-02T12:31:47Z</time>
      </trkpt>
      <trkpt lat="51.08673921263" lon="4.357814266811">
        <ele>1</ele>
        <time>2020-08-02T12:31:56Z</time>
      </trkpt>
      <trkpt lat="51.086700069157" lon="4.357775290976">
        <ele>1.2</ele>
        <time>2020-08-02T12:31:57Z</time>
      </trkpt>
      <trkpt lat="51.086611304836" lon="4.35774310448">
        <ele>1.4</ele>
        <time>2020-08-02T12:31:59Z</time>
      </trkpt>
      <trkpt lat="51.086517008461" lon="4.357777554089">
        <ele>1.4</ele>
        <time>2020-08-02T12:32:01Z</time>
      </trkpt>
      <trkpt lat="51.086419359326" lon="4.357862546555">
        <ele>1.4</ele>
        <time>2020-08-02T12:32:03Z</time>
      </trkpt>
      <trkpt lat="51.086003533267" lon="4.358548353613">
        <ele>1.2</ele>
        <time>2020-08-02T12:32:12Z</time>
      </trkpt>
      <trkpt lat="51.085965144165" lon="4.358641057427">
        <ele>1.2</ele>
        <time>2020-08-02T12:32:13Z</time>
      </trkpt>
      <trkpt lat="51.085918121706" lon="4.358849599099">
        <ele>1.4</ele>
        <time>2020-08-02T12:32:15Z</time>
      </trkpt>
      <trkpt lat="51.085911500005" lon="4.359059565694">
        <ele>1.6</ele>
        <time>2020-08-02T12:32:17Z</time>
      </trkpt>
      <trkpt lat="51.085968329287" lon="4.359218235061">
        <ele>1.8</ele>
        <time>2020-08-02T12:32:19Z</time>
      </trkpt>
      <trkpt lat="51.086027002587" lon="4.3593591348">
        <ele>2</ele>
        <time>2020-08-02T12:32:21Z</time>
      </trkpt>
      <trkpt lat="51.085976292092" lon="4.359498861073">
        <ele>0.4</ele>
        <time>2020-08-02T12:32:23Z</time>
      </trkpt>
      <trkpt lat="51.085898927155" lon="4.359643197391">
        <ele>1</ele>
        <time>2020-08-02T12:32:25Z</time>
      </trkpt>
      <trkpt lat="51.085702874514" lon="4.360416260028">
        <ele>1</ele>
        <time>2020-08-02T12:32:33Z</time>
      </trkpt>
      <trkpt lat="51.085660797376" lon="4.360576689594">
        <ele>1</ele>
        <time>2020-08-02T12:32:35Z</time>
      </trkpt>
      <trkpt lat="51.085585192638" lon="4.36064408007">
        <ele>1.2</ele>
        <time>2020-08-02T12:32:37Z</time>
      </trkpt>
      <trkpt lat="51.085286042627" lon="4.360829403879">
        <ele>1.6</ele>
        <time>2020-08-02T12:32:44Z</time>
      </trkpt>
      <trkpt lat="51.085187555302" lon="4.360950354696">
        <ele>2.6</ele>
        <time>2020-08-02T12:32:47Z</time>
      </trkpt>
      <trkpt lat="51.085164924172" lon="4.361203236619">
        <ele>1.4</ele>
        <time>2020-08-02T12:32:53Z</time>
      </trkpt>
      <trkpt lat="51.085223848929" lon="4.361618811221">
        <ele>2.2</ele>
        <time>2020-08-02T12:33:43Z</time>
      </trkpt>
      <trkpt lat="51.085278582736" lon="4.361903376726">
        <ele>2</ele>
        <time>2020-08-02T12:33:49Z</time>
      </trkpt>
      <trkpt lat="51.085120248645" lon="4.362383408139">
        <ele>2.4</ele>
        <time>2020-08-02T12:33:56Z</time>
      </trkpt>
      <trkpt lat="51.085091666366" lon="4.362536880728">
        <ele>0.8</ele>
        <time>2020-08-02T12:33:58Z</time>
      </trkpt>
      <trkpt lat="51.084924363642" lon="4.363062342039">
        <ele>0.4</ele>
        <time>2020-08-02T12:34:05Z</time>
      </trkpt>
      <trkpt lat="51.084719677644" lon="4.363784945638">
        <ele>0.2</ele>
        <time>2020-08-02T12:34:16Z</time>
      </trkpt>
      <trkpt lat="51.084697214152" lon="4.363977813157">
        <ele>0.2</ele>
        <time>2020-08-02T12:34:19Z</time>
      </trkpt>
      <trkpt lat="51.084661171982" lon="4.364097674327">
        <ele>0.4</ele>
        <time>2020-08-02T12:34:21Z</time>
      </trkpt>
      <trkpt lat="51.084613730428" lon="4.364207561036">
        <ele>0.6</ele>
        <time>2020-08-02T12:34:23Z</time>
      </trkpt>
      <trkpt lat="51.084584980511" lon="4.364333121898">
        <ele>0.6</ele>
        <time>2020-08-02T12:34:25Z</time>
      </trkpt>
      <trkpt lat="51.08454064026" lon="4.36461626248">
        <ele>1</ele>
        <time>2020-08-02T12:34:29Z</time>
      </trkpt>
      <trkpt lat="51.084311898209" lon="4.365473563212">
        <ele>1.6</ele>
        <time>2020-08-02T12:34:39Z</time>
      </trkpt>
      <trkpt lat="51.084221038413" lon="4.365843037364">
        <ele>1.6</ele>
        <time>2020-08-02T12:34:43Z</time>
      </trkpt>
      <trkpt lat="51.084215338721" lon="4.366046549896">
        <ele>1.4</ele>
        <time>2020-08-02T12:34:45Z</time>
      </trkpt>
      <trkpt lat="51.084209639029" lon="4.36624486565">
        <ele>1.2</ele>
        <time>2020-08-02T12:34:47Z</time>
      </trkpt>
      <trkpt lat="51.0841433382" lon="4.366397919144">
        <ele>0.6</ele>
        <time>2020-08-02T12:34:49Z</time>
      </trkpt>
      <trkpt lat="51.084041665753" lon="4.366614675078">
        <ele>0</ele>
        <time>2020-08-02T12:34:52Z</time>
      </trkpt>
      <trkpt lat="51.083831280063" lon="4.367424953351">
        <ele>0</ele>
        <time>2020-08-02T12:35:01Z</time>
      </trkpt>
      <trkpt lat="51.083818371937" lon="4.367507347428">
        <ele>0</ele>
        <time>2020-08-02T12:35:02Z</time>
      </trkpt>
      <trkpt lat="51.083839159049" lon="4.367658640723">
        <ele>0</ele>
        <time>2020-08-02T12:35:04Z</time>
      </trkpt>
      <trkpt lat="51.083940747677" lon="4.367836169365">
        <ele>0</ele>
        <time>2020-08-02T12:35:07Z</time>
      </trkpt>
      <trkpt lat="51.083969078499" lon="4.367956030535">
        <ele>0.4</ele>
        <time>2020-08-02T12:35:09Z</time>
      </trkpt>
      <trkpt lat="51.083942675514" lon="4.368074382963">
        <ele>0.4</ele>
        <time>2020-08-02T12:35:11Z</time>
      </trkpt>
      <trkpt lat="51.083819880679" lon="4.368596240057">
        <ele>0.2</ele>
        <time>2020-08-02T12:35:18Z</time>
      </trkpt>
      <trkpt lat="51.083829603683" lon="4.368734625226">
        <ele>0</ele>
        <time>2020-08-02T12:35:20Z</time>
      </trkpt>
      <trkpt lat="51.083883834576" lon="4.36884325465">
        <ele>0</ele>
        <time>2020-08-02T12:35:22Z</time>
      </trkpt>
      <trkpt lat="51.083973437087" lon="4.368933862989">
        <ele>0</ele>
        <time>2020-08-02T12:35:24Z</time>
      </trkpt>
      <trkpt lat="51.084173932135" lon="4.369132178743">
        <ele>0</ele>
        <time>2020-08-02T12:35:28Z</time>
      </trkpt>
      <trkpt lat="51.084312820218" lon="4.369365363201">
        <ele>0</ele>
        <time>2020-08-02T12:35:31Z</time>
      </trkpt>
      <trkpt lat="51.084393705553" lon="4.36952554131">
        <ele>0</ele>
        <time>2020-08-02T12:35:33Z</time>
      </trkpt>
      <trkpt lat="51.084493450163" lon="4.369662753013">
        <ele>0</ele>
        <time>2020-08-02T12:35:35Z</time>
      </trkpt>
      <trkpt lat="51.085004494606" lon="4.370170612334">
        <ele>0</ele>
        <time>2020-08-02T12:35:44Z</time>
      </trkpt>
      <trkpt lat="51.085268775913" lon="4.370439838962">
        <ele>0</ele>
        <time>2020-08-02T12:35:49Z</time>
      </trkpt>
      <trkpt lat="51.08532267153" lon="4.370606890229">
        <ele>0</ele>
        <time>2020-08-02T12:35:51Z</time>
      </trkpt>
      <trkpt lat="51.085286880817" lon="4.370788190726">
        <ele>0</ele>
        <time>2020-08-02T12:35:53Z</time>
      </trkpt>
      <trkpt lat="51.085006254805" lon="4.371535437111">
        <ele>0</ele>
        <time>2020-08-02T12:36:01Z</time>
      </trkpt>
      <trkpt lat="51.084882789418" lon="4.371802568264">
        <ele>0</ele>
        <time>2020-08-02T12:36:04Z</time>
      </trkpt>
      <trkpt lat="51.08454231664" lon="4.372504133294">
        <ele>0</ele>
        <time>2020-08-02T12:36:12Z</time>
      </trkpt>
      <trkpt lat="51.084408960611" lon="4.372888946323">
        <ele>0</ele>
        <time>2020-08-02T12:36:16Z</time>
      </trkpt>
      <trkpt lat="51.084376774115" lon="4.373107462456">
        <ele>0</ele>
        <time>2020-08-02T12:36:18Z</time>
      </trkpt>
      <trkpt lat="51.084380462151" lon="4.373333941394">
        <ele>0</ele>
        <time>2020-08-02T12:36:20Z</time>
      </trkpt>
      <trkpt lat="51.084421365823" lon="4.373541644876">
        <ele>0</ele>
        <time>2020-08-02T12:36:22Z</time>
      </trkpt>
      <trkpt lat="51.084491773783" lon="4.373713054731">
        <ele>0</ele>
        <time>2020-08-02T12:36:24Z</time>
      </trkpt>
      <trkpt lat="51.08462697383" lon="4.373902737128">
        <ele>0</ele>
        <time>2020-08-02T12:36:27Z</time>
      </trkpt>
      <trkpt lat="51.084731244666" lon="4.373976246391">
        <ele>0</ele>
        <time>2020-08-02T12:36:29Z</time>
      </trkpt>
      <trkpt lat="51.084895278449" lon="4.374012707656">
        <ele>0</ele>
        <time>2020-08-02T12:36:32Z</time>
      </trkpt>
      <trkpt lat="51.08543331261" lon="4.373907179535">
        <ele>0</ele>
        <time>2020-08-02T12:36:43Z</time>
      </trkpt>
      <trkpt lat="51.085522244569" lon="4.373893600857">
        <ele>0.2</ele>
        <time>2020-08-02T12:36:45Z</time>
      </trkpt>
      <trkpt lat="51.085609583967" lon="4.373927966647">
        <ele>0.4</ele>
        <time>2020-08-02T12:36:47Z</time>
      </trkpt>
      <trkpt lat="51.085679237556" lon="4.374021173375">
        <ele>0.6</ele>
        <time>2020-08-02T12:36:49Z</time>
      </trkpt>
      <trkpt lat="51.085712597518" lon="4.374155870508">
        <ele>0.8</ele>
        <time>2020-08-02T12:36:51Z</time>
      </trkpt>
      <trkpt lat="51.085703461247" lon="4.374306493251">
        <ele>1</ele>
        <time>2020-08-02T12:36:53Z</time>
      </trkpt>
      <trkpt lat="51.085603548999" lon="4.374860872117">
        <ele>1.8</ele>
        <time>2020-08-02T12:37:00Z</time>
      </trkpt>
      <trkpt lat="51.085540014197" lon="4.374962460745">
        <ele>1.8</ele>
        <time>2020-08-02T12:37:02Z</time>
      </trkpt>
      <trkpt lat="51.085404059779" lon="4.374971345559">
        <ele>1.8</ele>
        <time>2020-08-02T12:37:04Z</time>
      </trkpt>
      <trkpt lat="51.085353097827" lon="4.374946702773">
        <ele>1.8</ele>
        <time>2020-08-02T12:37:06Z</time>
      </trkpt>
      <trkpt lat="51.08481724296" lon="4.374717038713">
        <ele>0</ele>
        <time>2020-08-02T12:37:14Z</time>
      </trkpt>
      <trkpt lat="51.084241490249" lon="4.374445213696">
        <ele>0</ele>
        <time>2020-08-02T12:37:22Z</time>
      </trkpt>
      <trkpt lat="51.083723069734" lon="4.374082947978">
        <ele>0</ele>
        <time>2020-08-02T12:37:30Z</time>
      </trkpt>
      <trkpt lat="51.083673867981" lon="4.374062328504">
        <ele>0</ele>
        <time>2020-08-02T12:37:31Z</time>
      </trkpt>
      <trkpt lat="51.083530202215" lon="4.374216304007">
        <ele>0</ele>
        <time>2020-08-02T12:37:36Z</time>
      </trkpt>
      <trkpt lat="51.083482760661" lon="4.374357958117">
        <ele>0</ele>
        <time>2020-08-02T12:37:38Z</time>
      </trkpt>
      <trkpt lat="51.083207499065" lon="4.37493102862">
        <ele>0</ele>
        <time>2020-08-02T12:37:46Z</time>
      </trkpt>
      <trkpt lat="51.083104569333" lon="4.374956761053">
        <ele>0</ele>
        <time>2020-08-02T12:37:48Z</time>
      </trkpt>
      <trkpt lat="51.082852106505" lon="4.374943350013">
        <ele>0</ele>
        <time>2020-08-02T12:37:53Z</time>
      </trkpt>
      <trkpt lat="51.082749092954" lon="4.375150215305">
        <ele>0</ele>
        <time>2020-08-02T12:37:57Z</time>
      </trkpt>
      <trkpt lat="51.082686731618" lon="4.376077756359">
        <ele>1.8</ele>
        <time>2020-08-02T12:38:06Z</time>
      </trkpt>
      <trkpt lat="51.082619005866" lon="4.376959951334">
        <ele>1.6</ele>
        <time>2020-08-02T12:38:14Z</time>
      </trkpt>
      <trkpt lat="51.082538371988" lon="4.37790660312">
        <ele>1</ele>
        <time>2020-08-02T12:38:23Z</time>
      </trkpt>
      <trkpt lat="51.082527726975" lon="4.37872467656">
        <ele>1.6</ele>
        <time>2020-08-02T12:38:31Z</time>
      </trkpt>
      <trkpt lat="51.08251222046" lon="4.378912766396">
        <ele>1.8</ele>
        <time>2020-08-02T12:38:33Z</time>
      </trkpt>
      <trkpt lat="51.08250216218" lon="4.379828069876">
        <ele>1.4</ele>
        <time>2020-08-02T12:38:42Z</time>
      </trkpt>
      <trkpt lat="51.082478860498" lon="4.380798610077">
        <ele>1</ele>
        <time>2020-08-02T12:38:50Z</time>
      </trkpt>
      <trkpt lat="51.082431418944" lon="4.381663119243">
        <ele>0.8</ele>
        <time>2020-08-02T12:38:57Z</time>
      </trkpt>
      <trkpt lat="51.082314826715" lon="4.382507008935">
        <ele>0.6</ele>
        <time>2020-08-02T12:39:04Z</time>
      </trkpt>
      <trkpt lat="51.082176525365" lon="4.383348384057">
        <ele>0.4</ele>
        <time>2020-08-02T12:39:11Z</time>
      </trkpt>
      <trkpt lat="51.081944179097" lon="4.384250444135">
        <ele>1</ele>
        <time>2020-08-02T12:39:19Z</time>
      </trkpt>
      <trkpt lat="51.081672773175" lon="4.385099446786">
        <ele>0.8</ele>
        <time>2020-08-02T12:39:27Z</time>
      </trkpt>
      <trkpt lat="51.08131612333" lon="4.385870916862">
        <ele>1.2</ele>
        <time>2020-08-02T12:39:35Z</time>
      </trkpt>
      <trkpt lat="51.081105570002" lon="4.386348685162">
        <ele>1.2</ele>
        <time>2020-08-02T12:39:40Z</time>
      </trkpt>
      <trkpt lat="51.080834583175" lon="4.387151922639">
        <ele>1</ele>
        <time>2020-08-02T12:39:48Z</time>
      </trkpt>
      <trkpt lat="51.080549095661" lon="4.387957004134">
        <ele>0.8</ele>
        <time>2020-08-02T12:39:56Z</time>
      </trkpt>
      <trkpt lat="51.080265955079" lon="4.388758816688">
        <ele>1.8</ele>
        <time>2020-08-02T12:40:04Z</time>
      </trkpt>
      <trkpt lat="51.079900839515" lon="4.389476810242">
        <ele>1.8</ele>
        <time>2020-08-02T12:40:12Z</time>
      </trkpt>
      <trkpt lat="51.079464896896" lon="4.390073433884">
        <ele>1.2</ele>
        <time>2020-08-02T12:40:20Z</time>
      </trkpt>
      <trkpt lat="51.079112018906" lon="4.390811292541">
        <ele>1.4</ele>
        <time>2020-08-02T12:40:27Z</time>
      </trkpt>
      <trkpt lat="51.078767019902" lon="4.391586283015">
        <ele>1.6</ele>
        <time>2020-08-02T12:40:36Z</time>
      </trkpt>
      <trkpt lat="51.078462337837" lon="4.392350125562">
        <ele>1.4</ele>
        <time>2020-08-02T12:40:44Z</time>
      </trkpt>
      <trkpt lat="51.078153883917" lon="4.393143137121">
        <ele>0.8</ele>
        <time>2020-08-02T12:40:52Z</time>
      </trkpt>
      <trkpt lat="51.077989263401" lon="4.393654600659">
        <ele>0.8</ele>
        <time>2020-08-02T12:40:57Z</time>
      </trkpt>
      <trkpt lat="51.077651724288" lon="4.394367145978">
        <ele>0.6</ele>
        <time>2020-08-02T12:41:05Z</time>
      </trkpt>
      <trkpt lat="51.07737327757" lon="4.394962679973">
        <ele>0.8</ele>
        <time>2020-08-02T12:41:12Z</time>
      </trkpt>
      <trkpt lat="51.077024841987" lon="4.395655863103">
        <ele>0.2</ele>
        <time>2020-08-02T12:41:20Z</time>
      </trkpt>
      <trkpt lat="51.076660145518" lon="4.396402438936">
        <ele>0.4</ele>
        <time>2020-08-02T12:41:28Z</time>
      </trkpt>
      <trkpt lat="51.076354541444" lon="4.397225541516">
        <ele>0.4</ele>
        <time>2020-08-02T12:41:36Z</time>
      </trkpt>
      <trkpt lat="51.076096462743" lon="4.398135145304">
        <ele>0.2</ele>
        <time>2020-08-02T12:41:43Z</time>
      </trkpt>
      <trkpt lat="51.075924298517" lon="4.398982471575">
        <ele>0</ele>
        <time>2020-08-02T12:41:51Z</time>
      </trkpt>
      <trkpt lat="51.075840395698" lon="4.3998940032">
        <ele>0</ele>
        <time>2020-08-02T12:41:58Z</time>
      </trkpt>
      <trkpt lat="51.075856656584" lon="4.400814922553">
        <ele>0</ele>
        <time>2020-08-02T12:42:05Z</time>
      </trkpt>
      <trkpt lat="51.075906361251" lon="4.401721173581">
        <ele>0</ele>
        <time>2020-08-02T12:42:12Z</time>
      </trkpt>
      <trkpt lat="51.075968638768" lon="4.40223339149">
        <ele>0</ele>
        <time>2020-08-02T12:42:16Z</time>
      </trkpt>
      <trkpt lat="51.076228477668" lon="4.403028666162">
        <ele>0</ele>
        <time>2020-08-02T12:42:23Z</time>
      </trkpt>
      <trkpt lat="51.076368790674" lon="4.403347010724">
        <ele>0</ele>
        <time>2020-08-02T12:42:26Z</time>
      </trkpt>
      <trkpt lat="51.076553611569" lon="4.40357784825">
        <ele>0</ele>
        <time>2020-08-02T12:42:29Z</time>
      </trkpt>
      <trkpt lat="51.077043114529" lon="4.403946819488">
        <ele>0</ele>
        <time>2020-08-02T12:42:36Z</time>
      </trkpt>
      <trkpt lat="51.077476123483" lon="4.404453672981">
        <ele>0</ele>
        <time>2020-08-02T12:42:43Z</time>
      </trkpt>
      <trkpt lat="51.077902678374" lon="4.405126655732">
        <ele>0</ele>
        <time>2020-08-02T12:42:51Z</time>
      </trkpt>
      <trkpt lat="51.078019605879" lon="4.405279960683">
        <ele>0</ele>
        <time>2020-08-02T12:42:53Z</time>
      </trkpt>
      <trkpt lat="51.078429480789" lon="4.405678939123">
        <ele>0</ele>
        <time>2020-08-02T12:42:59Z</time>
      </trkpt>
      <trkpt lat="51.07871019062" lon="4.406110523154">
        <ele>0</ele>
        <time>2020-08-02T12:43:04Z</time>
      </trkpt>
      <trkpt lat="51.079028954277" lon="4.406861625213">
        <ele>0</ele>
        <time>2020-08-02T12:43:12Z</time>
      </trkpt>
      <trkpt lat="51.079304886425" lon="4.407683889603">
        <ele>0</ele>
        <time>2020-08-02T12:43:20Z</time>
      </trkpt>
      <trkpt lat="51.079495742288" lon="4.408526019096">
        <ele>0.6</ele>
        <time>2020-08-02T12:43:28Z</time>
      </trkpt>
      <trkpt lat="51.079680730821" lon="4.409107639137">
        <ele>0</ele>
        <time>2020-08-02T12:43:34Z</time>
      </trkpt>
      <trkpt lat="51.079884243353" lon="4.409471329778">
        <ele>0</ele>
        <time>2020-08-02T12:43:38Z</time>
      </trkpt>
      <trkpt lat="51.079944593033" lon="4.409697808716">
        <ele>0</ele>
        <time>2020-08-02T12:43:40Z</time>
      </trkpt>
      <trkpt lat="51.080082391469" lon="4.410639263724">
        <ele>0</ele>
        <time>2020-08-02T12:43:48Z</time>
      </trkpt>
      <trkpt lat="51.080099658183" lon="4.410745546216">
        <ele>0</ele>
        <time>2020-08-02T12:43:49Z</time>
      </trkpt>
      <trkpt lat="51.080151709782" lon="4.410927684903">
        <ele>0</ele>
        <time>2020-08-02T12:43:51Z</time>
      </trkpt>
      <trkpt lat="51.080195966214" lon="4.411116948205">
        <ele>0</ele>
        <time>2020-08-02T12:43:53Z</time>
      </trkpt>
      <trkpt lat="51.08016947941" lon="4.411315515416">
        <ele>0</ele>
        <time>2020-08-02T12:43:55Z</time>
      </trkpt>
      <trkpt lat="51.079994632976" lon="4.411486003262">
        <ele>0</ele>
        <time>2020-08-02T12:43:58Z</time>
      </trkpt>
      <trkpt lat="51.079938306608" lon="4.411632351236">
        <ele>0</ele>
        <time>2020-08-02T12:44:00Z</time>
      </trkpt>
      <trkpt lat="51.079883572801" lon="4.412534578952">
        <ele>0</ele>
        <time>2020-08-02T12:44:09Z</time>
      </trkpt>
      <trkpt lat="51.079723478511" lon="4.413461533273">
        <ele>0</ele>
        <time>2020-08-02T12:44:18Z</time>
      </trkpt>
      <trkpt lat="51.079637480217" lon="4.414089421402">
        <ele>0</ele>
        <time>2020-08-02T12:44:24Z</time>
      </trkpt>
      <trkpt lat="51.079348472305" lon="4.414932472904">
        <ele>0</ele>
        <time>2020-08-02T12:44:32Z</time>
      </trkpt>
      <trkpt lat="51.07900439531" lon="4.415697321279">
        <ele>0</ele>
        <time>2020-08-02T12:44:42Z</time>
      </trkpt>
      <trkpt lat="51.078405340917" lon="4.416373824428">
        <ele>4</ele>
        <time>2020-08-02T12:45:00Z</time>
      </trkpt>
      <trkpt lat="51.078005691925" lon="4.416972711183">
        <ele>3</ele>
        <time>2020-08-02T12:45:08Z</time>
      </trkpt>
      <trkpt lat="51.077601349069" lon="4.417589954299">
        <ele>3.4</ele>
        <time>2020-08-02T12:45:16Z</time>
      </trkpt>
      <trkpt lat="51.07733388264" lon="4.418024304357">
        <ele>3.4</ele>
        <time>2020-08-02T12:45:22Z</time>
      </trkpt>
      <trkpt lat="51.077304713628" lon="4.418176938756">
        <ele>2.2</ele>
        <time>2020-08-02T12:45:24Z</time>
      </trkpt>
      <trkpt lat="51.077254589866" lon="4.418298224849">
        <ele>2</ele>
        <time>2020-08-02T12:45:26Z</time>
      </trkpt>
      <trkpt lat="51.077168591572" lon="4.418391934491">
        <ele>1.8</ele>
        <time>2020-08-02T12:45:28Z</time>
      </trkpt>
      <trkpt lat="51.076690320358" lon="4.418824189074">
        <ele>1.6</ele>
        <time>2020-08-02T12:45:37Z</time>
      </trkpt>
      <trkpt lat="51.076344566983" lon="4.419126943302">
        <ele>1.8</ele>
        <time>2020-08-02T12:45:43Z</time>
      </trkpt>
      <trkpt lat="51.075853555281" lon="4.419515779643">
        <ele>1.8</ele>
        <time>2020-08-02T12:45:52Z</time>
      </trkpt>
      <trkpt lat="51.075493552676" lon="4.419805625745">
        <ele>1.8</ele>
        <time>2020-08-02T12:45:59Z</time>
      </trkpt>
      <trkpt lat="51.075423899087" lon="4.419928169123">
        <ele>0.8</ele>
        <time>2020-08-02T12:46:01Z</time>
      </trkpt>
      <trkpt lat="51.0753926346" lon="4.420108044697">
        <ele>0</ele>
        <time>2020-08-02T12:46:03Z</time>
      </trkpt>
      <trkpt lat="51.075359190819" lon="4.420286662986">
        <ele>0</ele>
        <time>2020-08-02T12:46:05Z</time>
      </trkpt>
      <trkpt lat="51.075309905247" lon="4.420368135054">
        <ele>0</ele>
        <time>2020-08-02T12:46:07Z</time>
      </trkpt>
      <trkpt lat="51.07477321219" lon="4.420382049008">
        <ele>1.4</ele>
        <time>2020-08-02T12:46:27Z</time>
      </trkpt>
      <trkpt lat="51.074355542113" lon="4.420717744103">
        <ele>1</ele>
        <time>2020-08-02T12:46:36Z</time>
      </trkpt>
      <trkpt lat="51.073984810676" lon="4.421466331592">
        <ele>0.8</ele>
        <time>2020-08-02T12:46:45Z</time>
      </trkpt>
      <trkpt lat="51.073779286488" lon="4.42235162787">
        <ele>0</ele>
        <time>2020-08-02T12:46:53Z</time>
      </trkpt>
      <trkpt lat="51.073731090563" lon="4.423060485153">
        <ele>0</ele>
        <time>2020-08-02T12:46:59Z</time>
      </trkpt>
      <trkpt lat="51.073886071894" lon="4.423971094769">
        <ele>0</ele>
        <time>2020-08-02T12:47:07Z</time>
      </trkpt>
      <trkpt lat="51.074035102076" lon="4.424849685527">
        <ele>0</ele>
        <time>2020-08-02T12:47:15Z</time>
      </trkpt>
      <trkpt lat="51.074180276584" lon="4.425691731201">
        <ele>0</ele>
        <time>2020-08-02T12:47:22Z</time>
      </trkpt>
      <trkpt lat="51.074394853224" lon="4.426538470739">
        <ele>0</ele>
        <time>2020-08-02T12:47:29Z</time>
      </trkpt>
      <trkpt lat="51.074672964666" lon="4.42729862525">
        <ele>0</ele>
        <time>2020-08-02T12:47:36Z</time>
      </trkpt>
      <trkpt lat="51.075016874023" lon="4.428058109209">
        <ele>0</ele>
        <time>2020-08-02T12:47:44Z</time>
      </trkpt>
      <trkpt lat="51.075403447251" lon="4.42873863567">
        <ele>0</ele>
        <time>2020-08-02T12:47:52Z</time>
      </trkpt>
      <trkpt lat="51.075903259948" lon="4.429413043344">
        <ele>0</ele>
        <time>2020-08-02T12:48:00Z</time>
      </trkpt>
      <trkpt lat="51.076392762908" lon="4.429913526593">
        <ele>0</ele>
        <time>2020-08-02T12:48:09Z</time>
      </trkpt>
      <trkpt lat="51.076863406593" lon="4.430396324033">
        <ele>0</ele>
        <time>2020-08-02T12:48:17Z</time>
      </trkpt>
      <trkpt lat="51.077342767454" lon="4.430953385107">
        <ele>0</ele>
        <time>2020-08-02T12:48:26Z</time>
      </trkpt>
      <trkpt lat="51.077782984842" lon="4.431600970701">
        <ele>0</ele>
        <time>2020-08-02T12:48:35Z</time>
      </trkpt>
      <trkpt lat="51.078125385457" lon="4.43226322462">
        <ele>0</ele>
        <time>2020-08-02T12:48:43Z</time>
      </trkpt>
      <trkpt lat="51.078430821893" lon="4.432995467404">
        <ele>0</ele>
        <time>2020-08-02T12:48:51Z</time>
      </trkpt>
      <trkpt lat="51.078685547834" lon="4.433789400972">
        <ele>0</ele>
        <time>2020-08-02T12:48:59Z</time>
      </trkpt>
      <trkpt lat="51.078887300167" lon="4.434631446646">
        <ele>0</ele>
        <time>2020-08-02T12:49:07Z</time>
      </trkpt>
      <trkpt lat="51.079007915708" lon="4.435517413476">
        <ele>0</ele>
        <time>2020-08-02T12:49:15Z</time>
      </trkpt>
      <trkpt lat="51.079073545985" lon="4.436423915961">
        <ele>0</ele>
        <time>2020-08-02T12:49:23Z</time>
      </trkpt>
      <trkpt lat="51.079044879887" lon="4.437354474499">
        <ele>0</ele>
        <time>2020-08-02T12:49:31Z</time>
      </trkpt>
      <trkpt lat="51.078964748923" lon="4.438266089943">
        <ele>0</ele>
        <time>2020-08-02T12:49:39Z</time>
      </trkpt>
      <trkpt lat="51.078795769819" lon="4.439177956844">
        <ele>0</ele>
        <time>2020-08-02T12:49:47Z</time>
      </trkpt>
      <trkpt lat="51.078567949777" lon="4.440047830426">
        <ele>0</ele>
        <time>2020-08-02T12:49:55Z</time>
      </trkpt>
      <trkpt lat="51.078265782282" lon="4.440867831703">
        <ele>0</ele>
        <time>2020-08-02T12:50:03Z</time>
      </trkpt>
      <trkpt lat="51.077915251224" lon="4.441611054776">
        <ele>0</ele>
        <time>2020-08-02T12:50:11Z</time>
      </trkpt>
      <trkpt lat="51.077506885056" lon="4.442275990903">
        <ele>0</ele>
        <time>2020-08-02T12:50:19Z</time>
      </trkpt>
      <trkpt lat="51.077055435922" lon="4.442817210186">
        <ele>0</ele>
        <time>2020-08-02T12:50:27Z</time>
      </trkpt>
      <trkpt lat="51.0765661006" lon="4.443274359012">
        <ele>0</ele>
        <time>2020-08-02T12:50:35Z</time>
      </trkpt>
      <trkpt lat="51.076031000104" lon="4.443657160385">
        <ele>0</ele>
        <time>2020-08-02T12:50:43Z</time>
      </trkpt>
      <trkpt lat="51.075520374756" lon="4.443989670358">
        <ele>0</ele>
        <time>2020-08-02T12:50:51Z</time>
      </trkpt>
      <trkpt lat="51.074995919273" lon="4.44434740985">
        <ele>0</ele>
        <time>2020-08-02T12:50:59Z</time>
      </trkpt>
      <trkpt lat="51.074786371773" lon="4.44453264984">
        <ele>0</ele>
        <time>2020-08-02T12:51:03Z</time>
      </trkpt>
      <trkpt lat="51.074780504443" lon="4.444765582841">
        <ele>0</ele>
        <time>2020-08-02T12:51:05Z</time>
      </trkpt>
      <trkpt lat="51.074814786414" lon="4.444971274667">
        <ele>0</ele>
        <time>2020-08-02T12:51:07Z</time>
      </trkpt>
      <trkpt lat="51.074899862699" lon="4.44510932456">
        <ele>0</ele>
        <time>2020-08-02T12:51:09Z</time>
      </trkpt>
      <trkpt lat="51.075017460756" lon="4.445162801082">
        <ele>0</ele>
        <time>2020-08-02T12:51:11Z</time>
      </trkpt>
      <trkpt lat="51.075967297664" lon="4.445152994259">
        <ele>0</ele>
        <time>2020-08-02T12:51:23Z</time>
      </trkpt>
      <trkpt lat="51.076529304059" lon="4.445143271255">
        <ele>0</ele>
        <time>2020-08-02T12:51:31Z</time>
      </trkpt>
      <trkpt lat="51.076660061699" lon="4.445100607384">
        <ele>0</ele>
        <time>2020-08-02T12:51:33Z</time>
      </trkpt>
      <trkpt lat="51.076796938126" lon="4.445059955169">
        <ele>0</ele>
        <time>2020-08-02T12:51:35Z</time>
      </trkpt>
      <trkpt lat="51.076915793468" lon="4.445041598808">
        <ele>0</ele>
        <time>2020-08-02T12:51:37Z</time>
      </trkpt>
      <trkpt lat="51.077356010856" lon="4.445126675093">
        <ele>0</ele>
        <time>2020-08-02T12:51:44Z</time>
      </trkpt>
      <trkpt lat="51.077438153476" lon="4.445223905133">
        <ele>0</ele>
        <time>2020-08-02T12:51:46Z</time>
      </trkpt>
      <trkpt lat="51.077430525947" lon="4.445393303332">
        <ele>0</ele>
        <time>2020-08-02T12:51:48Z</time>
      </trkpt>
      <trkpt lat="51.077388448809" lon="4.445552307975">
        <ele>0</ele>
        <time>2020-08-02T12:51:50Z</time>
      </trkpt>
      <trkpt lat="51.077162808061" lon="4.446353449977">
        <ele>0</ele>
        <time>2020-08-02T12:51:59Z</time>
      </trkpt>
      <trkpt lat="51.077020986313" lon="4.447235225857">
        <ele>0</ele>
        <time>2020-08-02T12:52:08Z</time>
      </trkpt>
      <trkpt lat="51.076892743243" lon="4.448132759709">
        <ele>0</ele>
        <time>2020-08-02T12:52:17Z</time>
      </trkpt>
      <trkpt lat="51.076802218723" lon="4.449069185577">
        <ele>0</ele>
        <time>2020-08-02T12:52:26Z</time>
      </trkpt>
      <trkpt lat="51.07671026928" lon="4.450004102703">
        <ele>0</ele>
        <time>2020-08-02T12:52:35Z</time>
      </trkpt>
      <trkpt lat="51.076624103348" lon="4.450946312082">
        <ele>0</ele>
        <time>2020-08-02T12:52:44Z</time>
      </trkpt>
      <trkpt lat="51.076533243552" lon="4.451894975524">
        <ele>0</ele>
        <time>2020-08-02T12:52:53Z</time>
      </trkpt>
      <trkpt lat="51.076506253834" lon="4.452421275025">
        <ele>0</ele>
        <time>2020-08-02T12:52:58Z</time>
      </trkpt>
      <trkpt lat="51.076511450612" lon="4.452624284643">
        <ele>0</ele>
        <time>2020-08-02T12:53:01Z</time>
      </trkpt>
      <trkpt lat="51.076529471697" lon="4.453065340221">
        <ele>0</ele>
        <time>2020-08-02T12:53:17Z</time>
      </trkpt>
      <trkpt lat="51.07660381915" lon="4.454001263175">
        <ele>0</ele>
        <time>2020-08-02T12:53:28Z</time>
      </trkpt>
      <trkpt lat="51.07667171254" lon="4.454927798401">
        <ele>0</ele>
        <time>2020-08-02T12:53:37Z</time>
      </trkpt>
      <trkpt lat="51.076692751109" lon="4.455017484731">
        <ele>0</ele>
        <time>2020-08-02T12:53:38Z</time>
      </trkpt>
      <trkpt lat="51.076794004461" lon="4.455123851042">
        <ele>0</ele>
        <time>2020-08-02T12:53:40Z</time>
      </trkpt>
      <trkpt lat="51.076934988019" lon="4.45508713832">
        <ele>0</ele>
        <time>2020-08-02T12:53:42Z</time>
      </trkpt>
      <trkpt lat="51.077486517039" lon="4.455001475302">
        <ele>0</ele>
        <time>2020-08-02T12:53:50Z</time>
      </trkpt>
      <trkpt lat="51.077919358355" lon="4.454967360969">
        <ele>0</ele>
        <time>2020-08-02T12:53:57Z</time>
      </trkpt>
      <trkpt lat="51.077992867618" lon="4.455092083641">
        <ele>0</ele>
        <time>2020-08-02T12:53:59Z</time>
      </trkpt>
      <trkpt lat="51.077979540397" lon="4.455379079897">
        <ele>0</ele>
        <time>2020-08-02T12:54:02Z</time>
      </trkpt>
      <trkpt lat="51.07796084876" lon="4.455694909889">
        <ele>0</ele>
        <time>2020-08-02T12:54:05Z</time>
      </trkpt>
      <trkpt lat="51.078061096284" lon="4.456569225878">
        <ele>0</ele>
        <time>2020-08-02T12:54:13Z</time>
      </trkpt>
      <trkpt lat="51.078188920259" lon="4.45743742308">
        <ele>0</ele>
        <time>2020-08-02T12:54:21Z</time>
      </trkpt>
      <trkpt lat="51.078341638477" lon="4.458341662452">
        <ele>0</ele>
        <time>2020-08-02T12:54:30Z</time>
      </trkpt>
      <trkpt lat="51.078351277662" lon="4.458533607962">
        <ele>0</ele>
        <time>2020-08-02T12:54:32Z</time>
      </trkpt>
      <trkpt lat="51.078304590479" lon="4.458673920968">
        <ele>0</ele>
        <time>2020-08-02T12:54:34Z</time>
      </trkpt>
      <trkpt lat="51.07818296911" lon="4.458714657002">
        <ele>0</ele>
        <time>2020-08-02T12:54:36Z</time>
      </trkpt>
      <trkpt lat="51.077624064018" lon="4.458750447715">
        <ele>0</ele>
        <time>2020-08-02T12:54:44Z</time>
      </trkpt>
      <trkpt lat="51.077098686526" lon="4.45883384762">
        <ele>0</ele>
        <time>2020-08-02T12:54:52Z</time>
      </trkpt>
      <trkpt lat="51.077036576647" lon="4.458930323289">
        <ele>0</ele>
        <time>2020-08-02T12:54:54Z</time>
      </trkpt>
      <trkpt lat="51.077014783707" lon="4.459054626866">
        <ele>0</ele>
        <time>2020-08-02T12:54:56Z</time>
      </trkpt>
      <trkpt lat="51.077116204697" lon="4.459958447143">
        <ele>0</ele>
        <time>2020-08-02T12:55:06Z</time>
      </trkpt>
      <trkpt lat="51.077254422228" lon="4.460677614163">
        <ele>0</ele>
        <time>2020-08-02T12:55:14Z</time>
      </trkpt>
      <trkpt lat="51.077328685862" lon="4.460848521104">
        <ele>0</ele>
        <time>2020-08-02T12:55:16Z</time>
      </trkpt>
      <trkpt lat="51.077447457385" lon="4.461105091063">
        <ele>0</ele>
        <time>2020-08-02T12:55:19Z</time>
      </trkpt>
      <trkpt lat="51.077596403748" lon="4.461996170852">
        <ele>0</ele>
        <time>2020-08-02T12:55:28Z</time>
      </trkpt>
      <trkpt lat="51.077720455868" lon="4.462884987528">
        <ele>0</ele>
        <time>2020-08-02T12:55:37Z</time>
      </trkpt>
      <trkpt lat="51.077847609291" lon="4.463737594396">
        <ele>0</ele>
        <time>2020-08-02T12:55:45Z</time>
      </trkpt>
      <trkpt lat="51.077964033882" lon="4.464662034147">
        <ele>0</ele>
        <time>2020-08-02T12:55:54Z</time>
      </trkpt>
      <trkpt lat="51.078079787921" lon="4.465534254661">
        <ele>0</ele>
        <time>2020-08-02T12:56:03Z</time>
      </trkpt>
      <trkpt lat="51.078228818103" lon="4.466391890669">
        <ele>0</ele>
        <time>2020-08-02T12:56:12Z</time>
      </trkpt>
      <trkpt lat="51.078270308508" lon="4.466658854184">
        <ele>0</ele>
        <time>2020-08-02T12:56:15Z</time>
      </trkpt>
      <trkpt lat="51.078349517463" lon="4.466731022343">
        <ele>0</ele>
        <time>2020-08-02T12:56:17Z</time>
      </trkpt>
      <trkpt lat="51.078446663684" lon="4.466701434236">
        <ele>0</ele>
        <time>2020-08-02T12:56:19Z</time>
      </trkpt>
      <trkpt lat="51.078958546317" lon="4.466344449115">
        <ele>0</ele>
        <time>2020-08-02T12:56:28Z</time>
      </trkpt>
      <trkpt lat="51.079473697891" lon="4.466007412916">
        <ele>0</ele>
        <time>2020-08-02T12:56:37Z</time>
      </trkpt>
      <trkpt lat="51.079741499596" lon="4.465837930898">
        <ele>0</ele>
        <time>2020-08-02T12:56:42Z</time>
      </trkpt>
      <trkpt lat="51.079812913384" lon="4.465981429026">
        <ele>0</ele>
        <time>2020-08-02T12:56:45Z</time>
      </trkpt>
      <trkpt lat="51.079800005258" lon="4.466140601307">
        <ele>0</ele>
        <time>2020-08-02T12:56:47Z</time>
      </trkpt>
      <trkpt lat="51.079737643922" lon="4.467039476263">
        <ele>0</ele>
        <time>2020-08-02T12:56:57Z</time>
      </trkpt>
      <trkpt lat="51.07966991817" lon="4.467948241861">
        <ele>0</ele>
        <time>2020-08-02T12:57:06Z</time>
      </trkpt>
      <trkpt lat="51.079603617341" lon="4.468867568653">
        <ele>0</ele>
        <time>2020-08-02T12:57:15Z</time>
      </trkpt>
      <trkpt lat="51.079600599857" lon="4.468962870856">
        <ele>0</ele>
        <time>2020-08-02T12:57:16Z</time>
      </trkpt>
      <trkpt lat="51.079572436673" lon="4.469880269811">
        <ele>0</ele>
        <time>2020-08-02T12:57:26Z</time>
      </trkpt>
      <trkpt lat="51.079658434967" lon="4.470792807264">
        <ele>0</ele>
        <time>2020-08-02T12:57:36Z</time>
      </trkpt>
      <trkpt lat="51.07974367889" lon="4.471690173478">
        <ele>0</ele>
        <time>2020-08-02T12:57:46Z</time>
      </trkpt>
      <trkpt lat="51.07987862748" lon="4.472535991007">
        <ele>0</ele>
        <time>2020-08-02T12:57:59Z</time>
      </trkpt>
      <trkpt lat="51.080295627005" lon="4.473085340733">
        <ele>0</ele>
        <time>2020-08-02T12:58:11Z</time>
      </trkpt>
      <trkpt lat="51.080757553514" lon="4.473576603892">
        <ele>0</ele>
        <time>2020-08-02T12:58:20Z</time>
      </trkpt>
      <trkpt lat="51.081238926031" lon="4.474099131538">
        <ele>0</ele>
        <time>2020-08-02T12:58:29Z</time>
      </trkpt>
      <trkpt lat="51.081742510583" lon="4.474638422984">
        <ele>0</ele>
        <time>2020-08-02T12:58:38Z</time>
      </trkpt>
      <trkpt lat="51.082207706033" lon="4.475130943428">
        <ele>0</ele>
        <time>2020-08-02T12:58:47Z</time>
      </trkpt>
      <trkpt lat="51.082661585918" lon="4.475675515471">
        <ele>0</ele>
        <time>2020-08-02T12:58:57Z</time>
      </trkpt>
      <trkpt lat="51.083149580136" lon="4.47620868813">
        <ele>0</ele>
        <time>2020-08-02T12:59:07Z</time>
      </trkpt>
      <trkpt lat="51.083635478879" lon="4.476751416155">
        <ele>0</ele>
        <time>2020-08-02T12:59:16Z</time>
      </trkpt>
      <trkpt lat="51.084096064284" lon="4.477333622929">
        <ele>0</ele>
        <time>2020-08-02T12:59:24Z</time>
      </trkpt>
      <trkpt lat="51.084510800696" lon="4.477893869125">
        <ele>0</ele>
        <time>2020-08-02T12:59:34Z</time>
      </trkpt>
      <trkpt lat="51.084937523225" lon="4.478425197766">
        <ele>0</ele>
        <time>2020-08-02T12:59:44Z</time>
      </trkpt>
      <trkpt lat="51.085403556865" lon="4.478969183076">
        <ele>0</ele>
        <time>2020-08-02T12:59:54Z</time>
      </trkpt>
      <trkpt lat="51.085524423863" lon="4.47922449575">
        <ele>0</ele>
        <time>2020-08-02T12:59:59Z</time>
      </trkpt>
      <trkpt lat="51.085520065275" lon="4.479428259739">
        <ele>0</ele>
        <time>2020-08-02T13:00:02Z</time>
      </trkpt>
      <trkpt lat="51.085537331989" lon="4.479578631025">
        <ele>0</ele>
        <time>2020-08-02T13:00:04Z</time>
      </trkpt>
      <trkpt lat="51.085744448738" lon="4.480435093567">
        <ele>0</ele>
        <time>2020-08-02T13:00:14Z</time>
      </trkpt>
      <trkpt lat="51.08596388688" lon="4.481275714318">
        <ele>0</ele>
        <time>2020-08-02T13:00:23Z</time>
      </trkpt>
      <trkpt lat="51.086184749945" lon="4.482130249023">
        <ele>0</ele>
        <time>2020-08-02T13:00:32Z</time>
      </trkpt>
      <trkpt lat="51.086356830352" lon="4.482958464562">
        <ele>0</ele>
        <time>2020-08-02T13:00:41Z</time>
      </trkpt>
      <trkpt lat="51.086494293512" lon="4.483819620968">
        <ele>0</ele>
        <time>2020-08-02T13:00:50Z</time>
      </trkpt>
      <trkpt lat="51.086651705594" lon="4.484697122079">
        <ele>0</ele>
        <time>2020-08-02T13:00:59Z</time>
      </trkpt>
      <trkpt lat="51.086809536771" lon="4.485364656595">
        <ele>0</ele>
        <time>2020-08-02T13:01:06Z</time>
      </trkpt>
      <trkpt lat="51.086874496496" lon="4.485506059248">
        <ele>0</ele>
        <time>2020-08-02T13:01:08Z</time>
      </trkpt>
      <trkpt lat="51.086959069867" lon="4.485587615135">
        <ele>0</ele>
        <time>2020-08-02T13:01:10Z</time>
      </trkpt>
      <trkpt lat="51.087055964631" lon="4.485659028923">
        <ele>0</ele>
        <time>2020-08-02T13:01:12Z</time>
      </trkpt>
      <trkpt lat="51.087118828881" lon="4.485781739939">
        <ele>0</ele>
        <time>2020-08-02T13:01:14Z</time>
      </trkpt>
      <trkpt lat="51.087137688156" lon="4.485947869197">
        <ele>0</ele>
        <time>2020-08-02T13:01:16Z</time>
      </trkpt>
      <trkpt lat="51.087208766668" lon="4.486901980874">
        <ele>0</ele>
        <time>2020-08-02T13:01:25Z</time>
      </trkpt>
      <trkpt lat="51.087409177897" lon="4.48780672316">
        <ele>0</ele>
        <time>2020-08-02T13:01:33Z</time>
      </trkpt>
      <trkpt lat="51.087625766193" lon="4.488716829862">
        <ele>0</ele>
        <time>2020-08-02T13:01:41Z</time>
      </trkpt>
      <trkpt lat="51.087820645368" lon="4.489521156986">
        <ele>0</ele>
        <time>2020-08-02T13:01:48Z</time>
      </trkpt>
      <trkpt lat="51.088015776" lon="4.490331099983">
        <ele>0</ele>
        <time>2020-08-02T13:01:55Z</time>
      </trkpt>
      <trkpt lat="51.088209314071" lon="4.491136600573">
        <ele>0</ele>
        <time>2020-08-02T13:02:02Z</time>
      </trkpt>
      <trkpt lat="51.088399583201" lon="4.491944951009">
        <ele>0</ele>
        <time>2020-08-02T13:02:09Z</time>
      </trkpt>
      <trkpt lat="51.088591109616" lon="4.492755229282">
        <ele>0</ele>
        <time>2020-08-02T13:02:17Z</time>
      </trkpt>
      <trkpt lat="51.088948849108" lon="4.493387811275">
        <ele>0</ele>
        <time>2020-08-02T13:02:25Z</time>
      </trkpt>
      <trkpt lat="51.089068291183" lon="4.493493087939">
        <ele>0</ele>
        <time>2020-08-02T13:02:27Z</time>
      </trkpt>
      <trkpt lat="51.089300553632" lon="4.49366650945">
        <ele>0</ele>
        <time>2020-08-02T13:02:31Z</time>
      </trkpt>
      <trkpt lat="51.089411529988" lon="4.493827693387">
        <ele>0</ele>
        <time>2020-08-02T13:02:34Z</time>
      </trkpt>
      <trkpt lat="51.08952870895" lon="4.494686419042">
        <ele>0</ele>
        <time>2020-08-02T13:02:48Z</time>
      </trkpt>
      <trkpt lat="51.08954798732" lon="4.494821032356">
        <ele>0</ele>
        <time>2020-08-02T13:02:50Z</time>
      </trkpt>
      <trkpt lat="51.089589310087" lon="4.494941815535">
        <ele>0</ele>
        <time>2020-08-02T13:02:52Z</time>
      </trkpt>
      <trkpt lat="51.089904804803" lon="4.494960507172">
        <ele>0</ele>
        <time>2020-08-02T13:03:02Z</time>
      </trkpt>
      <trkpt lat="51.08996959689" lon="4.495104424395">
        <ele>0</ele>
        <time>2020-08-02T13:03:05Z</time>
      </trkpt>
      <trkpt lat="51.09019842276" lon="4.495891736262">
        <ele>0</ele>
        <time>2020-08-02T13:03:16Z</time>
      </trkpt>
      <trkpt lat="51.090213593999" lon="4.495975974357">
        <ele>0</ele>
        <time>2020-08-02T13:03:19Z</time>
      </trkpt>
      <trkpt lat="51.090191381964" lon="4.496006400654">
        <ele>0</ele>
        <time>2020-08-02T13:03:21Z</time>
      </trkpt>
      <trkpt lat="51.090143353677" lon="4.495984188619">
        <ele>0</ele>
        <time>2020-08-02T13:03:23Z</time>
      </trkpt>
      <trkpt lat="51.08993690748" lon="4.496010004871">
        <ele>0</ele>
        <time>2020-08-02T13:03:30Z</time>
      </trkpt>
      <trkpt lat="51.089603056403" lon="4.496758340903">
        <ele>0</ele>
        <time>2020-08-02T13:03:40Z</time>
      </trkpt>
      <trkpt lat="51.089531391158" lon="4.496902090488">
        <ele>0</ele>
        <time>2020-08-02T13:03:42Z</time>
      </trkpt>
      <trkpt lat="51.089417900232" lon="4.497060005484">
        <ele>0</ele>
        <time>2020-08-02T13:03:45Z</time>
      </trkpt>
      <trkpt lat="51.089235510088" lon="4.497476753552">
        <ele>0</ele>
        <time>2020-08-02T13:03:52Z</time>
      </trkpt>
      <trkpt lat="51.089057729989" lon="4.497811023724">
        <ele>0</ele>
        <time>2020-08-02T13:04:30Z</time>
      </trkpt>
      <trkpt lat="51.088996123024" lon="4.497976566249">
        <ele>0</ele>
        <time>2020-08-02T13:04:35Z</time>
      </trkpt>
      <trkpt lat="51.088520282561" lon="4.498916596334">
        <ele>0</ele>
        <time>2020-08-02T13:04:54Z</time>
      </trkpt>
      <trkpt lat="51.089001152164" lon="4.499418672144">
        <ele>0</ele>
        <time>2020-08-02T13:05:05Z</time>
      </trkpt>
      <trkpt lat="51.089504820535" lon="4.499932314976">
        <ele>0</ele>
        <time>2020-08-02T13:05:14Z</time>
      </trkpt>
      <trkpt lat="51.089963478103" lon="4.500464314169">
        <ele>0</ele>
        <time>2020-08-02T13:05:22Z</time>
      </trkpt>
      <trkpt lat="51.090379136524" lon="4.501089603909">
        <ele>0</ele>
        <time>2020-08-02T13:05:30Z</time>
      </trkpt>
      <trkpt lat="51.090753220721" lon="4.50177683589">
        <ele>0</ele>
        <time>2020-08-02T13:05:38Z</time>
      </trkpt>
      <trkpt lat="51.091082461753" lon="4.502470941029">
        <ele>0</ele>
        <time>2020-08-02T13:05:46Z</time>
      </trkpt>
      <trkpt lat="51.091425197644" lon="4.503182815796">
        <ele>0</ele>
        <time>2020-08-02T13:05:54Z</time>
      </trkpt>
      <trkpt lat="51.091765670422" lon="4.503875998926">
        <ele>0</ele>
        <time>2020-08-02T13:06:02Z</time>
      </trkpt>
      <trkpt lat="51.092148974709" lon="4.504540935053">
        <ele>0</ele>
        <time>2020-08-02T13:06:10Z</time>
      </trkpt>
      <trkpt lat="51.092559939266" lon="4.50514468331">
        <ele>0</ele>
        <time>2020-08-02T13:06:18Z</time>
      </trkpt>
      <trkpt lat="51.093025889087" lon="4.50565849378">
        <ele>0</ele>
        <time>2020-08-02T13:06:27Z</time>
      </trkpt>
      <trkpt lat="51.093508854165" lon="4.506106422516">
        <ele>0</ele>
        <time>2020-08-02T13:06:36Z</time>
      </trkpt>
      <trkpt lat="51.094008163948" lon="4.506497102875">
        <ele>0</ele>
        <time>2020-08-02T13:06:45Z</time>
      </trkpt>
      <trkpt lat="51.094290885435" lon="4.506612437819">
        <ele>0</ele>
        <time>2020-08-02T13:06:53Z</time>
      </trkpt>
      <trkpt lat="51.094520214219" lon="4.505807188686">
        <ele>0</ele>
        <time>2020-08-02T13:07:08Z</time>
      </trkpt>
      <trkpt lat="51.094717691783" lon="4.505396224129">
        <ele>0</ele>
        <time>2020-08-02T13:07:14Z</time>
      </trkpt>
      <trkpt lat="51.0948470245" lon="4.505230513966">
        <ele>0</ele>
        <time>2020-08-02T13:07:17Z</time>
      </trkpt>
      <trkpt lat="51.094878624263" lon="4.505168739363">
        <ele>0</ele>
        <time>2020-08-02T13:07:18Z</time>
      </trkpt>
      <trkpt lat="51.095056404362" lon="4.504912588499">
        <ele>0</ele>
        <time>2020-08-02T13:08:05Z</time>
      </trkpt>
      <trkpt lat="51.095531909549" lon="4.505357667389">
        <ele>0</ele>
        <time>2020-08-02T13:08:29Z</time>
      </trkpt>
      <trkpt lat="51.095822258565" lon="4.506032577977">
        <ele>0</ele>
        <time>2020-08-02T13:08:39Z</time>
      </trkpt>
      <trkpt lat="51.096321735986" lon="4.506477153953">
        <ele>0</ele>
        <time>2020-08-02T13:08:49Z</time>
      </trkpt>
      <trkpt lat="51.09688717896" lon="4.506589387594">
        <ele>0</ele>
        <time>2020-08-02T13:08:58Z</time>
      </trkpt>
      <trkpt lat="51.097492184502" lon="4.50662408866">
        <ele>0</ele>
        <time>2020-08-02T13:09:07Z</time>
      </trkpt>
      <trkpt lat="51.098050838137" lon="4.506653173853">
        <ele>0</ele>
        <time>2020-08-02T13:09:16Z</time>
      </trkpt>
      <trkpt lat="51.098639331336" lon="4.506682678141">
        <ele>0</ele>
        <time>2020-08-02T13:09:26Z</time>
      </trkpt>
      <trkpt lat="51.098693897505" lon="4.506675385888">
        <ele>0</ele>
        <time>2020-08-02T13:09:27Z</time>
      </trkpt>
      <trkpt lat="51.098898667322" lon="4.506580418961">
        <ele>0</ele>
        <time>2020-08-02T13:09:31Z</time>
      </trkpt>
      <trkpt lat="51.098991119679" lon="4.506521075109">
        <ele>0</ele>
        <time>2020-08-02T13:09:33Z</time>
      </trkpt>
      <trkpt lat="51.099083572036" lon="4.506477070134">
        <ele>0</ele>
        <time>2020-08-02T13:09:35Z</time>
      </trkpt>
      <trkpt lat="51.099174096556" lon="4.506392664401">
        <ele>0</ele>
        <time>2020-08-02T13:09:37Z</time>
      </trkpt>
      <trkpt lat="51.099523035053" lon="4.506047162483">
        <ele>0</ele>
        <time>2020-08-02T13:09:45Z</time>
      </trkpt>
      <trkpt lat="51.099725541757" lon="4.506134501881">
        <ele>0</ele>
        <time>2020-08-02T13:09:51Z</time>
      </trkpt>
      <trkpt lat="51.100195347252" lon="4.506658957364">
        <ele>0</ele>
        <time>2020-08-02T13:10:01Z</time>
      </trkpt>
      <trkpt lat="51.100244046091" lon="4.506709751678">
        <ele>0</ele>
        <time>2020-08-02T13:10:02Z</time>
      </trkpt>
      <trkpt lat="51.100527605768" lon="4.506955928081">
        <ele>0</ele>
        <time>2020-08-02T13:10:08Z</time>
      </trkpt>
      <trkpt lat="51.101002021308" lon="4.507501589771">
        <ele>0</ele>
        <time>2020-08-02T13:10:18Z</time>
      </trkpt>
      <trkpt lat="51.101152392594" lon="4.507640142578">
        <ele>0</ele>
        <time>2020-08-02T13:10:21Z</time>
      </trkpt>
      <trkpt lat="51.101659413725" lon="4.507923702255">
        <ele>0</ele>
        <time>2020-08-02T13:10:30Z</time>
      </trkpt>
      <trkpt lat="51.102216223342" lon="4.50813618342">
        <ele>0</ele>
        <time>2020-08-02T13:10:39Z</time>
      </trkpt>
      <trkpt lat="51.102338934358" lon="4.508196281643">
        <ele>0</ele>
        <time>2020-08-02T13:10:41Z</time>
      </trkpt>
      <trkpt lat="51.102463070297" lon="4.508261828101">
        <ele>0</ele>
        <time>2020-08-02T13:10:43Z</time>
      </trkpt>
      <trkpt lat="51.103032704221" lon="4.508579502111">
        <ele>0</ele>
        <time>2020-08-02T13:10:52Z</time>
      </trkpt>
      <trkpt lat="51.103565290147" lon="4.50896263876">
        <ele>0</ele>
        <time>2020-08-02T13:11:01Z</time>
      </trkpt>
      <trkpt lat="51.104070131984" lon="4.509346781237">
        <ele>0</ele>
        <time>2020-08-02T13:11:10Z</time>
      </trkpt>
      <trkpt lat="51.10455913203" lon="4.509810803221">
        <ele>0</ele>
        <time>2020-08-02T13:11:20Z</time>
      </trkpt>
      <trkpt lat="51.104658122269" lon="4.509884144846">
        <ele>0</ele>
        <time>2020-08-02T13:11:22Z</time>
      </trkpt>
      <trkpt lat="51.104757531603" lon="4.5098980588">
        <ele>0</ele>
        <time>2020-08-02T13:11:24Z</time>
      </trkpt>
      <trkpt lat="51.104837830205" lon="4.509809126841">
        <ele>0</ele>
        <time>2020-08-02T13:11:26Z</time>
      </trkpt>
      <trkpt lat="51.105140919709" lon="4.509017204929">
        <ele>0</ele>
        <time>2020-08-02T13:11:36Z</time>
      </trkpt>
      <trkpt lat="51.105458593719" lon="4.508227629949">
        <ele>0</ele>
        <time>2020-08-02T13:11:45Z</time>
      </trkpt>
      <trkpt lat="51.105495474079" lon="4.508170800667">
        <ele>0</ele>
        <time>2020-08-02T13:11:46Z</time>
      </trkpt>
      <trkpt lat="51.105612988317" lon="4.508244645206">
        <ele>0</ele>
        <time>2020-08-02T13:11:49Z</time>
      </trkpt>
      <trkpt lat="51.106066030012" lon="4.508848142006">
        <ele>0</ele>
        <time>2020-08-02T13:11:59Z</time>
      </trkpt>
      <trkpt lat="51.10650457102" lon="4.509459853068">
        <ele>0</ele>
        <time>2020-08-02T13:12:08Z</time>
      </trkpt>
      <trkpt lat="51.106871865878" lon="4.51008832793">
        <ele>0</ele>
        <time>2020-08-02T13:12:16Z</time>
      </trkpt>
      <trkpt lat="51.107179649246" lon="4.510808584597">
        <ele>0</ele>
        <time>2020-08-02T13:12:24Z</time>
      </trkpt>
      <trkpt lat="51.107520373481" lon="4.511598830129">
        <ele>0</ele>
        <time>2020-08-02T13:12:33Z</time>
      </trkpt>
      <trkpt lat="51.107859002241" lon="4.51238580672">
        <ele>0</ele>
        <time>2020-08-02T13:12:42Z</time>
      </trkpt>
      <trkpt lat="51.108163935763" lon="4.513166245429">
        <ele>0</ele>
        <time>2020-08-02T13:12:50Z</time>
      </trkpt>
      <trkpt lat="51.108475574805" lon="4.51399513152">
        <ele>0</ele>
        <time>2020-08-02T13:12:58Z</time>
      </trkpt>
      <trkpt lat="51.108686798685" lon="4.514527801265">
        <ele>0</ele>
        <time>2020-08-02T13:13:04Z</time>
      </trkpt>
      <trkpt lat="51.108814203565" lon="4.51448463448">
        <ele>0</ele>
        <time>2020-08-02T13:13:07Z</time>
      </trkpt>
      <trkpt lat="51.109294318797" lon="4.513914497642">
        <ele>0</ele>
        <time>2020-08-02T13:13:17Z</time>
      </trkpt>
      <trkpt lat="51.1095740228" lon="4.513516022116">
        <ele>0</ele>
        <time>2020-08-02T13:13:23Z</time>
      </trkpt>
      <trkpt lat="51.109817265538" lon="4.513363722993">
        <ele>0</ele>
        <time>2020-08-02T13:13:27Z</time>
      </trkpt>
      <trkpt lat="51.109944921875" lon="4.513366572839">
        <ele>0</ele>
        <time>2020-08-02T13:13:29Z</time>
      </trkpt>
      <trkpt lat="51.110292435449" lon="4.513618113658">
        <ele>0</ele>
        <time>2020-08-02T13:13:35Z</time>
      </trkpt>
      <trkpt lat="51.110361418486" lon="4.513784075278">
        <ele>0</ele>
        <time>2020-08-02T13:13:37Z</time>
      </trkpt>
      <trkpt lat="51.110550095055" lon="4.514597371035">
        <ele>0</ele>
        <time>2020-08-02T13:13:45Z</time>
      </trkpt>
      <trkpt lat="51.110882353571" lon="4.515389125309">
        <ele>0</ele>
        <time>2020-08-02T13:13:54Z</time>
      </trkpt>
      <trkpt lat="51.111204218531" lon="4.516093791642">
        <ele>0</ele>
        <time>2020-08-02T13:14:02Z</time>
      </trkpt>
      <trkpt lat="51.111567909172" lon="4.516826788797">
        <ele>0</ele>
        <time>2020-08-02T13:14:11Z</time>
      </trkpt>
      <trkpt lat="51.111969821277" lon="4.517429112131">
        <ele>0</ele>
        <time>2020-08-02T13:14:19Z</time>
      </trkpt>
      <trkpt lat="51.112437028383" lon="4.517986843757">
        <ele>0</ele>
        <time>2020-08-02T13:14:28Z</time>
      </trkpt>
      <trkpt lat="51.11284547837" lon="4.518553963111">
        <ele>0</ele>
        <time>2020-08-02T13:14:36Z</time>
      </trkpt>
      <trkpt lat="51.113220819852" lon="4.519175480996">
        <ele>0</ele>
        <time>2020-08-02T13:14:44Z</time>
      </trkpt>
      <trkpt lat="51.113598005352" lon="4.519833208689">
        <ele>0</ele>
        <time>2020-08-02T13:14:52Z</time>
      </trkpt>
      <trkpt lat="51.114001845294" lon="4.520481129559">
        <ele>0</ele>
        <time>2020-08-02T13:15:00Z</time>
      </trkpt>
      <trkpt lat="51.114480535603" lon="4.520982450998">
        <ele>0</ele>
        <time>2020-08-02T13:15:08Z</time>
      </trkpt>
      <trkpt lat="51.114577933281" lon="4.521140114537">
        <ele>0</ele>
        <time>2020-08-02T13:15:09Z</time>
      </trkpt>
      <trkpt lat="51.114947742709" lon="4.521769092313">
        <ele>0</ele>
        <time>2020-08-02T13:15:18Z</time>
      </trkpt>
      <trkpt lat="51.115428025579" lon="4.522312239433">
        <ele>0</ele>
        <time>2020-08-02T13:15:27Z</time>
      </trkpt>
      <trkpt lat="51.115949379759" lon="4.522754636115">
        <ele>0</ele>
        <time>2020-08-02T13:15:36Z</time>
      </trkpt>
      <trkpt lat="51.11638766931" lon="4.523408424315">
        <ele>0</ele>
        <time>2020-08-02T13:15:45Z</time>
      </trkpt>
      <trkpt lat="51.116732416857" lon="4.524147624076">
        <ele>0</ele>
        <time>2020-08-02T13:15:54Z</time>
      </trkpt>
      <trkpt lat="51.117047743935" lon="4.524855978445">
        <ele>0</ele>
        <time>2020-08-02T13:16:03Z</time>
      </trkpt>
      <trkpt lat="51.117163665612" lon="4.52503828477">
        <ele>0</ele>
        <time>2020-08-02T13:16:09Z</time>
      </trkpt>
      <trkpt lat="51.117215298116" lon="4.52506678323">
        <ele>0</ele>
        <time>2020-08-02T13:16:12Z</time>
      </trkpt>
      <trkpt lat="51.117640847179" lon="4.524440906757">
        <ele>0</ele>
        <time>2020-08-02T13:16:28Z</time>
      </trkpt>
      <trkpt lat="51.1177128477" lon="4.524346107468">
        <ele>0</ele>
        <time>2020-08-02T13:16:30Z</time>
      </trkpt>
      <trkpt lat="51.117801528202" lon="4.524183163332">
        <ele>0</ele>
        <time>2020-08-02T13:16:33Z</time>
      </trkpt>
      <trkpt lat="51.117853076887" lon="4.524068079845">
        <ele>0</ele>
        <time>2020-08-02T13:16:35Z</time>
      </trkpt>
      <trkpt lat="51.117937817896" lon="4.52404251505">
        <ele>0</ele>
        <time>2020-08-02T13:16:37Z</time>
      </trkpt>
      <trkpt lat="51.11848649707" lon="4.524376869041">
        <ele>0</ele>
        <time>2020-08-02T13:16:48Z</time>
      </trkpt>
      <trkpt lat="51.118685399557" lon="4.524580716849">
        <ele>0</ele>
        <time>2020-08-02T13:16:52Z</time>
      </trkpt>
      <trkpt lat="51.119134166483" lon="4.525112799861">
        <ele>0</ele>
        <time>2020-08-02T13:17:01Z</time>
      </trkpt>
      <trkpt lat="51.11960380434" lon="4.525549077756">
        <ele>0</ele>
        <time>2020-08-02T13:17:10Z</time>
      </trkpt>
      <trkpt lat="51.12014192232" lon="4.525886113955">
        <ele>0</ele>
        <time>2020-08-02T13:17:20Z</time>
      </trkpt>
      <trkpt lat="51.120686913458" lon="4.526206386354">
        <ele>0</ele>
        <time>2020-08-02T13:17:30Z</time>
      </trkpt>
      <trkpt lat="51.12085438382" lon="4.526326331343">
        <ele>0</ele>
        <time>2020-08-02T13:17:33Z</time>
      </trkpt>
      <trkpt lat="51.121285967851" lon="4.52695773987">
        <ele>0</ele>
        <time>2020-08-02T13:17:42Z</time>
      </trkpt>
      <trkpt lat="51.12169005925" lon="4.527619742332">
        <ele>0</ele>
        <time>2020-08-02T13:17:51Z</time>
      </trkpt>
      <trkpt lat="51.12211418339" lon="4.528232710679">
        <ele>0</ele>
        <time>2020-08-02T13:17:59Z</time>
      </trkpt>
      <trkpt lat="51.1227419877" lon="4.529126807952">
        <ele>0</ele>
        <time>2020-08-02T13:18:13Z</time>
      </trkpt>
      <trkpt lat="51.123167033849" lon="4.529745895086">
        <ele>0</ele>
        <time>2020-08-02T13:18:22Z</time>
      </trkpt>
      <trkpt lat="51.123382951593" lon="4.52997941482">
        <ele>0</ele>
        <time>2020-08-02T13:18:26Z</time>
      </trkpt>
      <trkpt lat="51.123514882699" lon="4.530037585206">
        <ele>0</ele>
        <time>2020-08-02T13:18:28Z</time>
      </trkpt>
      <trkpt lat="51.123960548322" lon="4.52997773844">
        <ele>0</ele>
        <time>2020-08-02T13:18:35Z</time>
      </trkpt>
      <trkpt lat="51.124521632708" lon="4.530258783547">
        <ele>0</ele>
        <time>2020-08-02T13:18:45Z</time>
      </trkpt>
      <trkpt lat="51.125044747087" lon="4.530565141992">
        <ele>0</ele>
        <time>2020-08-02T13:18:54Z</time>
      </trkpt>
      <trkpt lat="51.125545314155" lon="4.530899495983">
        <ele>0</ele>
        <time>2020-08-02T13:19:03Z</time>
      </trkpt>
      <trkpt lat="51.126047976698" lon="4.531213649595">
        <ele>0</ele>
        <time>2020-08-02T13:19:12Z</time>
      </trkpt>
      <trkpt lat="51.126562960634" lon="4.531534424908">
        <ele>0</ele>
        <time>2020-08-02T13:19:21Z</time>
      </trkpt>
      <trkpt lat="51.12709303199" lon="4.531809518866">
        <ele>0</ele>
        <time>2020-08-02T13:19:30Z</time>
      </trkpt>
      <trkpt lat="51.12761690074" lon="4.532081427702">
        <ele>0</ele>
        <time>2020-08-02T13:19:40Z</time>
      </trkpt>
      <trkpt lat="51.128200113342" lon="4.532262560561">
        <ele>0</ele>
        <time>2020-08-02T13:19:50Z</time>
      </trkpt>
      <trkpt lat="51.128767903248" lon="4.532449644569">
        <ele>0</ele>
        <time>2020-08-02T13:20:00Z</time>
      </trkpt>
      <trkpt lat="51.129255059276" lon="4.532958677356">
        <ele>0</ele>
        <time>2020-08-02T13:20:10Z</time>
      </trkpt>
      <trkpt lat="51.129703826202" lon="4.533475840586">
        <ele>0</ele>
        <time>2020-08-02T13:20:20Z</time>
      </trkpt>
      <trkpt lat="51.130061146599" lon="4.533890744636">
        <ele>0</ele>
        <time>2020-08-02T13:20:29Z</time>
      </trkpt>
      <trkpt lat="51.130134236767" lon="4.533945646081">
        <ele>0</ele>
        <time>2020-08-02T13:20:31Z</time>
      </trkpt>
      <trkpt lat="51.130337414023" lon="4.533792592587">
        <ele>0</ele>
        <time>2020-08-02T13:20:37Z</time>
      </trkpt>
      <trkpt lat="51.130656680594" lon="4.533055739758">
        <ele>0</ele>
        <time>2020-08-02T13:20:48Z</time>
      </trkpt>
      <trkpt lat="51.13096966074" lon="4.532328358476">
        <ele>0</ele>
        <time>2020-08-02T13:20:58Z</time>
      </trkpt>
      <trkpt lat="51.13127560009" lon="4.531690579705">
        <ele>0</ele>
        <time>2020-08-02T13:21:07Z</time>
      </trkpt>
      <trkpt lat="51.131363861497" lon="4.531682700719">
        <ele>0</ele>
        <time>2020-08-02T13:21:09Z</time>
      </trkpt>
      <trkpt lat="51.131444663013" lon="4.53177397961">
        <ele>0</ele>
        <time>2020-08-02T13:21:11Z</time>
      </trkpt>
      <trkpt lat="51.131907762988" lon="4.532265578045">
        <ele>0</ele>
        <time>2020-08-02T13:21:21Z</time>
      </trkpt>
      <trkpt lat="51.132017649697" lon="4.532293741229">
        <ele>0</ele>
        <time>2020-08-02T13:21:23Z</time>
      </trkpt>
      <trkpt lat="51.132120076515" lon="4.532231044617">
        <ele>0</ele>
        <time>2020-08-02T13:21:25Z</time>
      </trkpt>
      <trkpt lat="51.132665905843" lon="4.53185528404">
        <ele>0</ele>
        <time>2020-08-02T13:21:35Z</time>
      </trkpt>
      <trkpt lat="51.133217602501" lon="4.531614639691">
        <ele>0</ele>
        <time>2020-08-02T13:21:46Z</time>
      </trkpt>
      <trkpt lat="51.133689252014" lon="4.531132931898">
        <ele>0</ele>
        <time>2020-08-02T13:21:56Z</time>
      </trkpt>
      <trkpt lat="51.134181269544" lon="4.530754572932">
        <ele>0</ele>
        <time>2020-08-02T13:22:05Z</time>
      </trkpt>
      <trkpt lat="51.134643279872" lon="4.530274290062">
        <ele>0</ele>
        <time>2020-08-02T13:22:14Z</time>
      </trkpt>
      <trkpt lat="51.135116019032" lon="4.529827199516">
        <ele>0</ele>
        <time>2020-08-02T13:22:23Z</time>
      </trkpt>
      <trkpt lat="51.135565037415" lon="4.52932143567">
        <ele>0</ele>
        <time>2020-08-02T13:22:32Z</time>
      </trkpt>
      <trkpt lat="51.135991592306" lon="4.528854982935">
        <ele>0</ele>
        <time>2020-08-02T13:22:41Z</time>
      </trkpt>
      <trkpt lat="51.136531302847" lon="4.528732271919">
        <ele>0</ele>
        <time>2020-08-02T13:22:51Z</time>
      </trkpt>
      <trkpt lat="51.136644877592" lon="4.528719112336">
        <ele>0</ele>
        <time>2020-08-02T13:22:53Z</time>
      </trkpt>
      <trkpt lat="51.137170757998" lon="4.52837679554">
        <ele>0</ele>
        <time>2020-08-02T13:23:03Z</time>
      </trkpt>
      <trkpt lat="51.137299420163" lon="4.528235476706">
        <ele>0</ele>
        <time>2020-08-02T13:23:05Z</time>
      </trkpt>
      <trkpt lat="51.137335294695" lon="4.528174540293">
        <ele>0</ele>
        <time>2020-08-02T13:23:07Z</time>
      </trkpt>
      <trkpt lat="51.137386759561" lon="4.528023582274">
        <ele>0</ele>
        <time>2020-08-02T13:23:09Z</time>
      </trkpt>
      <trkpt lat="51.137401511705" lon="4.527848149107">
        <ele>0</ele>
        <time>2020-08-02T13:23:11Z</time>
      </trkpt>
      <trkpt lat="51.137412408175" lon="4.527656957968">
        <ele>0</ele>
        <time>2020-08-02T13:23:13Z</time>
      </trkpt>
      <trkpt lat="51.137454988227" lon="4.527475992747">
        <ele>0</ele>
        <time>2020-08-02T13:23:15Z</time>
      </trkpt>
      <trkpt lat="51.137536544114" lon="4.527348001134">
        <ele>0</ele>
        <time>2020-08-02T13:23:17Z</time>
      </trkpt>
      <trkpt lat="51.138033590784" lon="4.526989255814">
        <ele>0</ele>
        <time>2020-08-02T13:23:27Z</time>
      </trkpt>
      <trkpt lat="51.138539773725" lon="4.526659428049">
        <ele>0</ele>
        <time>2020-08-02T13:23:37Z</time>
      </trkpt>
      <trkpt lat="51.13905232691" lon="4.526337060175">
        <ele>0</ele>
        <time>2020-08-02T13:23:47Z</time>
      </trkpt>
      <trkpt lat="51.139603688292" lon="4.525994491922">
        <ele>0</ele>
        <time>2020-08-02T13:23:58Z</time>
      </trkpt>
      <trkpt lat="51.140118169314" lon="4.525637339163">
        <ele>0</ele>
        <time>2020-08-02T13:24:09Z</time>
      </trkpt>
      <trkpt lat="51.140601637306" lon="4.525141046864">
        <ele>0</ele>
        <time>2020-08-02T13:24:20Z</time>
      </trkpt>
      <trkpt lat="51.141067251851" lon="4.52466948117">
        <ele>0</ele>
        <time>2020-08-02T13:24:30Z</time>
      </trkpt>
      <trkpt lat="51.14158198433" lon="4.524199172761">
        <ele>0</ele>
        <time>2020-08-02T13:24:40Z</time>
      </trkpt>
      <trkpt lat="51.141920948366" lon="4.523503726518">
        <ele>0</ele>
        <time>2020-08-02T13:24:50Z</time>
      </trkpt>
      <trkpt lat="51.142257900746" lon="4.52276930444">
        <ele>0</ele>
        <time>2020-08-02T13:25:02Z</time>
      </trkpt>
      <trkpt lat="51.142616729885" lon="4.522055585655">
        <ele>0</ele>
        <time>2020-08-02T13:25:14Z</time>
      </trkpt>
      <trkpt lat="51.142935409723" lon="4.52159416206">
        <ele>0</ele>
        <time>2020-08-02T13:25:22Z</time>
      </trkpt>
      <trkpt lat="51.143488279847" lon="4.521343627069">
        <ele>0</ele>
        <time>2020-08-02T13:25:32Z</time>
      </trkpt>
      <trkpt lat="51.144031846062" lon="4.521311189116">
        <ele>0</ele>
        <time>2020-08-02T13:25:42Z</time>
      </trkpt>
      <trkpt lat="51.144589745326" lon="4.521388218777">
        <ele>0</ele>
        <time>2020-08-02T13:25:52Z</time>
      </trkpt>
      <trkpt lat="51.145160804173" lon="4.521459297289">
        <ele>0</ele>
        <time>2020-08-02T13:26:02Z</time>
      </trkpt>
      <trkpt lat="51.145747537173" lon="4.521503218445">
        <ele>0</ele>
        <time>2020-08-02T13:26:13Z</time>
      </trkpt>
      <trkpt lat="51.146328402843" lon="4.521462230954">
        <ele>0</ele>
        <time>2020-08-02T13:26:24Z</time>
      </trkpt>
      <trkpt lat="51.146906586305" lon="4.521544457393">
        <ele>0</ele>
        <time>2020-08-02T13:26:35Z</time>
      </trkpt>
      <trkpt lat="51.147389048469" lon="4.52166792278">
        <ele>0</ele>
        <time>2020-08-02T13:26:44Z</time>
      </trkpt>
      <trkpt lat="51.148105030367" lon="4.521748053744">
        <ele>3</ele>
        <time>2020-08-02T13:32:03Z</time>
      </trkpt>
      <trkpt lat="51.14858506178" lon="4.52136198343">
        <ele>3.8</ele>
        <time>2020-08-02T13:32:16Z</time>
      </trkpt>
      <trkpt lat="51.149143966872" lon="4.521219155854">
        <ele>3.4</ele>
        <time>2020-08-02T13:32:26Z</time>
      </trkpt>
      <trkpt lat="51.149691137304" lon="4.521174899422">
        <ele>3.6</ele>
        <time>2020-08-02T13:32:38Z</time>
      </trkpt>
      <trkpt lat="51.150124481534" lon="4.521151765378">
        <ele>3.4</ele>
        <time>2020-08-02T13:32:49Z</time>
      </trkpt>
      <trkpt lat="51.150717668597" lon="4.521134247207">
        <ele>2</ele>
        <time>2020-08-02T13:32:59Z</time>
      </trkpt>
      <trkpt lat="51.151312029126" lon="4.521092002431">
        <ele>2.2</ele>
        <time>2020-08-02T13:33:09Z</time>
      </trkpt>
      <trkpt lat="51.151890380226" lon="4.52103257476">
        <ele>1.6</ele>
        <time>2020-08-02T13:33:19Z</time>
      </trkpt>
      <trkpt lat="51.152484154022" lon="4.520975829297">
        <ele>1.6</ele>
        <time>2020-08-02T13:33:29Z</time>
      </trkpt>
      <trkpt lat="51.152991929524" lon="4.520913384142">
        <ele>1.4</ele>
        <time>2020-08-02T13:33:39Z</time>
      </trkpt>
      <trkpt lat="51.153097122369" lon="4.520929225933">
        <ele>0.8</ele>
        <time>2020-08-02T13:33:41Z</time>
      </trkpt>
      <trkpt lat="51.153201644662" lon="4.52093869748">
        <ele>0.4</ele>
        <time>2020-08-02T13:33:43Z</time>
      </trkpt>
      <trkpt lat="51.153302814195" lon="4.520886981157">
        <ele>0.2</ele>
        <time>2020-08-02T13:33:45Z</time>
      </trkpt>
      <trkpt lat="51.153400128054" lon="4.520826296201">
        <ele>0.2</ele>
        <time>2020-08-02T13:33:47Z</time>
      </trkpt>
      <trkpt lat="51.153502219596" lon="4.520875162678">
        <ele>0</ele>
        <time>2020-08-02T13:33:49Z</time>
      </trkpt>
      <trkpt lat="51.153649321941" lon="4.521777558032">
        <ele>0</ele>
        <time>2020-08-02T13:33:59Z</time>
      </trkpt>
      <trkpt lat="51.153662397705" lon="4.522051478524">
        <ele>0.2</ele>
        <time>2020-08-02T13:34:01Z</time>
      </trkpt>
      <trkpt lat="51.153637587281" lon="4.5221356328">
        <ele>0.4</ele>
        <time>2020-08-02T13:34:03Z</time>
      </trkpt>
      <trkpt lat="51.153458466078" lon="4.522501754192">
        <ele>0.8</ele>
        <time>2020-08-02T13:34:08Z</time>
      </trkpt>
      <trkpt lat="51.153436002586" lon="4.522668134907">
        <ele>0.8</ele>
        <time>2020-08-02T13:34:10Z</time>
      </trkpt>
      <trkpt lat="51.153458633716" lon="4.522839460943">
        <ele>0.8</ele>
        <time>2020-08-02T13:34:12Z</time>
      </trkpt>
      <trkpt lat="51.15364856757" lon="4.523669352862">
        <ele>0.6</ele>
        <time>2020-08-02T13:34:23Z</time>
      </trkpt>
      <trkpt lat="51.153391327059" lon="4.524381982">
        <ele>2.4</ele>
        <time>2020-08-02T13:34:40Z</time>
      </trkpt>
      <trkpt lat="51.153388561032" lon="4.524281063924">
        <ele>1.4</ele>
        <time>2020-08-02T13:34:44Z</time>
      </trkpt>
      <trkpt lat="51.153492999506" lon="4.524190958499">
        <ele>1.8</ele>
        <time>2020-08-02T13:34:50Z</time>
      </trkpt>
      <trkpt lat="51.153595342505" lon="4.52433839612">
        <ele>2.6</ele>
        <time>2020-08-02T13:34:56Z</time>
      </trkpt>
      <trkpt lat="51.154129940087" lon="4.524212332344">
        <ele>3.8</ele>
        <time>2020-08-02T13:35:10Z</time>
      </trkpt>
      <trkpt lat="51.15469211412" lon="4.524158688184">
        <ele>4</ele>
        <time>2020-08-02T13:35:20Z</time>
      </trkpt>
      <trkpt lat="51.155270549039" lon="4.524114515571">
        <ele>4.4</ele>
        <time>2020-08-02T13:35:30Z</time>
      </trkpt>
      <trkpt lat="51.155651674032" lon="4.524087861129">
        <ele>4.2</ele>
        <time>2020-08-02T13:35:37Z</time>
      </trkpt>
      <trkpt lat="51.155755609592" lon="4.524070426777">
        <ele>4</ele>
        <time>2020-08-02T13:35:39Z</time>
      </trkpt>
      <trkpt lat="51.156294398124" lon="4.524006221423">
        <ele>3.8</ele>
        <time>2020-08-02T13:35:50Z</time>
      </trkpt>
      <trkpt lat="51.156599164008" lon="4.523972610004">
        <ele>4.2</ele>
        <time>2020-08-02T13:35:57Z</time>
      </trkpt>
      <trkpt lat="51.157172485968" lon="4.523896083257">
        <ele>4.4</ele>
        <time>2020-08-02T13:36:10Z</time>
      </trkpt>
      <trkpt lat="51.157764331927" lon="4.523808492402">
        <ele>4.4</ele>
        <time>2020-08-02T13:36:21Z</time>
      </trkpt>
      <trkpt lat="51.158182924013" lon="4.523802373615">
        <ele>3</ele>
        <time>2020-08-02T13:36:28Z</time>
      </trkpt>
      <trkpt lat="51.158704948745" lon="4.524090375699">
        <ele>2.6</ele>
        <time>2020-08-02T13:36:37Z</time>
      </trkpt>
      <trkpt lat="51.159256645403" lon="4.524258600432">
        <ele>2.6</ele>
        <time>2020-08-02T13:36:47Z</time>
      </trkpt>
      <trkpt lat="51.159794595745" lon="4.5243400725">
        <ele>3.6</ele>
        <time>2020-08-02T13:36:57Z</time>
      </trkpt>
      <trkpt lat="51.159846060611" lon="4.524345604554">
        <ele>3.8</ele>
        <time>2020-08-02T13:36:58Z</time>
      </trkpt>
      <trkpt lat="51.160202291361" lon="4.524470746321">
        <ele>3.6</ele>
        <time>2020-08-02T13:37:08Z</time>
      </trkpt>
      <trkpt lat="51.160204554474" lon="4.524844411423">
        <ele>3.4</ele>
        <time>2020-08-02T13:37:15Z</time>
      </trkpt>
      <trkpt lat="51.160231376554" lon="4.525055802941">
        <ele>4.4</ele>
        <time>2020-08-02T13:37:18Z</time>
      </trkpt>
      <trkpt lat="51.16023171183" lon="4.525478585977">
        <ele>5.4</ele>
        <time>2020-08-02T13:37:25Z</time>
      </trkpt>
      <trkpt lat="51.160814756794" lon="4.525757954704">
        <ele>5.4</ele>
        <time>2020-08-02T13:37:38Z</time>
      </trkpt>
      <trkpt lat="51.161401657432" lon="4.525938919925">
        <ele>6.6</ele>
        <time>2020-08-02T13:37:48Z</time>
      </trkpt>
      <trkpt lat="51.161976907229" lon="4.526046208245">
        <ele>7</ele>
        <time>2020-08-02T13:37:58Z</time>
      </trkpt>
      <trkpt lat="51.162537656339" lon="4.526025588771">
        <ele>7</ele>
        <time>2020-08-02T13:38:08Z</time>
      </trkpt>
      <trkpt lat="51.163109301919" lon="4.526066492443">
        <ele>6.6</ele>
        <time>2020-08-02T13:38:18Z</time>
      </trkpt>
      <trkpt lat="51.163664518975" lon="4.526188532907">
        <ele>5.2</ele>
        <time>2020-08-02T13:38:28Z</time>
      </trkpt>
      <trkpt lat="51.164130049701" lon="4.526370084861">
        <ele>4.8</ele>
        <time>2020-08-02T13:38:36Z</time>
      </trkpt>
      <trkpt lat="51.164593317314" lon="4.52692840322">
        <ele>5</ele>
        <time>2020-08-02T13:38:45Z</time>
      </trkpt>
      <trkpt lat="51.164983746216" lon="4.52757213314">
        <ele>6.2</ele>
        <time>2020-08-02T13:38:54Z</time>
      </trkpt>
      <trkpt lat="51.16529102667" lon="4.528354080591">
        <ele>6</ele>
        <time>2020-08-02T13:39:03Z</time>
      </trkpt>
      <trkpt lat="51.165558744556" lon="4.529016418329">
        <ele>5.2</ele>
        <time>2020-08-02T13:39:11Z</time>
      </trkpt>
      <trkpt lat="51.165645664859" lon="4.529122365545">
        <ele>5</ele>
        <time>2020-08-02T13:39:13Z</time>
      </trkpt>
      <trkpt lat="51.166197026241" lon="4.529263265284">
        <ele>3.6</ele>
        <time>2020-08-02T13:39:22Z</time>
      </trkpt>
      <trkpt lat="51.16643096507" lon="4.529437608804">
        <ele>3.4</ele>
        <time>2020-08-02T13:39:26Z</time>
      </trkpt>
      <trkpt lat="51.166534313897" lon="4.529551686463">
        <ele>3.4</ele>
        <time>2020-08-02T13:39:28Z</time>
      </trkpt>
      <trkpt lat="51.166805468362" lon="4.529791241165">
        <ele>3.4</ele>
        <time>2020-08-02T13:39:33Z</time>
      </trkpt>
      <trkpt lat="51.166927844102" lon="4.529834910864">
        <ele>3.2</ele>
        <time>2020-08-02T13:39:35Z</time>
      </trkpt>
      <trkpt lat="51.167511308161" lon="4.52988469935">
        <ele>2.8</ele>
        <time>2020-08-02T13:39:44Z</time>
      </trkpt>
      <trkpt lat="51.168075242393" lon="4.529916718208">
        <ele>2.4</ele>
        <time>2020-08-02T13:39:53Z</time>
      </trkpt>
      <trkpt lat="51.16849291247" lon="4.529928955782">
        <ele>2.2</ele>
        <time>2020-08-02T13:40:00Z</time>
      </trkpt>
      <trkpt lat="51.168666333981" lon="4.529839856185">
        <ele>2.4</ele>
        <time>2020-08-02T13:40:02Z</time>
      </trkpt>
      <trkpt lat="51.168721067788" lon="4.529794091011">
        <ele>2.4</ele>
        <time>2020-08-02T13:40:04Z</time>
      </trkpt>
      <trkpt lat="51.169168996524" lon="4.529272150098">
        <ele>2.2</ele>
        <time>2020-08-02T13:40:13Z</time>
      </trkpt>
      <trkpt lat="51.169667887212" lon="4.528824221362">
        <ele>1.6</ele>
        <time>2020-08-02T13:40:23Z</time>
      </trkpt>
      <trkpt lat="51.170196449826" lon="4.528534878174">
        <ele>1.8</ele>
        <time>2020-08-02T13:40:33Z</time>
      </trkpt>
      <trkpt lat="51.170669105167" lon="4.52828291826">
        <ele>1.6</ele>
        <time>2020-08-02T13:40:42Z</time>
      </trkpt>
      <trkpt lat="51.171252569226" lon="4.528207900255">
        <ele>1.4</ele>
        <time>2020-08-02T13:40:53Z</time>
      </trkpt>
      <trkpt lat="51.171806445178" lon="4.528176887225">
        <ele>1.8</ele>
        <time>2020-08-02T13:41:03Z</time>
      </trkpt>
      <trkpt lat="51.172362500424" lon="4.52812114759">
        <ele>0.6</ele>
        <time>2020-08-02T13:41:14Z</time>
      </trkpt>
      <trkpt lat="51.172903719707" lon="4.527753349818">
        <ele>1.2</ele>
        <time>2020-08-02T13:41:25Z</time>
      </trkpt>
      <trkpt lat="51.173267326529" lon="4.52753273821">
        <ele>1.8</ele>
        <time>2020-08-02T13:41:33Z</time>
      </trkpt>
      <trkpt lat="51.173306302364" lon="4.527540784834">
        <ele>2</ele>
        <time>2020-08-02T13:41:35Z</time>
      </trkpt>
      <trkpt lat="51.17338878026" lon="4.527563248326">
        <ele>2</ele>
        <time>2020-08-02T13:41:37Z</time>
      </trkpt>
      <trkpt lat="51.17348014297" lon="4.527544724327">
        <ele>1.8</ele>
        <time>2020-08-02T13:41:39Z</time>
      </trkpt>
      <trkpt lat="51.174005017548" lon="4.527316569009">
        <ele>1.6</ele>
        <time>2020-08-02T13:41:49Z</time>
      </trkpt>
      <trkpt lat="51.174219845645" lon="4.527185056998">
        <ele>1.4</ele>
        <time>2020-08-02T13:41:53Z</time>
      </trkpt>
      <trkpt lat="51.174744468766" lon="4.526817678321">
        <ele>2.8</ele>
        <time>2020-08-02T13:42:02Z</time>
      </trkpt>
      <trkpt lat="51.17495619556" lon="4.526667558492">
        <ele>2.6</ele>
        <time>2020-08-02T13:42:07Z</time>
      </trkpt>
      <trkpt lat="51.175017970163" lon="4.526532526083">
        <ele>2.2</ele>
        <time>2020-08-02T13:42:09Z</time>
      </trkpt>
      <trkpt lat="51.175041858578" lon="4.526377460933">
        <ele>1.4</ele>
        <time>2020-08-02T13:42:11Z</time>
      </trkpt>
      <trkpt lat="51.175562626025" lon="4.525991222981">
        <ele>0</ele>
        <time>2020-08-02T13:42:22Z</time>
      </trkpt>
      <trkpt lat="51.175925729933" lon="4.525729623882">
        <ele>0.6</ele>
        <time>2020-08-02T13:42:32Z</time>
      </trkpt>
      <trkpt lat="51.175936961679" lon="4.52565100166">
        <ele>1.4</ele>
        <time>2020-08-02T13:42:35Z</time>
      </trkpt>
      <trkpt lat="51.175897231473" lon="4.525402981239">
        <ele>1.6</ele>
        <time>2020-08-02T13:42:39Z</time>
      </trkpt>
      <trkpt lat="51.175676284589" lon="4.524615166458">
        <ele>0</ele>
        <time>2020-08-02T13:42:49Z</time>
      </trkpt>
      <trkpt lat="51.175610319036" lon="4.524473679986">
        <ele>0</ele>
        <time>2020-08-02T13:42:51Z</time>
      </trkpt>
      <trkpt lat="51.175530020434" lon="4.524352896807">
        <ele>0.2</ele>
        <time>2020-08-02T13:42:53Z</time>
      </trkpt>
      <trkpt lat="51.17556639788" lon="4.523989038528">
        <ele>1.4</ele>
        <time>2020-08-02T13:42:58Z</time>
      </trkpt>
      <trkpt lat="51.175515100652" lon="4.523053199393">
        <ele>3</ele>
        <time>2020-08-02T13:43:09Z</time>
      </trkpt>
      <trkpt lat="51.175515184471" lon="4.522643073026">
        <ele>2.2</ele>
        <time>2020-08-02T13:43:14Z</time>
      </trkpt>
      <trkpt lat="51.175614929081" lon="4.522252057391">
        <ele>2.6</ele>
        <time>2020-08-02T13:43:19Z</time>
      </trkpt>
      <trkpt lat="51.175937296955" lon="4.521495590916">
        <ele>1</ele>
        <time>2020-08-02T13:43:30Z</time>
      </trkpt>
      <trkpt lat="51.176056319935" lon="4.521160231097">
        <ele>0.8</ele>
        <time>2020-08-02T13:43:35Z</time>
      </trkpt>
      <trkpt lat="51.176088003517" lon="4.521086051282">
        <ele>2.8</ele>
        <time>2020-08-02T13:43:38Z</time>
      </trkpt>
      <trkpt lat="51.176417663644" lon="4.521851737847">
        <ele>4.2</ele>
        <time>2020-08-02T13:43:53Z</time>
      </trkpt>
      <trkpt lat="51.176773810575" lon="4.522522625123">
        <ele>5.8</ele>
        <time>2020-08-02T13:44:02Z</time>
      </trkpt>
      <trkpt lat="51.17685301953" lon="4.522662183758">
        <ele>5.2</ele>
        <time>2020-08-02T13:44:03Z</time>
      </trkpt>
      <trkpt lat="51.177246298278" lon="4.523298034692">
        <ele>5.2</ele>
        <time>2020-08-02T13:44:14Z</time>
      </trkpt>
      <trkpt lat="51.177719456533" lon="4.523828106048">
        <ele>4.8</ele>
        <time>2020-08-02T13:44:24Z</time>
      </trkpt>
      <trkpt lat="51.178029083919" lon="4.524185929359">
        <ele>6.4</ele>
        <time>2020-08-02T13:44:31Z</time>
      </trkpt>
      <trkpt lat="51.178094211282" lon="4.524189785033">
        <ele>5.2</ele>
        <time>2020-08-02T13:44:33Z</time>
      </trkpt>
      <trkpt lat="51.178162607586" lon="4.524084676007">
        <ele>4.4</ele>
        <time>2020-08-02T13:44:35Z</time>
      </trkpt>
      <trkpt lat="51.178254724667" lon="4.523871440471">
        <ele>5</ele>
        <time>2020-08-02T13:44:38Z</time>
      </trkpt>
      <trkpt lat="51.178329239758" lon="4.523766163807">
        <ele>4.4</ele>
        <time>2020-08-02T13:44:40Z</time>
      </trkpt>
      <trkpt lat="51.178436444259" lon="4.523726768877">
        <ele>4.4</ele>
        <time>2020-08-02T13:44:42Z</time>
      </trkpt>
      <trkpt lat="51.178980261931" lon="4.523661809152">
        <ele>4</ele>
        <time>2020-08-02T13:44:51Z</time>
      </trkpt>
      <trkpt lat="51.179547213647" lon="4.523607997354">
        <ele>2.6</ele>
        <time>2020-08-02T13:45:00Z</time>
      </trkpt>
      <trkpt lat="51.180102095427" lon="4.523545384561">
        <ele>2</ele>
        <time>2020-08-02T13:45:09Z</time>
      </trkpt>
      <trkpt lat="51.180661335795" lon="4.523448741254">
        <ele>1.8</ele>
        <time>2020-08-02T13:45:18Z</time>
      </trkpt>
      <trkpt lat="51.181250331908" lon="4.523350002472">
        <ele>1.6</ele>
        <time>2020-08-02T13:45:28Z</time>
      </trkpt>
      <trkpt lat="51.181827425723" lon="4.523219663927">
        <ele>1.8</ele>
        <time>2020-08-02T13:45:37Z</time>
      </trkpt>
      <trkpt lat="51.18237836801" lon="4.522986814745">
        <ele>1.2</ele>
        <time>2020-08-02T13:45:46Z</time>
      </trkpt>
      <trkpt lat="51.182921850406" lon="4.522728903682">
        <ele>2.2</ele>
        <time>2020-08-02T13:45:55Z</time>
      </trkpt>
      <trkpt lat="51.183445970613" lon="4.522516590155">
        <ele>2.6</ele>
        <time>2020-08-02T13:46:04Z</time>
      </trkpt>
      <trkpt lat="51.183551331096" lon="4.522413492785">
        <ele>2.2</ele>
        <time>2020-08-02T13:46:06Z</time>
      </trkpt>
      <trkpt lat="51.18364068215" lon="4.522269659381">
        <ele>1.2</ele>
        <time>2020-08-02T13:46:08Z</time>
      </trkpt>
      <trkpt lat="51.183994985063" lon="4.521495842373">
        <ele>0</ele>
        <time>2020-08-02T13:46:17Z</time>
      </trkpt>
      <trkpt lat="51.184349204157" lon="4.520850436073">
        <ele>0</ele>
        <time>2020-08-02T13:46:37Z</time>
      </trkpt>
      <trkpt lat="51.184369236898" lon="4.520825709468">
        <ele>0.8</ele>
        <time>2020-08-02T13:46:38Z</time>
      </trkpt>
      <trkpt lat="51.184742482905" lon="4.520570229156">
        <ele>0.8</ele>
        <time>2020-08-02T13:46:46Z</time>
      </trkpt>
      <trkpt lat="51.185122769708" lon="4.520229924016">
        <ele>0.8</ele>
        <time>2020-08-02T13:46:53Z</time>
      </trkpt>
      <trkpt lat="51.185448490342" lon="4.519533220488">
        <ele>0</ele>
        <time>2020-08-02T13:47:03Z</time>
      </trkpt>
      <trkpt lat="51.185523424528" lon="4.519390309093">
        <ele>0</ele>
        <time>2020-08-02T13:47:04Z</time>
      </trkpt>
      <trkpt lat="51.185941932795" lon="4.518731240296">
        <ele>0.6</ele>
        <time>2020-08-02T13:47:15Z</time>
      </trkpt>
      <trkpt lat="51.186386508771" lon="4.51823637292">
        <ele>0.2</ele>
        <time>2020-08-02T13:47:25Z</time>
      </trkpt>
      <trkpt lat="51.186601253049" lon="4.518038308623">
        <ele>0.4</ele>
        <time>2020-08-02T13:47:29Z</time>
      </trkpt>
      <trkpt lat="51.186965362785" lon="4.51735711161">
        <ele>0</ele>
        <time>2020-08-02T13:47:37Z</time>
      </trkpt>
      <trkpt lat="51.1872071806" lon="4.516481035422">
        <ele>0.4</ele>
        <time>2020-08-02T13:47:46Z</time>
      </trkpt>
      <trkpt lat="51.187269290479" lon="4.516313984155">
        <ele>0.8</ele>
        <time>2020-08-02T13:47:47Z</time>
      </trkpt>
      <trkpt lat="51.187311535255" lon="4.516255478493">
        <ele>1.4</ele>
        <time>2020-08-02T13:47:49Z</time>
      </trkpt>
      <trkpt lat="51.187424690905" lon="4.516229829879">
        <ele>2.8</ele>
        <time>2020-08-02T13:47:51Z</time>
      </trkpt>
      <trkpt lat="51.187984685644" lon="4.516371819265">
        <ele>3</ele>
        <time>2020-08-02T13:48:00Z</time>
      </trkpt>
      <trkpt lat="51.188529676782" lon="4.516583629878">
        <ele>3</ele>
        <time>2020-08-02T13:48:10Z</time>
      </trkpt>
      <trkpt lat="51.189077350128" lon="4.516856125447">
        <ele>2.4</ele>
        <time>2020-08-02T13:48:20Z</time>
      </trkpt>
      <trkpt lat="51.18960775676" lon="4.517158963494">
        <ele>1.6</ele>
        <time>2020-08-02T13:48:30Z</time>
      </trkpt>
      <trkpt lat="51.190169008784" lon="4.517420143498">
        <ele>1</ele>
        <time>2020-08-02T13:48:40Z</time>
      </trkpt>
      <trkpt lat="51.19071165299" lon="4.517580237788">
        <ele>0.4</ele>
        <time>2020-08-02T13:48:49Z</time>
      </trkpt>
      <trkpt lat="51.191108871231" lon="4.517698757854">
        <ele>0.2</ele>
        <time>2020-08-02T13:48:56Z</time>
      </trkpt>
      <trkpt lat="51.191372062891" lon="4.517761286828">
        <ele>0.2</ele>
        <time>2020-08-02T13:49:01Z</time>
      </trkpt>
      <trkpt lat="51.19147189132" lon="4.517726166667">
        <ele>0.2</ele>
        <time>2020-08-02T13:49:03Z</time>
      </trkpt>
      <trkpt lat="51.191562834935" lon="4.517641509477">
        <ele>0.2</ele>
        <time>2020-08-02T13:49:05Z</time>
      </trkpt>
      <trkpt lat="51.191957454787" lon="4.517041365437">
        <ele>0</ele>
        <time>2020-08-02T13:49:15Z</time>
      </trkpt>
      <trkpt lat="51.192033394801" lon="4.516799212346">
        <ele>0</ele>
        <time>2020-08-02T13:49:18Z</time>
      </trkpt>
      <trkpt lat="51.192186280657" lon="4.515923890529">
        <ele>0</ele>
        <time>2020-08-02T13:49:27Z</time>
      </trkpt>
      <trkpt lat="51.192208241235" lon="4.515833785104">
        <ele>0</ele>
        <time>2020-08-02T13:49:28Z</time>
      </trkpt>
      <trkpt lat="51.192555419533" lon="4.515089220927">
        <ele>0</ele>
        <time>2020-08-02T13:49:38Z</time>
      </trkpt>
      <trkpt lat="51.192975017447" lon="4.514417998375">
        <ele>1</ele>
        <time>2020-08-02T13:49:49Z</time>
      </trkpt>
      <trkpt lat="51.193350358929" lon="4.513741495226">
        <ele>1.6</ele>
        <time>2020-08-02T13:49:59Z</time>
      </trkpt>
      <trkpt lat="51.193386820194" lon="4.51369003036">
        <ele>2</ele>
        <time>2020-08-02T13:50:00Z</time>
      </trkpt>
      <trkpt lat="51.193551189253" lon="4.51369757407">
        <ele>2.4</ele>
        <time>2020-08-02T13:50:02Z</time>
      </trkpt>
      <trkpt lat="51.194091151251" lon="4.514001669402">
        <ele>0.4</ele>
        <time>2020-08-02T13:50:12Z</time>
      </trkpt>
      <trkpt lat="51.194582246772" lon="4.514465942843">
        <ele>0.6</ele>
        <time>2020-08-02T13:50:21Z</time>
      </trkpt>
      <trkpt lat="51.195071833551" lon="4.514961061676">
        <ele>1.8</ele>
        <time>2020-08-02T13:50:32Z</time>
      </trkpt>
      <trkpt lat="51.195187503771" lon="4.514988302851">
        <ele>0.8</ele>
        <time>2020-08-02T13:50:36Z</time>
      </trkpt>
      <trkpt lat="51.195197226775" lon="4.514938262908">
        <ele>0</ele>
        <time>2020-08-02T13:50:38Z</time>
      </trkpt>
      <trkpt lat="51.195175098559" lon="4.514898784159">
        <ele>0</ele>
        <time>2020-08-02T13:50:40Z</time>
      </trkpt>
      <trkpt lat="51.195120867666" lon="4.51486349636">
        <ele>0</ele>
        <time>2020-08-02T13:50:43Z</time>
      </trkpt>
      <trkpt lat="51.195014501355" lon="4.5148601436">
        <ele>0.2</ele>
        <time>2020-08-02T13:50:48Z</time>
      </trkpt>
      <trkpt lat="51.194992456958" lon="4.514785963785">
        <ele>0</ele>
        <time>2020-08-02T13:50:50Z</time>
      </trkpt>
      <trkpt lat="51.195009975129" lon="4.51392807632">
        <ele>0</ele>
        <time>2020-08-02T13:51:04Z</time>
      </trkpt>
      <trkpt lat="51.195006119455" lon="4.513575868882">
        <ele>0.2</ele>
        <time>2020-08-02T13:51:09Z</time>
      </trkpt>
      <trkpt lat="51.195004526894" lon="4.512504410605">
        <ele>1</ele>
        <time>2020-08-02T13:51:22Z</time>
      </trkpt>
      <trkpt lat="51.195032438621" lon="4.511560776303">
        <ele>1</ele>
        <time>2020-08-02T13:51:32Z</time>
      </trkpt>
      <trkpt lat="51.195031013698" lon="4.51130202705">
        <ele>1</ele>
        <time>2020-08-02T13:51:35Z</time>
      </trkpt>
      <trkpt lat="51.195084154944" lon="4.51119473873">
        <ele>0.8</ele>
        <time>2020-08-02T13:51:37Z</time>
      </trkpt>
      <trkpt lat="51.195178116043" lon="4.511206641028">
        <ele>0.6</ele>
        <time>2020-08-02T13:51:39Z</time>
      </trkpt>
      <trkpt lat="51.195737859325" lon="4.51145793039">
        <ele>1</ele>
        <time>2020-08-02T13:51:49Z</time>
      </trkpt>
      <trkpt lat="51.195853529545" lon="4.511459942046">
        <ele>1</ele>
        <time>2020-08-02T13:51:51Z</time>
      </trkpt>
      <trkpt lat="51.196404723289" lon="4.5113145999">
        <ele>1.6</ele>
        <time>2020-08-02T13:52:03Z</time>
      </trkpt>
      <trkpt lat="51.196982320018" lon="4.511117038517">
        <ele>1.8</ele>
        <time>2020-08-02T13:52:18Z</time>
      </trkpt>
      <trkpt lat="51.19749931561" lon="4.510841693102">
        <ele>0</ele>
        <time>2020-08-02T13:52:27Z</time>
      </trkpt>
      <trkpt lat="51.198065848231" lon="4.510566682963">
        <ele>0</ele>
        <time>2020-08-02T13:52:36Z</time>
      </trkpt>
      <trkpt lat="51.198602038374" lon="4.510283374743">
        <ele>0</ele>
        <time>2020-08-02T13:52:45Z</time>
      </trkpt>
      <trkpt lat="51.199139401983" lon="4.510000234161">
        <ele>0</ele>
        <time>2020-08-02T13:52:54Z</time>
      </trkpt>
      <trkpt lat="51.199696882152" lon="4.509721955081">
        <ele>0</ele>
        <time>2020-08-02T13:53:04Z</time>
      </trkpt>
      <trkpt lat="51.199757734746" lon="4.509705694195">
        <ele>0</ele>
        <time>2020-08-02T13:53:05Z</time>
      </trkpt>
      <trkpt lat="51.19988396616" lon="4.509711896801">
        <ele>0</ele>
        <time>2020-08-02T13:53:07Z</time>
      </trkpt>
      <trkpt lat="51.200384030314" lon="4.510001659084">
        <ele>0</ele>
        <time>2020-08-02T13:53:16Z</time>
      </trkpt>
      <trkpt lat="51.200505316407" lon="4.509944662164">
        <ele>0</ele>
        <time>2020-08-02T13:53:19Z</time>
      </trkpt>
      <trkpt lat="51.20054948902" lon="4.509817005827">
        <ele>0</ele>
        <time>2020-08-02T13:53:21Z</time>
      </trkpt>
      <trkpt lat="51.200625848129" lon="4.509596729495">
        <ele>0</ele>
        <time>2020-08-02T13:53:24Z</time>
      </trkpt>
      <trkpt lat="51.200709834767" lon="4.509504780052">
        <ele>0</ele>
        <time>2020-08-02T13:53:26Z</time>
      </trkpt>
      <trkpt lat="51.200826007901" lon="4.509485836958">
        <ele>0</ele>
        <time>2020-08-02T13:53:28Z</time>
      </trkpt>
      <trkpt lat="51.201395809463" lon="4.509543085335">
        <ele>0</ele>
        <time>2020-08-02T13:53:37Z</time>
      </trkpt>
      <trkpt lat="51.20188975483" lon="4.5095711647">
        <ele>0</ele>
        <time>2020-08-02T13:53:46Z</time>
      </trkpt>
      <trkpt lat="51.201944656275" lon="4.509508719545">
        <ele>0</ele>
        <time>2020-08-02T13:53:48Z</time>
      </trkpt>
      <trkpt lat="51.201930993778" lon="4.50880673542">
        <ele>0</ele>
        <time>2020-08-02T13:53:58Z</time>
      </trkpt>
      <trkpt lat="51.201941471153" lon="4.50657212088">
        <ele>0</ele>
        <time>2020-08-02T13:54:33Z</time>
      </trkpt>
      <trkpt lat="51.201964102283" lon="4.506306079374">
        <ele>0</ele>
        <time>2020-08-02T13:54:37Z</time>
      </trkpt>
      <trkpt lat="51.202056303183" lon="4.506170544051">
        <ele>0</ele>
        <time>2020-08-02T13:54:40Z</time>
      </trkpt>
      <trkpt lat="51.202153030309" lon="4.506120587927">
        <ele>0</ele>
        <time>2020-08-02T13:54:42Z</time>
      </trkpt>
      <trkpt lat="51.202229305599" lon="4.506028470846">
        <ele>0</ele>
        <time>2020-08-02T13:54:44Z</time>
      </trkpt>
      <trkpt lat="51.202266688873" lon="4.50590324526">
        <ele>0</ele>
        <time>2020-08-02T13:54:46Z</time>
      </trkpt>
      <trkpt lat="51.202408845897" lon="4.505026247063">
        <ele>0</ele>
        <time>2020-08-02T13:54:56Z</time>
      </trkpt>
      <trkpt lat="51.202549913274" lon="4.50410029857">
        <ele>0</ele>
        <time>2020-08-02T13:55:06Z</time>
      </trkpt>
      <trkpt lat="51.20264915497" lon="4.50321181717">
        <ele>0</ele>
        <time>2020-08-02T13:55:16Z</time>
      </trkpt>
      <trkpt lat="51.202617052293" lon="4.502274553112">
        <ele>0</ele>
        <time>2020-08-02T13:55:26Z</time>
      </trkpt>
      <trkpt lat="51.202612693705" lon="4.501392525775">
        <ele>0</ele>
        <time>2020-08-02T13:55:36Z</time>
      </trkpt>
      <trkpt lat="51.202615711189" lon="4.500707221631">
        <ele>0</ele>
        <time>2020-08-02T13:55:44Z</time>
      </trkpt>
      <trkpt lat="51.202573969327" lon="4.499780351129">
        <ele>0</ele>
        <time>2020-08-02T13:55:54Z</time>
      </trkpt>
      <trkpt lat="51.202526863049" lon="4.498948363735">
        <ele>0</ele>
        <time>2020-08-02T13:56:04Z</time>
      </trkpt>
      <trkpt lat="51.202554355681" lon="4.498813666602">
        <ele>0</ele>
        <time>2020-08-02T13:56:06Z</time>
      </trkpt>
      <trkpt lat="51.202609592402" lon="4.49870403135">
        <ele>0</ele>
        <time>2020-08-02T13:56:08Z</time>
      </trkpt>
      <trkpt lat="51.202900192875" lon="4.498278649925">
        <ele>0</ele>
        <time>2020-08-02T13:56:15Z</time>
      </trkpt>
      <trkpt lat="51.203001362408" lon="4.498176642202">
        <ele>0</ele>
        <time>2020-08-02T13:56:17Z</time>
      </trkpt>
      <trkpt lat="51.203114937153" lon="4.49817680984">
        <ele>0</ele>
        <time>2020-08-02T13:56:19Z</time>
      </trkpt>
      <trkpt lat="51.203644840871" lon="4.498523233767">
        <ele>0</ele>
        <time>2020-08-02T13:56:28Z</time>
      </trkpt>
      <trkpt lat="51.204157980789" lon="4.49876438103">
        <ele>0</ele>
        <time>2020-08-02T13:56:37Z</time>
      </trkpt>
      <trkpt lat="51.204286642954" lon="4.498760692994">
        <ele>0</ele>
        <time>2020-08-02T13:56:39Z</time>
      </trkpt>
      <trkpt lat="51.204803554727" lon="4.4984316196">
        <ele>0.4</ele>
        <time>2020-08-02T13:56:48Z</time>
      </trkpt>
      <trkpt lat="51.205051658967" lon="4.498049572598">
        <ele>0.2</ele>
        <time>2020-08-02T13:56:54Z</time>
      </trkpt>
      <trkpt lat="51.205225080478" lon="4.497236444479">
        <ele>0</ele>
        <time>2020-08-02T13:57:03Z</time>
      </trkpt>
      <trkpt lat="51.205397831437" lon="4.496406049646">
        <ele>0</ele>
        <time>2020-08-02T13:57:12Z</time>
      </trkpt>
      <trkpt lat="51.205611150792" lon="4.495558388099">
        <ele>0</ele>
        <time>2020-08-02T13:57:22Z</time>
      </trkpt>
      <trkpt lat="51.205772167091" lon="4.494711564742">
        <ele>0</ele>
        <time>2020-08-02T13:57:31Z</time>
      </trkpt>
      <trkpt lat="51.205810472374" lon="4.494350807766">
        <ele>0</ele>
        <time>2020-08-02T13:57:35Z</time>
      </trkpt>
      <trkpt lat="51.205717852379" lon="4.493706826389">
        <ele>0</ele>
        <time>2020-08-02T13:57:42Z</time>
      </trkpt>
      <trkpt lat="51.205719361121" lon="4.492767047761">
        <ele>0</ele>
        <time>2020-08-02T13:57:52Z</time>
      </trkpt>
      <trkpt lat="51.205722043329" lon="4.492590189671">
        <ele>0</ele>
        <time>2020-08-02T13:57:54Z</time>
      </trkpt>
      <trkpt lat="51.205782895923" lon="4.49196330737">
        <ele>0</ele>
        <time>2020-08-02T13:58:01Z</time>
      </trkpt>
      <trkpt lat="51.205936452331" lon="4.491088991381">
        <ele>0</ele>
        <time>2020-08-02T13:58:11Z</time>
      </trkpt>
      <trkpt lat="51.205995796183" lon="4.490677859186">
        <ele>0</ele>
        <time>2020-08-02T13:58:16Z</time>
      </trkpt>
      <trkpt lat="51.206123033425" lon="4.489941844547">
        <ele>0</ele>
        <time>2020-08-02T13:58:25Z</time>
      </trkpt>
      <trkpt lat="51.2060496918" lon="4.4897563531">
        <ele>0</ele>
        <time>2020-08-02T13:58:28Z</time>
      </trkpt>
      <trkpt lat="51.205527247973" lon="4.489340946136">
        <ele>0</ele>
        <time>2020-08-02T13:58:38Z</time>
      </trkpt>
      <trkpt lat="51.205029027837" lon="4.488940710411">
        <ele>0</ele>
        <time>2020-08-02T13:58:47Z</time>
      </trkpt>
      <trkpt lat="51.204851499195" lon="4.488806851468">
        <ele>0</ele>
        <time>2020-08-02T13:58:50Z</time>
      </trkpt>
      <trkpt lat="51.204503398888" lon="4.488488339268">
        <ele>0</ele>
        <time>2020-08-02T13:58:57Z</time>
      </trkpt>
      <trkpt lat="51.204431230729" lon="4.488354983239">
        <ele>0</ele>
        <time>2020-08-02T13:59:01Z</time>
      </trkpt>
      <trkpt lat="51.204773798982" lon="4.487662973575">
        <ele>0</ele>
        <time>2020-08-02T13:59:16Z</time>
      </trkpt>
      <trkpt lat="51.204796681569" lon="4.487649562535">
        <ele>0</ele>
        <time>2020-08-02T13:59:17Z</time>
      </trkpt>
      <trkpt lat="51.205288699099" lon="4.488057258151">
        <ele>0</ele>
        <time>2020-08-02T13:59:30Z</time>
      </trkpt>
      <trkpt lat="51.205784739941" lon="4.488511305674">
        <ele>0</ele>
        <time>2020-08-02T13:59:40Z</time>
      </trkpt>
      <trkpt lat="51.206211797746" lon="4.488924365706">
        <ele>0</ele>
        <time>2020-08-02T13:59:49Z</time>
      </trkpt>
      <trkpt lat="51.206322187369" lon="4.488651870137">
        <ele>0</ele>
        <time>2020-08-02T14:00:52Z</time>
      </trkpt>
      <trkpt lat="51.205977775098" lon="4.488355569972">
        <ele>0</ele>
        <time>2020-08-02T14:01:02Z</time>
      </trkpt>
      <trkpt lat="51.20589295027" lon="4.4882895206">
        <ele>0</ele>
        <time>2020-08-02T14:01:04Z</time>
      </trkpt>
      <trkpt lat="51.205764371924" lon="4.4881805559">
        <ele>0</ele>
        <time>2020-08-02T14:01:07Z</time>
      </trkpt>
      <trkpt lat="51.205685665883" lon="4.488116769641">
        <ele>0</ele>
        <time>2020-08-02T14:01:09Z</time>
      </trkpt>
      <trkpt lat="51.205646019496" lon="4.488012331167">
        <ele>0</ele>
        <time>2020-08-02T14:01:11Z</time>
      </trkpt>
      <trkpt lat="51.205683989503" lon="4.487779817261">
        <ele>0</ele>
        <time>2020-08-02T14:01:15Z</time>
      </trkpt>
      <trkpt lat="51.206020690426" lon="4.487096608592">
        <ele>0</ele>
        <time>2020-08-02T14:01:24Z</time>
      </trkpt>
      <trkpt lat="51.206389242569" lon="4.486398228684">
        <ele>0</ele>
        <time>2020-08-02T14:01:33Z</time>
      </trkpt>
      <trkpt lat="51.206671377323" lon="4.485720132974">
        <ele>0</ele>
        <time>2020-08-02T14:01:42Z</time>
      </trkpt>
      <trkpt lat="51.206703982914" lon="4.485581161072">
        <ele>0</ele>
        <time>2020-08-02T14:01:44Z</time>
      </trkpt>
      <trkpt lat="51.206770619019" lon="4.485062656738">
        <ele>0</ele>
        <time>2020-08-02T14:01:54Z</time>
      </trkpt>
      <trkpt lat="51.207269342069" lon="4.484574243425">
        <ele>0</ele>
        <time>2020-08-02T14:02:08Z</time>
      </trkpt>
      <trkpt lat="51.207784828919" lon="4.48484372151">
        <ele>0</ele>
        <time>2020-08-02T14:02:17Z</time>
      </trkpt>
      <trkpt lat="51.208013822427" lon="4.484964923784">
        <ele>0</ele>
        <time>2020-08-02T14:02:21Z</time>
      </trkpt>
      <trkpt lat="51.208104514585" lon="4.484903987371">
        <ele>0</ele>
        <time>2020-08-02T14:02:23Z</time>
      </trkpt>
      <trkpt lat="51.208175676916" lon="4.484781863088">
        <ele>0</ele>
        <time>2020-08-02T14:02:25Z</time>
      </trkpt>
      <trkpt lat="51.20854163067" lon="4.484122961929">
        <ele>0</ele>
        <time>2020-08-02T14:02:35Z</time>
      </trkpt>
      <trkpt lat="51.208720081321" lon="4.483791038689">
        <ele>0</ele>
        <time>2020-08-02T14:02:40Z</time>
      </trkpt>
      <trkpt lat="51.208820328845" lon="4.483764551885">
        <ele>0</ele>
        <time>2020-08-02T14:02:42Z</time>
      </trkpt>
      <trkpt lat="51.20935635135" lon="4.484077112936">
        <ele>0</ele>
        <time>2020-08-02T14:02:52Z</time>
      </trkpt>
      <trkpt lat="51.209465567507" lon="4.484076107108">
        <ele>0</ele>
        <time>2020-08-02T14:02:54Z</time>
      </trkpt>
      <trkpt lat="51.209870748553" lon="4.483961442716">
        <ele>0</ele>
        <time>2020-08-02T14:03:01Z</time>
      </trkpt>
      <trkpt lat="51.210122708467" lon="4.483801935159">
        <ele>0</ele>
        <time>2020-08-02T14:03:06Z</time>
      </trkpt>
      <trkpt lat="51.210209377313" lon="4.483599596093">
        <ele>0</ele>
        <time>2020-08-02T14:03:09Z</time>
      </trkpt>
      <trkpt lat="51.210237708135" lon="4.483401028882">
        <ele>0</ele>
        <time>2020-08-02T14:03:11Z</time>
      </trkpt>
      <trkpt lat="51.210286155517" lon="4.482497376243">
        <ele>0</ele>
        <time>2020-08-02T14:03:20Z</time>
      </trkpt>
      <trkpt lat="51.210399646443" lon="4.481605374445">
        <ele>0</ele>
        <time>2020-08-02T14:03:30Z</time>
      </trkpt>
      <trkpt lat="51.210519004699" lon="4.480697279399">
        <ele>0</ele>
        <time>2020-08-02T14:03:40Z</time>
      </trkpt>
      <trkpt lat="51.210642889181" lon="4.479847522377">
        <ele>0</ele>
        <time>2020-08-02T14:03:49Z</time>
      </trkpt>
      <trkpt lat="51.210783034549" lon="4.478974296035">
        <ele>0</ele>
        <time>2020-08-02T14:03:59Z</time>
      </trkpt>
      <trkpt lat="51.21089023905" lon="4.478078354744">
        <ele>0</ele>
        <time>2020-08-02T14:04:10Z</time>
      </trkpt>
      <trkpt lat="51.210909685058" lon="4.478037953986">
        <ele>0</ele>
        <time>2020-08-02T14:04:11Z</time>
      </trkpt>
      <trkpt lat="51.210961149924" lon="4.478048096085">
        <ele>0</ele>
        <time>2020-08-02T14:04:13Z</time>
      </trkpt>
      <trkpt lat="51.211233729312" lon="4.478508513852">
        <ele>0</ele>
        <time>2020-08-02T14:04:24Z</time>
      </trkpt>
      <trkpt lat="51.211337748691" lon="4.478830797907">
        <ele>0</ele>
        <time>2020-08-02T14:04:27Z</time>
      </trkpt>
      <trkpt lat="51.211466662313" lon="4.479092983739">
        <ele>0</ele>
        <time>2020-08-02T14:04:31Z</time>
      </trkpt>
      <trkpt lat="51.211917440895" lon="4.479676783074">
        <ele>0.6</ele>
        <time>2020-08-02T14:04:42Z</time>
      </trkpt>
      <trkpt lat="51.212380624689" lon="4.480152707356">
        <ele>2.4</ele>
        <time>2020-08-02T14:04:51Z</time>
      </trkpt>
      <trkpt lat="51.212887897277" lon="4.480557050212">
        <ele>0.6</ele>
        <time>2020-08-02T14:04:59Z</time>
      </trkpt>
      <trkpt lat="51.213395169865" lon="4.480956783023">
        <ele>0.8</ele>
        <time>2020-08-02T14:05:07Z</time>
      </trkpt>
      <trkpt lat="51.213892887087" lon="4.481331873048">
        <ele>0</ele>
        <time>2020-08-02T14:05:15Z</time>
      </trkpt>
      <trkpt lat="51.214431759438" lon="4.481740490673">
        <ele>0</ele>
        <time>2020-08-02T14:05:24Z</time>
      </trkpt>
      <trkpt lat="51.214956885473" lon="4.482045759471">
        <ele>0</ele>
        <time>2020-08-02T14:05:33Z</time>
      </trkpt>
      <trkpt lat="51.21551788604" lon="4.482236699153">
        <ele>0</ele>
        <time>2020-08-02T14:05:43Z</time>
      </trkpt>
      <trkpt lat="51.216100595728" lon="4.482317752126">
        <ele>0</ele>
        <time>2020-08-02T14:05:53Z</time>
      </trkpt>
      <trkpt lat="51.216663021218" lon="4.482277016092">
        <ele>0</ele>
        <time>2020-08-02T14:06:03Z</time>
      </trkpt>
      <trkpt lat="51.217214885514" lon="4.482113317585">
        <ele>0</ele>
        <time>2020-08-02T14:06:15Z</time>
      </trkpt>
      <trkpt lat="51.217642027138" lon="4.481911229976">
        <ele>0</ele>
        <time>2020-08-02T14:06:24Z</time>
      </trkpt>
      <trkpt lat="51.217728444527" lon="4.48186814701">
        <ele>0</ele>
        <time>2020-08-02T14:06:26Z</time>
      </trkpt>
      <trkpt lat="51.218450545212" lon="4.481506635663">
        <ele>0</ele>
        <time>2020-08-02T14:06:40Z</time>
      </trkpt>
      <trkpt lat="51.218975084514" lon="4.481237409035">
        <ele>0</ele>
        <time>2020-08-02T14:06:51Z</time>
      </trkpt>
      <trkpt lat="51.21929225561" lon="4.481047726638">
        <ele>0</ele>
        <time>2020-08-02T14:06:58Z</time>
      </trkpt>
      <trkpt lat="51.219688468023" lon="4.480651849501">
        <ele>0</ele>
        <time>2020-08-02T14:09:09Z</time>
      </trkpt>
      <trkpt lat="51.219570283233" lon="4.480281956254">
        <ele>0</ele>
        <time>2020-08-02T14:09:17Z</time>
      </trkpt>
      <trkpt lat="51.219385127062" lon="4.479381321099">
        <ele>0</ele>
        <time>2020-08-02T14:09:28Z</time>
      </trkpt>
      <trkpt lat="51.219173987001" lon="4.478403991559">
        <ele>0</ele>
        <time>2020-08-02T14:09:38Z</time>
      </trkpt>
      <trkpt lat="51.2189913454" lon="4.477516013073">
        <ele>0</ele>
        <time>2020-08-02T14:09:50Z</time>
      </trkpt>
      <trkpt lat="51.218953794488" lon="4.477282996253">
        <ele>0</ele>
        <time>2020-08-02T14:09:53Z</time>
      </trkpt>
      <trkpt lat="51.218916662671" lon="4.477036568393">
        <ele>0</ele>
        <time>2020-08-02T14:09:56Z</time>
      </trkpt>
      <trkpt lat="51.21896871427" lon="4.476104165837">
        <ele>0</ele>
        <time>2020-08-02T14:10:07Z</time>
      </trkpt>
      <trkpt lat="51.219064770844" lon="4.475219791568">
        <ele>0</ele>
        <time>2020-08-02T14:10:17Z</time>
      </trkpt>
      <trkpt lat="51.219173735544" lon="4.47437053746">
        <ele>0</ele>
        <time>2020-08-02T14:10:27Z</time>
      </trkpt>
      <trkpt lat="51.21931656312" lon="4.473505860656">
        <ele>0</ele>
        <time>2020-08-02T14:10:38Z</time>
      </trkpt>
      <trkpt lat="51.219440112326" lon="4.472799517943">
        <ele>0</ele>
        <time>2020-08-02T14:10:47Z</time>
      </trkpt>
      <trkpt lat="51.219577575486" lon="4.471904917756">
        <ele>0.6</ele>
        <time>2020-08-02T14:10:58Z</time>
      </trkpt>
      <trkpt lat="51.219774550136" lon="4.4710311885">
        <ele>0</ele>
        <time>2020-08-02T14:11:09Z</time>
      </trkpt>
      <trkpt lat="51.219967333836" lon="4.470195848346">
        <ele>0</ele>
        <time>2020-08-02T14:11:20Z</time>
      </trkpt>
      <trkpt lat="51.219978984677" lon="4.470122339083">
        <ele>0</ele>
        <time>2020-08-02T14:11:21Z</time>
      </trkpt>
      <trkpt lat="51.220126506117" lon="4.469247603999">
        <ele>0</ele>
        <time>2020-08-02T14:11:33Z</time>
      </trkpt>
      <trkpt lat="51.220181407562" lon="4.468979802294">
        <ele>1.2</ele>
        <time>2020-08-02T14:11:38Z</time>
      </trkpt>
      <trkpt lat="51.220752298771" lon="4.468975276068">
        <ele>11.4</ele>
        <time>2020-08-02T14:11:51Z</time>
      </trkpt>
      <trkpt lat="51.22102311796" lon="4.468990531126">
        <ele>13.6</ele>
        <time>2020-08-02T14:11:56Z</time>
      </trkpt>
      <trkpt lat="51.221129484271" lon="4.469013413713">
        <ele>13.6</ele>
        <time>2020-08-02T14:11:58Z</time>
      </trkpt>
      <trkpt lat="51.221206597751" lon="4.468948370169">
        <ele>13</ele>
        <time>2020-08-02T14:12:00Z</time>
      </trkpt>
      <trkpt lat="51.221221349895" lon="4.468819037452">
        <ele>12.4</ele>
        <time>2020-08-02T14:12:02Z</time>
      </trkpt>
      <trkpt lat="51.221209782873" lon="4.467877833901">
        <ele>8.2</ele>
        <time>2020-08-02T14:12:13Z</time>
      </trkpt>
      <trkpt lat="51.221239790075" lon="4.466928499907">
        <ele>4.4</ele>
        <time>2020-08-02T14:12:24Z</time>
      </trkpt>
      <trkpt lat="51.22128128048" lon="4.465993918057">
        <ele>4.4</ele>
        <time>2020-08-02T14:12:35Z</time>
      </trkpt>
      <trkpt lat="51.221322687066" lon="4.465122451914">
        <ele>2.6</ele>
        <time>2020-08-02T14:12:45Z</time>
      </trkpt>
      <trkpt lat="51.221387311515" lon="4.464209746823">
        <ele>2.6</ele>
        <time>2020-08-02T14:12:55Z</time>
      </trkpt>
      <trkpt lat="51.221466269013" lon="4.463358900154">
        <ele>2.8</ele>
        <time>2020-08-02T14:13:05Z</time>
      </trkpt>
      <trkpt lat="51.221536760792" lon="4.46244896109">
        <ele>1.8</ele>
        <time>2020-08-02T14:13:15Z</time>
      </trkpt>
      <trkpt lat="51.221551261479" lon="4.461842446806">
        <ele>0</ele>
        <time>2020-08-02T14:13:25Z</time>
      </trkpt>
      <trkpt lat="51.221563834329" lon="4.461704732189">
        <ele>0</ele>
        <time>2020-08-02T14:13:27Z</time>
      </trkpt>
      <trkpt lat="51.221608593675" lon="4.461565005916">
        <ele>0</ele>
        <time>2020-08-02T14:13:29Z</time>
      </trkpt>
      <trkpt lat="51.221684785146" lon="4.46146241146">
        <ele>0</ele>
        <time>2020-08-02T14:13:31Z</time>
      </trkpt>
      <trkpt lat="51.222194823761" lon="4.461051949817">
        <ele>0</ele>
        <time>2020-08-02T14:13:41Z</time>
      </trkpt>
      <trkpt lat="51.222240756573" lon="4.461028480497">
        <ele>0</ele>
        <time>2020-08-02T14:13:42Z</time>
      </trkpt>
      <trkpt lat="51.222331113455" lon="4.4610315818">
        <ele>0</ele>
        <time>2020-08-02T14:13:44Z</time>
      </trkpt>
      <trkpt lat="51.222407221107" lon="4.461149598952">
        <ele>0</ele>
        <time>2020-08-02T14:13:46Z</time>
      </trkpt>
      <trkpt lat="51.222621713928" lon="4.461944454529">
        <ele>0</ele>
        <time>2020-08-02T14:13:55Z</time>
      </trkpt>
      <trkpt lat="51.222732271189" lon="4.462302696935">
        <ele>0.4</ele>
        <time>2020-08-02T14:14:01Z</time>
      </trkpt>
      <trkpt lat="51.22322169033" lon="4.461936910819">
        <ele>0</ele>
        <time>2020-08-02T14:14:10Z</time>
      </trkpt>
      <trkpt lat="51.22370867872" lon="4.46148671897">
        <ele>0</ele>
        <time>2020-08-02T14:14:27Z</time>
      </trkpt>
      <trkpt lat="51.22419063797" lon="4.46108857872">
        <ele>0</ele>
        <time>2020-08-02T14:14:38Z</time>
      </trkpt>
      <trkpt lat="51.224699335481" lon="4.460765372656">
        <ele>0</ele>
        <time>2020-08-02T14:14:48Z</time>
      </trkpt>
      <trkpt lat="51.22524089004" lon="4.460361113619">
        <ele>0</ele>
        <time>2020-08-02T14:14:58Z</time>
      </trkpt>
      <trkpt lat="51.225761238392" lon="4.459965907034">
        <ele>0</ele>
        <time>2020-08-02T14:15:08Z</time>
      </trkpt>
      <trkpt lat="51.226265074401" lon="4.459647562472">
        <ele>0</ele>
        <time>2020-08-02T14:15:22Z</time>
      </trkpt>
      <trkpt lat="51.226768658953" lon="4.459246320919">
        <ele>0</ele>
        <time>2020-08-02T14:15:38Z</time>
      </trkpt>
      <trkpt lat="51.226960436825" lon="4.45916660905">
        <ele>0</ele>
        <time>2020-08-02T14:15:42Z</time>
      </trkpt>
      <trkpt lat="51.227463518463" lon="4.458842900072">
        <ele>0</ele>
        <time>2020-08-02T14:15:52Z</time>
      </trkpt>
      <trkpt lat="51.227968695576" lon="4.458502008199">
        <ele>0</ele>
        <time>2020-08-02T14:16:02Z</time>
      </trkpt>
      <trkpt lat="51.228494659801" lon="4.458224734947">
        <ele>0</ele>
        <time>2020-08-02T14:16:13Z</time>
      </trkpt>
      <trkpt lat="51.228634972807" lon="4.458177041936">
        <ele>0</ele>
        <time>2020-08-02T14:16:16Z</time>
      </trkpt>
      <trkpt lat="51.229182227058" lon="4.457982833313">
        <ele>0</ele>
        <time>2020-08-02T14:16:28Z</time>
      </trkpt>
      <trkpt lat="51.229281887849" lon="4.457956514147">
        <ele>0</ele>
        <time>2020-08-02T14:16:29Z</time>
      </trkpt>
    </trkseg>
  </trk>
</gpx>